<?xml version="1.0" encoding="UTF-8" standalone="no" ?>
<gpx xmlns="http://www.topografix.com/GPX/1/1" xmlns:xsi="http://www.w3.org/2001/XMLSchema-instance" xsi:schemaLocation="http://www.topografix.com/GPX/1/1 http://www.topografix.com/GPX/1/1/gpx.xsd" version="1.1" creator="VisuGPX - https://www.visugpx.com">
  <metadata>
    <name>Marche nordique</name>
    <desc><![CDATA[Le circuit avec le groupe plus une boucle avec Patick.]]></desc>
  </metadata>
  <trk>
    <name><![CDATA[26/01/13 07:57]]></name>
    <desc><![CDATA[]]></desc>
    <trkseg>
      <trkpt lat="47.3028" lon="4.98085">
        <ele>417</ele>
        <time>2013-01-26T06:59:34Z</time>
      </trkpt>
      <trkpt lat="47.30276" lon="4.9808">
        <ele>417</ele>
        <time>2013-01-26T06:59:55Z</time>
      </trkpt>
      <trkpt lat="47.3027" lon="4.98071">
        <ele>420</ele>
        <time>2013-01-26T07:01:04Z</time>
      </trkpt>
      <trkpt lat="47.30274" lon="4.98075">
        <ele>422</ele>
        <time>2013-01-26T07:01:19Z</time>
      </trkpt>
      <trkpt lat="47.30279" lon="4.9808">
        <ele>413</ele>
        <time>2013-01-26T07:01:36Z</time>
      </trkpt>
      <trkpt lat="47.3028" lon="4.98087">
        <ele>414</ele>
        <time>2013-01-26T07:01:44Z</time>
      </trkpt>
      <trkpt lat="47.30276" lon="4.98088">
        <ele>416</ele>
        <time>2013-01-26T07:03:27Z</time>
      </trkpt>
      <trkpt lat="47.30279" lon="4.98093">
        <ele>414</ele>
        <time>2013-01-26T07:03:29Z</time>
      </trkpt>
      <trkpt lat="47.30279" lon="4.98093">
        <ele>414</ele>
        <time>2013-01-26T07:03:29Z</time>
      </trkpt>
      <trkpt lat="47.30279" lon="4.98093">
        <ele>413</ele>
        <time>2013-01-26T07:03:31Z</time>
      </trkpt>
      <trkpt lat="47.3027" lon="4.98091">
        <ele>417</ele>
        <time>2013-01-26T07:04:27Z</time>
      </trkpt>
      <trkpt lat="47.30278" lon="4.98095">
        <ele>405</ele>
        <time>2013-01-26T07:04:28Z</time>
      </trkpt>
      <trkpt lat="47.30283" lon="4.98098">
        <ele>408</ele>
        <time>2013-01-26T07:04:34Z</time>
      </trkpt>
      <trkpt lat="47.30278" lon="4.9809">
        <ele>416</ele>
        <time>2013-01-26T07:04:36Z</time>
      </trkpt>
      <trkpt lat="47.30282" lon="4.98097">
        <ele>412</ele>
        <time>2013-01-26T07:04:42Z</time>
      </trkpt>
      <trkpt lat="47.30282" lon="4.98097">
        <ele>412</ele>
        <time>2013-01-26T07:04:42Z</time>
      </trkpt>
      <trkpt lat="47.30282" lon="4.98097">
        <ele>412</ele>
        <time>2013-01-26T07:04:43Z</time>
      </trkpt>
      <trkpt lat="47.30279" lon="4.98088">
        <ele>410</ele>
        <time>2013-01-26T07:06:39Z</time>
      </trkpt>
      <trkpt lat="47.30268" lon="4.98109">
        <ele>431</ele>
        <time>2013-01-26T07:06:45Z</time>
      </trkpt>
      <trkpt lat="47.30273" lon="4.98103">
        <ele>414</ele>
        <time>2013-01-26T07:06:46Z</time>
      </trkpt>
      <trkpt lat="47.30277" lon="4.98098">
        <ele>415</ele>
        <time>2013-01-26T07:06:47Z</time>
      </trkpt>
      <trkpt lat="47.3028" lon="4.98094">
        <ele>413</ele>
        <time>2013-01-26T07:06:49Z</time>
      </trkpt>
      <trkpt lat="47.30285" lon="4.98092">
        <ele>416</ele>
        <time>2013-01-26T07:07:15Z</time>
      </trkpt>
      <trkpt lat="47.3029" lon="4.98094">
        <ele>414</ele>
        <time>2013-01-26T07:07:21Z</time>
      </trkpt>
      <trkpt lat="47.30294" lon="4.98097">
        <ele>413</ele>
        <time>2013-01-26T07:07:25Z</time>
      </trkpt>
      <trkpt lat="47.30299" lon="4.98102">
        <ele>413</ele>
        <time>2013-01-26T07:07:29Z</time>
      </trkpt>
      <trkpt lat="47.30303" lon="4.98108">
        <ele>411</ele>
        <time>2013-01-26T07:07:32Z</time>
      </trkpt>
      <trkpt lat="47.30308" lon="4.98111">
        <ele>411</ele>
        <time>2013-01-26T07:07:36Z</time>
      </trkpt>
      <trkpt lat="47.30313" lon="4.98114">
        <ele>409</ele>
        <time>2013-01-26T07:07:41Z</time>
      </trkpt>
      <trkpt lat="47.30318" lon="4.98118">
        <ele>409</ele>
        <time>2013-01-26T07:07:45Z</time>
      </trkpt>
      <trkpt lat="47.30323" lon="4.9812">
        <ele>410</ele>
        <time>2013-01-26T07:07:51Z</time>
      </trkpt>
      <trkpt lat="47.30328" lon="4.9812">
        <ele>410</ele>
        <time>2013-01-26T07:07:55Z</time>
      </trkpt>
      <trkpt lat="47.30336" lon="4.98125">
        <ele>410</ele>
        <time>2013-01-26T07:07:59Z</time>
      </trkpt>
      <trkpt lat="47.30341" lon="4.98125">
        <ele>409</ele>
        <time>2013-01-26T07:08:02Z</time>
      </trkpt>
      <trkpt lat="47.30346" lon="4.98125">
        <ele>409</ele>
        <time>2013-01-26T07:08:06Z</time>
      </trkpt>
      <trkpt lat="47.30352" lon="4.98127">
        <ele>408</ele>
        <time>2013-01-26T07:08:10Z</time>
      </trkpt>
      <trkpt lat="47.30358" lon="4.98128">
        <ele>407</ele>
        <time>2013-01-26T07:08:13Z</time>
      </trkpt>
      <trkpt lat="47.30362" lon="4.98125">
        <ele>407</ele>
        <time>2013-01-26T07:08:17Z</time>
      </trkpt>
      <trkpt lat="47.30368" lon="4.98124">
        <ele>405</ele>
        <time>2013-01-26T07:08:21Z</time>
      </trkpt>
      <trkpt lat="47.30375" lon="4.98123">
        <ele>405</ele>
        <time>2013-01-26T07:08:25Z</time>
      </trkpt>
      <trkpt lat="47.30381" lon="4.98123">
        <ele>404</ele>
        <time>2013-01-26T07:08:29Z</time>
      </trkpt>
      <trkpt lat="47.30387" lon="4.98121">
        <ele>404</ele>
        <time>2013-01-26T07:08:33Z</time>
      </trkpt>
      <trkpt lat="47.30392" lon="4.98119">
        <ele>404</ele>
        <time>2013-01-26T07:08:37Z</time>
      </trkpt>
      <trkpt lat="47.30397" lon="4.98119">
        <ele>404</ele>
        <time>2013-01-26T07:08:40Z</time>
      </trkpt>
      <trkpt lat="47.30402" lon="4.98119">
        <ele>404</ele>
        <time>2013-01-26T07:08:43Z</time>
      </trkpt>
      <trkpt lat="47.30408" lon="4.98119">
        <ele>403</ele>
        <time>2013-01-26T07:08:47Z</time>
      </trkpt>
      <trkpt lat="47.30414" lon="4.98119">
        <ele>403</ele>
        <time>2013-01-26T07:08:50Z</time>
      </trkpt>
      <trkpt lat="47.30419" lon="4.98117">
        <ele>402</ele>
        <time>2013-01-26T07:08:54Z</time>
      </trkpt>
      <trkpt lat="47.30424" lon="4.98116">
        <ele>403</ele>
        <time>2013-01-26T07:08:57Z</time>
      </trkpt>
      <trkpt lat="47.3043" lon="4.98114">
        <ele>406</ele>
        <time>2013-01-26T07:09:02Z</time>
      </trkpt>
      <trkpt lat="47.30435" lon="4.98115">
        <ele>407</ele>
        <time>2013-01-26T07:09:06Z</time>
      </trkpt>
      <trkpt lat="47.3044" lon="4.98116">
        <ele>407</ele>
        <time>2013-01-26T07:09:09Z</time>
      </trkpt>
      <trkpt lat="47.30445" lon="4.98119">
        <ele>406</ele>
        <time>2013-01-26T07:09:13Z</time>
      </trkpt>
      <trkpt lat="47.30449" lon="4.98123">
        <ele>406</ele>
        <time>2013-01-26T07:09:17Z</time>
      </trkpt>
      <trkpt lat="47.30455" lon="4.98128">
        <ele>406</ele>
        <time>2013-01-26T07:09:21Z</time>
      </trkpt>
      <trkpt lat="47.30459" lon="4.98133">
        <ele>406</ele>
        <time>2013-01-26T07:09:25Z</time>
      </trkpt>
      <trkpt lat="47.30463" lon="4.98139">
        <ele>407</ele>
        <time>2013-01-26T07:09:28Z</time>
      </trkpt>
      <trkpt lat="47.30467" lon="4.98142">
        <ele>407</ele>
        <time>2013-01-26T07:09:32Z</time>
      </trkpt>
      <trkpt lat="47.30471" lon="4.98147">
        <ele>407</ele>
        <time>2013-01-26T07:09:35Z</time>
      </trkpt>
      <trkpt lat="47.30475" lon="4.98154">
        <ele>408</ele>
        <time>2013-01-26T07:09:38Z</time>
      </trkpt>
      <trkpt lat="47.30477" lon="4.98161">
        <ele>408</ele>
        <time>2013-01-26T07:09:41Z</time>
      </trkpt>
      <trkpt lat="47.30482" lon="4.98164">
        <ele>408</ele>
        <time>2013-01-26T07:09:44Z</time>
      </trkpt>
      <trkpt lat="47.30484" lon="4.98172">
        <ele>408</ele>
        <time>2013-01-26T07:09:47Z</time>
      </trkpt>
      <trkpt lat="47.30486" lon="4.98179">
        <ele>409</ele>
        <time>2013-01-26T07:09:49Z</time>
      </trkpt>
      <trkpt lat="47.30492" lon="4.98185">
        <ele>409</ele>
        <time>2013-01-26T07:09:54Z</time>
      </trkpt>
      <trkpt lat="47.30498" lon="4.98188">
        <ele>408</ele>
        <time>2013-01-26T07:09:59Z</time>
      </trkpt>
      <trkpt lat="47.30502" lon="4.98192">
        <ele>408</ele>
        <time>2013-01-26T07:10:03Z</time>
      </trkpt>
      <trkpt lat="47.30504" lon="4.982">
        <ele>409</ele>
        <time>2013-01-26T07:10:05Z</time>
      </trkpt>
      <trkpt lat="47.30509" lon="4.98201">
        <ele>409</ele>
        <time>2013-01-26T07:10:09Z</time>
      </trkpt>
      <trkpt lat="47.30512" lon="4.98212">
        <ele>409</ele>
        <time>2013-01-26T07:10:12Z</time>
      </trkpt>
      <trkpt lat="47.30515" lon="4.98205">
        <ele>409</ele>
        <time>2013-01-26T07:10:14Z</time>
      </trkpt>
      <trkpt lat="47.30517" lon="4.98212">
        <ele>409</ele>
        <time>2013-01-26T07:10:16Z</time>
      </trkpt>
      <trkpt lat="47.30519" lon="4.98221">
        <ele>409</ele>
        <time>2013-01-26T07:10:18Z</time>
      </trkpt>
      <trkpt lat="47.30521" lon="4.98215">
        <ele>409</ele>
        <time>2013-01-26T07:10:20Z</time>
      </trkpt>
      <trkpt lat="47.30522" lon="4.98224">
        <ele>409</ele>
        <time>2013-01-26T07:10:21Z</time>
      </trkpt>
      <trkpt lat="47.30524" lon="4.9823">
        <ele>409</ele>
        <time>2013-01-26T07:10:22Z</time>
      </trkpt>
      <trkpt lat="47.30526" lon="4.98236">
        <ele>409</ele>
        <time>2013-01-26T07:10:24Z</time>
      </trkpt>
      <trkpt lat="47.3053" lon="4.98237">
        <ele>409</ele>
        <time>2013-01-26T07:10:29Z</time>
      </trkpt>
      <trkpt lat="47.30535" lon="4.98241">
        <ele>409</ele>
        <time>2013-01-26T07:10:33Z</time>
      </trkpt>
      <trkpt lat="47.30538" lon="4.98249">
        <ele>409</ele>
        <time>2013-01-26T07:10:37Z</time>
      </trkpt>
      <trkpt lat="47.30542" lon="4.98255">
        <ele>409</ele>
        <time>2013-01-26T07:10:41Z</time>
      </trkpt>
      <trkpt lat="47.30544" lon="4.98263">
        <ele>409</ele>
        <time>2013-01-26T07:10:43Z</time>
      </trkpt>
      <trkpt lat="47.30549" lon="4.98257">
        <ele>409</ele>
        <time>2013-01-26T07:10:47Z</time>
      </trkpt>
      <trkpt lat="47.30554" lon="4.98261">
        <ele>409</ele>
        <time>2013-01-26T07:10:50Z</time>
      </trkpt>
      <trkpt lat="47.30559" lon="4.98267">
        <ele>410</ele>
        <time>2013-01-26T07:10:53Z</time>
      </trkpt>
      <trkpt lat="47.30563" lon="4.98273">
        <ele>410</ele>
        <time>2013-01-26T07:10:57Z</time>
      </trkpt>
      <trkpt lat="47.30566" lon="4.9828">
        <ele>409</ele>
        <time>2013-01-26T07:11:00Z</time>
      </trkpt>
      <trkpt lat="47.30571" lon="4.98285">
        <ele>407</ele>
        <time>2013-01-26T07:11:05Z</time>
      </trkpt>
      <trkpt lat="47.30574" lon="4.9829">
        <ele>407</ele>
        <time>2013-01-26T07:11:08Z</time>
      </trkpt>
      <trkpt lat="47.3058" lon="4.98294">
        <ele>406</ele>
        <time>2013-01-26T07:11:12Z</time>
      </trkpt>
      <trkpt lat="47.30584" lon="4.98296">
        <ele>406</ele>
        <time>2013-01-26T07:11:15Z</time>
      </trkpt>
      <trkpt lat="47.30589" lon="4.98301">
        <ele>406</ele>
        <time>2013-01-26T07:11:18Z</time>
      </trkpt>
      <trkpt lat="47.30594" lon="4.98302">
        <ele>406</ele>
        <time>2013-01-26T07:11:21Z</time>
      </trkpt>
      <trkpt lat="47.30598" lon="4.98306">
        <ele>407</ele>
        <time>2013-01-26T07:11:24Z</time>
      </trkpt>
      <trkpt lat="47.30604" lon="4.98308">
        <ele>406</ele>
        <time>2013-01-26T07:11:28Z</time>
      </trkpt>
      <trkpt lat="47.30609" lon="4.98312">
        <ele>407</ele>
        <time>2013-01-26T07:11:32Z</time>
      </trkpt>
      <trkpt lat="47.30612" lon="4.98318">
        <ele>406</ele>
        <time>2013-01-26T07:11:34Z</time>
      </trkpt>
      <trkpt lat="47.30617" lon="4.98323">
        <ele>406</ele>
        <time>2013-01-26T07:11:37Z</time>
      </trkpt>
      <trkpt lat="47.30622" lon="4.98329">
        <ele>406</ele>
        <time>2013-01-26T07:11:41Z</time>
      </trkpt>
      <trkpt lat="47.30624" lon="4.98338">
        <ele>405</ele>
        <time>2013-01-26T07:11:47Z</time>
      </trkpt>
      <trkpt lat="47.30627" lon="4.98344">
        <ele>405</ele>
        <time>2013-01-26T07:11:52Z</time>
      </trkpt>
      <trkpt lat="47.30629" lon="4.98352">
        <ele>404</ele>
        <time>2013-01-26T07:11:57Z</time>
      </trkpt>
      <trkpt lat="47.30623" lon="4.98341">
        <ele>411</ele>
        <time>2013-01-26T07:12:00Z</time>
      </trkpt>
      <trkpt lat="47.3064" lon="4.98374">
        <ele>411</ele>
        <time>2013-01-26T07:12:05Z</time>
      </trkpt>
      <trkpt lat="47.30636" lon="4.98383">
        <ele>410</ele>
        <time>2013-01-26T07:12:15Z</time>
      </trkpt>
      <trkpt lat="47.30634" lon="4.98392">
        <ele>410</ele>
        <time>2013-01-26T07:12:16Z</time>
      </trkpt>
      <trkpt lat="47.30639" lon="4.98394">
        <ele>411</ele>
        <time>2013-01-26T07:12:19Z</time>
      </trkpt>
      <trkpt lat="47.30629" lon="4.9839">
        <ele>410</ele>
        <time>2013-01-26T07:12:23Z</time>
      </trkpt>
      <trkpt lat="47.30629" lon="4.9839">
        <ele>410</ele>
        <time>2013-01-26T07:12:23Z</time>
      </trkpt>
      <trkpt lat="47.30629" lon="4.9839">
        <ele>410</ele>
        <time>2013-01-26T07:12:25Z</time>
      </trkpt>
      <trkpt lat="47.30623" lon="4.98389">
        <ele>410</ele>
        <time>2013-01-26T07:12:26Z</time>
      </trkpt>
      <trkpt lat="47.30618" lon="4.98389">
        <ele>410</ele>
        <time>2013-01-26T07:12:29Z</time>
      </trkpt>
      <trkpt lat="47.30622" lon="4.98396">
        <ele>410</ele>
        <time>2013-01-26T07:12:32Z</time>
      </trkpt>
      <trkpt lat="47.30629" lon="4.9841">
        <ele>411</ele>
        <time>2013-01-26T07:12:43Z</time>
      </trkpt>
      <trkpt lat="47.30633" lon="4.9842">
        <ele>408</ele>
        <time>2013-01-26T07:12:44Z</time>
      </trkpt>
      <trkpt lat="47.30636" lon="4.9843">
        <ele>408</ele>
        <time>2013-01-26T07:12:47Z</time>
      </trkpt>
      <trkpt lat="47.30642" lon="4.98444">
        <ele>411</ele>
        <time>2013-01-26T07:12:50Z</time>
      </trkpt>
      <trkpt lat="47.30662" lon="4.98469">
        <ele>395</ele>
        <time>2013-01-26T07:12:53Z</time>
      </trkpt>
      <trkpt lat="47.30651" lon="4.98474">
        <ele>395</ele>
        <time>2013-01-26T07:12:55Z</time>
      </trkpt>
      <trkpt lat="47.30615" lon="4.9847">
        <ele>404</ele>
        <time>2013-01-26T07:13:01Z</time>
      </trkpt>
      <trkpt lat="47.30652" lon="4.98472">
        <ele>396</ele>
        <time>2013-01-26T07:13:02Z</time>
      </trkpt>
      <trkpt lat="47.3063" lon="4.98548">
        <ele>408</ele>
        <time>2013-01-26T07:13:34Z</time>
      </trkpt>
      <trkpt lat="47.30625" lon="4.98566">
        <ele>388</ele>
        <time>2013-01-26T07:13:39Z</time>
      </trkpt>
      <trkpt lat="47.3063" lon="4.98549">
        <ele>409</ele>
        <time>2013-01-26T07:13:40Z</time>
      </trkpt>
      <trkpt lat="47.30624" lon="4.98571">
        <ele>392</ele>
        <time>2013-01-26T07:13:42Z</time>
      </trkpt>
      <trkpt lat="47.30593" lon="4.98572">
        <ele>390</ele>
        <time>2013-01-26T07:13:47Z</time>
      </trkpt>
      <trkpt lat="47.30623" lon="4.98572">
        <ele>390</ele>
        <time>2013-01-26T07:13:48Z</time>
      </trkpt>
      <trkpt lat="47.30614" lon="4.98584">
        <ele>373</ele>
        <time>2013-01-26T07:13:52Z</time>
      </trkpt>
      <trkpt lat="47.30602" lon="4.98581">
        <ele>382</ele>
        <time>2013-01-26T07:13:54Z</time>
      </trkpt>
      <trkpt lat="47.30602" lon="4.98581">
        <ele>382</ele>
        <time>2013-01-26T07:13:54Z</time>
      </trkpt>
      <trkpt lat="47.30602" lon="4.98581">
        <ele>383</ele>
        <time>2013-01-26T07:13:55Z</time>
      </trkpt>
      <trkpt lat="47.30601" lon="4.98589">
        <ele>383</ele>
        <time>2013-01-26T07:14:03Z</time>
      </trkpt>
      <trkpt lat="47.30594" lon="4.98592">
        <ele>383</ele>
        <time>2013-01-26T07:14:06Z</time>
      </trkpt>
      <trkpt lat="47.30588" lon="4.98589">
        <ele>384</ele>
        <time>2013-01-26T07:14:07Z</time>
      </trkpt>
      <trkpt lat="47.30586" lon="4.98595">
        <ele>385</ele>
        <time>2013-01-26T07:14:09Z</time>
      </trkpt>
      <trkpt lat="47.30581" lon="4.986">
        <ele>382</ele>
        <time>2013-01-26T07:14:11Z</time>
      </trkpt>
      <trkpt lat="47.3058" lon="4.98609">
        <ele>384</ele>
        <time>2013-01-26T07:14:15Z</time>
      </trkpt>
      <trkpt lat="47.30446" lon="4.98577">
        <ele>384</ele>
        <time>2013-01-26T07:14:16Z</time>
      </trkpt>
      <trkpt lat="47.30548" lon="4.986">
        <ele>381</ele>
        <time>2013-01-26T07:14:17Z</time>
      </trkpt>
      <trkpt lat="47.30535" lon="4.98598">
        <ele>381</ele>
        <time>2013-01-26T07:14:25Z</time>
      </trkpt>
      <trkpt lat="47.30549" lon="4.98601">
        <ele>377</ele>
        <time>2013-01-26T07:14:27Z</time>
      </trkpt>
      <trkpt lat="47.30536" lon="4.98596">
        <ele>376</ele>
        <time>2013-01-26T07:14:31Z</time>
      </trkpt>
      <trkpt lat="47.30539" lon="4.98603">
        <ele>387</ele>
        <time>2013-01-26T07:14:33Z</time>
      </trkpt>
      <trkpt lat="47.30559" lon="4.98619">
        <ele>390</ele>
        <time>2013-01-26T07:14:35Z</time>
      </trkpt>
      <trkpt lat="47.30518" lon="4.98584">
        <ele>383</ele>
        <time>2013-01-26T07:14:37Z</time>
      </trkpt>
      <trkpt lat="47.30524" lon="4.98606">
        <ele>384</ele>
        <time>2013-01-26T07:14:38Z</time>
      </trkpt>
      <trkpt lat="47.30516" lon="4.98601">
        <ele>382</ele>
        <time>2013-01-26T07:14:40Z</time>
      </trkpt>
      <trkpt lat="47.30534" lon="4.98605">
        <ele>382</ele>
        <time>2013-01-26T07:14:41Z</time>
      </trkpt>
      <trkpt lat="47.30541" lon="4.98619">
        <ele>379</ele>
        <time>2013-01-26T07:14:42Z</time>
      </trkpt>
      <trkpt lat="47.3055" lon="4.9863">
        <ele>381</ele>
        <time>2013-01-26T07:14:49Z</time>
      </trkpt>
      <trkpt lat="47.30544" lon="4.9864">
        <ele>389</ele>
        <time>2013-01-26T07:14:59Z</time>
      </trkpt>
      <trkpt lat="47.30548" lon="4.98644">
        <ele>384</ele>
        <time>2013-01-26T07:15:00Z</time>
      </trkpt>
      <trkpt lat="47.30552" lon="4.98652">
        <ele>384</ele>
        <time>2013-01-26T07:15:08Z</time>
      </trkpt>
      <trkpt lat="47.3055" lon="4.98645">
        <ele>384</ele>
        <time>2013-01-26T07:15:09Z</time>
      </trkpt>
      <trkpt lat="47.30524" lon="4.98622">
        <ele>400</ele>
        <time>2013-01-26T07:15:10Z</time>
      </trkpt>
      <trkpt lat="47.30519" lon="4.98614">
        <ele>385</ele>
        <time>2013-01-26T07:15:11Z</time>
      </trkpt>
      <trkpt lat="47.30519" lon="4.98614">
        <ele>385</ele>
        <time>2013-01-26T07:15:11Z</time>
      </trkpt>
      <trkpt lat="47.30519" lon="4.98614">
        <ele>385</ele>
        <time>2013-01-26T07:15:22Z</time>
      </trkpt>
      <trkpt lat="47.30527" lon="4.98603">
        <ele>382</ele>
        <time>2013-01-26T07:15:23Z</time>
      </trkpt>
      <trkpt lat="47.30534" lon="4.98599">
        <ele>382</ele>
        <time>2013-01-26T07:15:24Z</time>
      </trkpt>
      <trkpt lat="47.30528" lon="4.98594">
        <ele>377</ele>
        <time>2013-01-26T07:15:28Z</time>
      </trkpt>
      <trkpt lat="47.30531" lon="4.98588">
        <ele>376</ele>
        <time>2013-01-26T07:15:32Z</time>
      </trkpt>
      <trkpt lat="47.30503" lon="4.98556">
        <ele>373</ele>
        <time>2013-01-26T07:15:47Z</time>
      </trkpt>
      <trkpt lat="47.3049" lon="4.98532">
        <ele>373</ele>
        <time>2013-01-26T07:15:51Z</time>
      </trkpt>
      <trkpt lat="47.30496" lon="4.98548">
        <ele>373</ele>
        <time>2013-01-26T07:15:56Z</time>
      </trkpt>
      <trkpt lat="47.30493" lon="4.98532">
        <ele>373</ele>
        <time>2013-01-26T07:15:57Z</time>
      </trkpt>
      <trkpt lat="47.30508" lon="4.98533">
        <ele>373</ele>
        <time>2013-01-26T07:16:00Z</time>
      </trkpt>
      <trkpt lat="47.30491" lon="4.98526">
        <ele>372</ele>
        <time>2013-01-26T07:16:02Z</time>
      </trkpt>
      <trkpt lat="47.30513" lon="4.9853">
        <ele>373</ele>
        <time>2013-01-26T07:16:04Z</time>
      </trkpt>
      <trkpt lat="47.30492" lon="4.98509">
        <ele>371</ele>
        <time>2013-01-26T07:16:06Z</time>
      </trkpt>
      <trkpt lat="47.30498" lon="4.98507">
        <ele>370</ele>
        <time>2013-01-26T07:16:23Z</time>
      </trkpt>
      <trkpt lat="47.30513" lon="4.98504">
        <ele>372</ele>
        <time>2013-01-26T07:16:25Z</time>
      </trkpt>
      <trkpt lat="47.30507" lon="4.98468">
        <ele>350</ele>
        <time>2013-01-26T07:17:17Z</time>
      </trkpt>
      <trkpt lat="47.30422" lon="4.98446">
        <ele>323</ele>
        <time>2013-01-26T07:17:45Z</time>
      </trkpt>
      <trkpt lat="47.30419" lon="4.98439">
        <ele>320</ele>
        <time>2013-01-26T07:17:46Z</time>
      </trkpt>
      <trkpt lat="47.30421" lon="4.98445">
        <ele>319</ele>
        <time>2013-01-26T07:17:48Z</time>
      </trkpt>
      <trkpt lat="47.30312" lon="4.9832">
        <ele>424</ele>
        <time>2013-01-26T07:19:01Z</time>
      </trkpt>
      <trkpt lat="47.30317" lon="4.98295">
        <ele>419</ele>
        <time>2013-01-26T07:19:39Z</time>
      </trkpt>
      <trkpt lat="47.30299" lon="4.98289">
        <ele>415</ele>
        <time>2013-01-26T07:19:40Z</time>
      </trkpt>
      <trkpt lat="47.30311" lon="4.98293">
        <ele>420</ele>
        <time>2013-01-26T07:19:41Z</time>
      </trkpt>
      <trkpt lat="47.30311" lon="4.98293">
        <ele>420</ele>
        <time>2013-01-26T07:19:41Z</time>
      </trkpt>
      <trkpt lat="47.30311" lon="4.98293">
        <ele>420</ele>
        <time>2013-01-26T07:19:42Z</time>
      </trkpt>
      <trkpt lat="47.3025" lon="4.98263">
        <ele>420</ele>
        <time>2013-01-26T07:19:48Z</time>
      </trkpt>
      <trkpt lat="47.30243" lon="4.98273">
        <ele>407</ele>
        <time>2013-01-26T07:19:49Z</time>
      </trkpt>
      <trkpt lat="47.30255" lon="4.98264">
        <ele>419</ele>
        <time>2013-01-26T07:19:51Z</time>
      </trkpt>
      <trkpt lat="47.30269" lon="4.98274">
        <ele>418</ele>
        <time>2013-01-26T07:19:52Z</time>
      </trkpt>
      <trkpt lat="47.30248" lon="4.98251">
        <ele>427</ele>
        <time>2013-01-26T07:19:53Z</time>
      </trkpt>
      <trkpt lat="47.30236" lon="4.9825">
        <ele>430</ele>
        <time>2013-01-26T07:19:56Z</time>
      </trkpt>
      <trkpt lat="47.30246" lon="4.98262">
        <ele>436</ele>
        <time>2013-01-26T07:19:57Z</time>
      </trkpt>
      <trkpt lat="47.30236" lon="4.9825">
        <ele>432</ele>
        <time>2013-01-26T07:19:58Z</time>
      </trkpt>
      <trkpt lat="47.30244" lon="4.98252">
        <ele>438</ele>
        <time>2013-01-26T07:19:59Z</time>
      </trkpt>
      <trkpt lat="47.30242" lon="4.98259">
        <ele>436</ele>
        <time>2013-01-26T07:20:00Z</time>
      </trkpt>
      <trkpt lat="47.30228" lon="4.98254">
        <ele>441</ele>
        <time>2013-01-26T07:20:01Z</time>
      </trkpt>
      <trkpt lat="47.30242" lon="4.98259">
        <ele>436</ele>
        <time>2013-01-26T07:20:02Z</time>
      </trkpt>
      <trkpt lat="47.3023" lon="4.98243">
        <ele>449</ele>
        <time>2013-01-26T07:20:03Z</time>
      </trkpt>
      <trkpt lat="47.30214" lon="4.98242">
        <ele>412</ele>
        <time>2013-01-26T07:20:05Z</time>
      </trkpt>
      <trkpt lat="47.30223" lon="4.98249">
        <ele>408</ele>
        <time>2013-01-26T07:20:06Z</time>
      </trkpt>
      <trkpt lat="47.30227" lon="4.98256">
        <ele>428</ele>
        <time>2013-01-26T07:20:08Z</time>
      </trkpt>
      <trkpt lat="47.30204" lon="4.98242">
        <ele>432</ele>
        <time>2013-01-26T07:20:09Z</time>
      </trkpt>
      <trkpt lat="47.30212" lon="4.98242">
        <ele>438</ele>
        <time>2013-01-26T07:20:10Z</time>
      </trkpt>
      <trkpt lat="47.30211" lon="4.98234">
        <ele>431</ele>
        <time>2013-01-26T07:20:12Z</time>
      </trkpt>
      <trkpt lat="47.30218" lon="4.98242">
        <ele>439</ele>
        <time>2013-01-26T07:20:15Z</time>
      </trkpt>
      <trkpt lat="47.30181" lon="4.98181">
        <ele>455</ele>
        <time>2013-01-26T07:20:28Z</time>
      </trkpt>
      <trkpt lat="47.30195" lon="4.98197">
        <ele>447</ele>
        <time>2013-01-26T07:20:39Z</time>
      </trkpt>
      <trkpt lat="47.30195" lon="4.98197">
        <ele>447</ele>
        <time>2013-01-26T07:20:39Z</time>
      </trkpt>
      <trkpt lat="47.30195" lon="4.98197">
        <ele>447</ele>
        <time>2013-01-26T07:20:40Z</time>
      </trkpt>
      <trkpt lat="47.30188" lon="4.98204">
        <ele>426</ele>
        <time>2013-01-26T07:20:41Z</time>
      </trkpt>
      <trkpt lat="47.30187" lon="4.98211">
        <ele>407</ele>
        <time>2013-01-26T07:20:56Z</time>
      </trkpt>
      <trkpt lat="47.30186" lon="4.98199">
        <ele>433</ele>
        <time>2013-01-26T07:20:57Z</time>
      </trkpt>
      <trkpt lat="47.30181" lon="4.98202">
        <ele>401</ele>
        <time>2013-01-26T07:21:00Z</time>
      </trkpt>
      <trkpt lat="47.30181" lon="4.98202">
        <ele>401</ele>
        <time>2013-01-26T07:21:00Z</time>
      </trkpt>
      <trkpt lat="47.30181" lon="4.98202">
        <ele>403</ele>
        <time>2013-01-26T07:21:03Z</time>
      </trkpt>
      <trkpt lat="47.30179" lon="4.98196">
        <ele>398</ele>
        <time>2013-01-26T07:21:04Z</time>
      </trkpt>
      <trkpt lat="47.30179" lon="4.98189">
        <ele>396</ele>
        <time>2013-01-26T07:21:10Z</time>
      </trkpt>
      <trkpt lat="47.30174" lon="4.98188">
        <ele>396</ele>
        <time>2013-01-26T07:21:22Z</time>
      </trkpt>
      <trkpt lat="47.30182" lon="4.98186">
        <ele>396</ele>
        <time>2013-01-26T07:21:27Z</time>
      </trkpt>
      <trkpt lat="47.30182" lon="4.98186">
        <ele>396</ele>
        <time>2013-01-26T07:21:27Z</time>
      </trkpt>
      <trkpt lat="47.30182" lon="4.98186">
        <ele>396</ele>
        <time>2013-01-26T07:21:28Z</time>
      </trkpt>
      <trkpt lat="47.30174" lon="4.98219">
        <ele>399</ele>
        <time>2013-01-26T07:21:31Z</time>
      </trkpt>
      <trkpt lat="47.30188" lon="4.98192">
        <ele>401</ele>
        <time>2013-01-26T07:21:32Z</time>
      </trkpt>
      <trkpt lat="47.30176" lon="4.98204">
        <ele>400</ele>
        <time>2013-01-26T07:21:35Z</time>
      </trkpt>
      <trkpt lat="47.30172" lon="4.98198">
        <ele>406</ele>
        <time>2013-01-26T07:21:38Z</time>
      </trkpt>
      <trkpt lat="47.30172" lon="4.98198">
        <ele>406</ele>
        <time>2013-01-26T07:21:38Z</time>
      </trkpt>
      <trkpt lat="47.30172" lon="4.98198">
        <ele>406</ele>
        <time>2013-01-26T07:21:40Z</time>
      </trkpt>
      <trkpt lat="47.3017" lon="4.98172">
        <ele>428</ele>
        <time>2013-01-26T07:21:41Z</time>
      </trkpt>
      <trkpt lat="47.30166" lon="4.98174">
        <ele>428</ele>
        <time>2013-01-26T07:21:42Z</time>
      </trkpt>
      <trkpt lat="47.30164" lon="4.98161">
        <ele>440</ele>
        <time>2013-01-26T07:21:55Z</time>
      </trkpt>
      <trkpt lat="47.30168" lon="4.98178">
        <ele>424</ele>
        <time>2013-01-26T07:21:56Z</time>
      </trkpt>
      <trkpt lat="47.30171" lon="4.98168">
        <ele>434</ele>
        <time>2013-01-26T07:21:57Z</time>
      </trkpt>
      <trkpt lat="47.30173" lon="4.98175">
        <ele>424</ele>
        <time>2013-01-26T07:21:58Z</time>
      </trkpt>
      <trkpt lat="47.30175" lon="4.98169">
        <ele>436</ele>
        <time>2013-01-26T07:22:00Z</time>
      </trkpt>
      <trkpt lat="47.30174" lon="4.98178">
        <ele>432</ele>
        <time>2013-01-26T07:22:05Z</time>
      </trkpt>
      <trkpt lat="47.30169" lon="4.98196">
        <ele>430</ele>
        <time>2013-01-26T07:22:08Z</time>
      </trkpt>
      <trkpt lat="47.30174" lon="4.98203">
        <ele>431</ele>
        <time>2013-01-26T07:22:13Z</time>
      </trkpt>
      <trkpt lat="47.30169" lon="4.98209">
        <ele>428</ele>
        <time>2013-01-26T07:22:15Z</time>
      </trkpt>
      <trkpt lat="47.30174" lon="4.98219">
        <ele>429</ele>
        <time>2013-01-26T07:22:17Z</time>
      </trkpt>
      <trkpt lat="47.30172" lon="4.9823">
        <ele>424</ele>
        <time>2013-01-26T07:22:22Z</time>
      </trkpt>
      <trkpt lat="47.30182" lon="4.98245">
        <ele>437</ele>
        <time>2013-01-26T07:22:24Z</time>
      </trkpt>
      <trkpt lat="47.30171" lon="4.98235">
        <ele>425</ele>
        <time>2013-01-26T07:22:25Z</time>
      </trkpt>
      <trkpt lat="47.30183" lon="4.98243">
        <ele>435</ele>
        <time>2013-01-26T07:22:26Z</time>
      </trkpt>
      <trkpt lat="47.30181" lon="4.9825">
        <ele>428</ele>
        <time>2013-01-26T07:22:28Z</time>
      </trkpt>
      <trkpt lat="47.30175" lon="4.9825">
        <ele>439</ele>
        <time>2013-01-26T07:22:29Z</time>
      </trkpt>
      <trkpt lat="47.3017" lon="4.98249">
        <ele>435</ele>
        <time>2013-01-26T07:22:30Z</time>
      </trkpt>
      <trkpt lat="47.30167" lon="4.98255">
        <ele>429</ele>
        <time>2013-01-26T07:22:37Z</time>
      </trkpt>
      <trkpt lat="47.30162" lon="4.98256">
        <ele>429</ele>
        <time>2013-01-26T07:22:39Z</time>
      </trkpt>
      <trkpt lat="47.30161" lon="4.98263">
        <ele>430</ele>
        <time>2013-01-26T07:22:42Z</time>
      </trkpt>
      <trkpt lat="47.30166" lon="4.98274">
        <ele>426</ele>
        <time>2013-01-26T07:22:44Z</time>
      </trkpt>
      <trkpt lat="47.30166" lon="4.98274">
        <ele>426</ele>
        <time>2013-01-26T07:22:44Z</time>
      </trkpt>
      <trkpt lat="47.30166" lon="4.98274">
        <ele>426</ele>
        <time>2013-01-26T07:22:46Z</time>
      </trkpt>
      <trkpt lat="47.30162" lon="4.98288">
        <ele>426</ele>
        <time>2013-01-26T07:22:50Z</time>
      </trkpt>
      <trkpt lat="47.30154" lon="4.98285">
        <ele>443</ele>
        <time>2013-01-26T07:22:52Z</time>
      </trkpt>
      <trkpt lat="47.30164" lon="4.98299">
        <ele>430</ele>
        <time>2013-01-26T07:22:53Z</time>
      </trkpt>
      <trkpt lat="47.30166" lon="4.98304">
        <ele>430</ele>
        <time>2013-01-26T07:22:56Z</time>
      </trkpt>
      <trkpt lat="47.3016" lon="4.98296">
        <ele>436</ele>
        <time>2013-01-26T07:22:57Z</time>
      </trkpt>
      <trkpt lat="47.30156" lon="4.98303">
        <ele>427</ele>
        <time>2013-01-26T07:22:59Z</time>
      </trkpt>
      <trkpt lat="47.30151" lon="4.98294">
        <ele>443</ele>
        <time>2013-01-26T07:23:00Z</time>
      </trkpt>
      <trkpt lat="47.30153" lon="4.98303">
        <ele>437</ele>
        <time>2013-01-26T07:23:01Z</time>
      </trkpt>
      <trkpt lat="47.30155" lon="4.98314">
        <ele>426</ele>
        <time>2013-01-26T07:23:03Z</time>
      </trkpt>
      <trkpt lat="47.30155" lon="4.98305">
        <ele>433</ele>
        <time>2013-01-26T07:23:04Z</time>
      </trkpt>
      <trkpt lat="47.30155" lon="4.98305">
        <ele>433</ele>
        <time>2013-01-26T07:23:04Z</time>
      </trkpt>
      <trkpt lat="47.30155" lon="4.98305">
        <ele>433</ele>
        <time>2013-01-26T07:23:05Z</time>
      </trkpt>
      <trkpt lat="47.30151" lon="4.9833">
        <ele>435</ele>
        <time>2013-01-26T07:23:08Z</time>
      </trkpt>
      <trkpt lat="47.30146" lon="4.98324">
        <ele>441</ele>
        <time>2013-01-26T07:23:09Z</time>
      </trkpt>
      <trkpt lat="47.30148" lon="4.98334">
        <ele>436</ele>
        <time>2013-01-26T07:23:11Z</time>
      </trkpt>
      <trkpt lat="47.30139" lon="4.98327">
        <ele>447</ele>
        <time>2013-01-26T07:23:14Z</time>
      </trkpt>
      <trkpt lat="47.30149" lon="4.98328">
        <ele>434</ele>
        <time>2013-01-26T07:23:15Z</time>
      </trkpt>
      <trkpt lat="47.30143" lon="4.98338">
        <ele>433</ele>
        <time>2013-01-26T07:23:16Z</time>
      </trkpt>
      <trkpt lat="47.30151" lon="4.98352">
        <ele>431</ele>
        <time>2013-01-26T07:23:19Z</time>
      </trkpt>
      <trkpt lat="47.30146" lon="4.98344">
        <ele>438</ele>
        <time>2013-01-26T07:23:20Z</time>
      </trkpt>
      <trkpt lat="47.30144" lon="4.98352">
        <ele>438</ele>
        <time>2013-01-26T07:23:21Z</time>
      </trkpt>
      <trkpt lat="47.30141" lon="4.98356">
        <ele>427</ele>
        <time>2013-01-26T07:23:22Z</time>
      </trkpt>
      <trkpt lat="47.30146" lon="4.98353">
        <ele>443</ele>
        <time>2013-01-26T07:23:23Z</time>
      </trkpt>
      <trkpt lat="47.30146" lon="4.98371">
        <ele>429</ele>
        <time>2013-01-26T07:23:25Z</time>
      </trkpt>
      <trkpt lat="47.30151" lon="4.98376">
        <ele>440</ele>
        <time>2013-01-26T07:23:27Z</time>
      </trkpt>
      <trkpt lat="47.30143" lon="4.98376">
        <ele>429</ele>
        <time>2013-01-26T07:23:28Z</time>
      </trkpt>
      <trkpt lat="47.3015" lon="4.98378">
        <ele>429</ele>
        <time>2013-01-26T07:23:30Z</time>
      </trkpt>
      <trkpt lat="47.30145" lon="4.98376">
        <ele>430</ele>
        <time>2013-01-26T07:23:31Z</time>
      </trkpt>
      <trkpt lat="47.30141" lon="4.98378">
        <ele>428</ele>
        <time>2013-01-26T07:23:35Z</time>
      </trkpt>
      <trkpt lat="47.30139" lon="4.98386">
        <ele>428</ele>
        <time>2013-01-26T07:23:38Z</time>
      </trkpt>
      <trkpt lat="47.30136" lon="4.98391">
        <ele>428</ele>
        <time>2013-01-26T07:23:41Z</time>
      </trkpt>
      <trkpt lat="47.3014" lon="4.98397">
        <ele>428</ele>
        <time>2013-01-26T07:23:46Z</time>
      </trkpt>
      <trkpt lat="47.30142" lon="4.98405">
        <ele>428</ele>
        <time>2013-01-26T07:23:48Z</time>
      </trkpt>
      <trkpt lat="47.30145" lon="4.98412">
        <ele>428</ele>
        <time>2013-01-26T07:23:51Z</time>
      </trkpt>
      <trkpt lat="47.30148" lon="4.98422">
        <ele>426</ele>
        <time>2013-01-26T07:23:56Z</time>
      </trkpt>
      <trkpt lat="47.30152" lon="4.98429">
        <ele>425</ele>
        <time>2013-01-26T07:23:58Z</time>
      </trkpt>
      <trkpt lat="47.3015" lon="4.98438">
        <ele>425</ele>
        <time>2013-01-26T07:24:00Z</time>
      </trkpt>
      <trkpt lat="47.30151" lon="4.98446">
        <ele>425</ele>
        <time>2013-01-26T07:24:03Z</time>
      </trkpt>
      <trkpt lat="47.30152" lon="4.98454">
        <ele>424</ele>
        <time>2013-01-26T07:24:08Z</time>
      </trkpt>
      <trkpt lat="47.30148" lon="4.98457">
        <ele>424</ele>
        <time>2013-01-26T07:24:12Z</time>
      </trkpt>
      <trkpt lat="47.30143" lon="4.98463">
        <ele>427</ele>
        <time>2013-01-26T07:24:14Z</time>
      </trkpt>
      <trkpt lat="47.30144" lon="4.9847">
        <ele>428</ele>
        <time>2013-01-26T07:24:16Z</time>
      </trkpt>
      <trkpt lat="47.30144" lon="4.9847">
        <ele>428</ele>
        <time>2013-01-26T07:24:16Z</time>
      </trkpt>
      <trkpt lat="47.30144" lon="4.9847">
        <ele>428</ele>
        <time>2013-01-26T07:24:17Z</time>
      </trkpt>
      <trkpt lat="47.30147" lon="4.98476">
        <ele>435</ele>
        <time>2013-01-26T07:24:18Z</time>
      </trkpt>
      <trkpt lat="47.30142" lon="4.98486">
        <ele>429</ele>
        <time>2013-01-26T07:24:27Z</time>
      </trkpt>
      <trkpt lat="47.30144" lon="4.98504">
        <ele>429</ele>
        <time>2013-01-26T07:24:33Z</time>
      </trkpt>
      <trkpt lat="47.30143" lon="4.98511">
        <ele>428</ele>
        <time>2013-01-26T07:24:34Z</time>
      </trkpt>
      <trkpt lat="47.30142" lon="4.98518">
        <ele>429</ele>
        <time>2013-01-26T07:24:35Z</time>
      </trkpt>
      <trkpt lat="47.30145" lon="4.98527">
        <ele>429</ele>
        <time>2013-01-26T07:24:40Z</time>
      </trkpt>
      <trkpt lat="47.30143" lon="4.98534">
        <ele>429</ele>
        <time>2013-01-26T07:24:42Z</time>
      </trkpt>
      <trkpt lat="47.30138" lon="4.98552">
        <ele>428</ele>
        <time>2013-01-26T07:24:53Z</time>
      </trkpt>
      <trkpt lat="47.30134" lon="4.98554">
        <ele>427</ele>
        <time>2013-01-26T07:24:54Z</time>
      </trkpt>
      <trkpt lat="47.30137" lon="4.98561">
        <ele>429</ele>
        <time>2013-01-26T07:24:55Z</time>
      </trkpt>
      <trkpt lat="47.30134" lon="4.98569">
        <ele>430</ele>
        <time>2013-01-26T07:25:00Z</time>
      </trkpt>
      <trkpt lat="47.30136" lon="4.98576">
        <ele>432</ele>
        <time>2013-01-26T07:25:03Z</time>
      </trkpt>
      <trkpt lat="47.30135" lon="4.98585">
        <ele>432</ele>
        <time>2013-01-26T07:25:07Z</time>
      </trkpt>
      <trkpt lat="47.30134" lon="4.98594">
        <ele>433</ele>
        <time>2013-01-26T07:25:10Z</time>
      </trkpt>
      <trkpt lat="47.30128" lon="4.98593">
        <ele>433</ele>
        <time>2013-01-26T07:25:15Z</time>
      </trkpt>
      <trkpt lat="47.30124" lon="4.98597">
        <ele>433</ele>
        <time>2013-01-26T07:25:17Z</time>
      </trkpt>
      <trkpt lat="47.3012" lon="4.98609">
        <ele>433</ele>
        <time>2013-01-26T07:25:19Z</time>
      </trkpt>
      <trkpt lat="47.30115" lon="4.98617">
        <ele>433</ele>
        <time>2013-01-26T07:25:24Z</time>
      </trkpt>
      <trkpt lat="47.30111" lon="4.98624">
        <ele>432</ele>
        <time>2013-01-26T07:25:27Z</time>
      </trkpt>
      <trkpt lat="47.30112" lon="4.98631">
        <ele>432</ele>
        <time>2013-01-26T07:25:31Z</time>
      </trkpt>
      <trkpt lat="47.30104" lon="4.98631">
        <ele>419</ele>
        <time>2013-01-26T07:25:33Z</time>
      </trkpt>
      <trkpt lat="47.30103" lon="4.98624">
        <ele>435</ele>
        <time>2013-01-26T07:25:37Z</time>
      </trkpt>
      <trkpt lat="47.30109" lon="4.98638">
        <ele>440</ele>
        <time>2013-01-26T07:25:39Z</time>
      </trkpt>
      <trkpt lat="47.30103" lon="4.98624">
        <ele>434</ele>
        <time>2013-01-26T07:25:40Z</time>
      </trkpt>
      <trkpt lat="47.30102" lon="4.98634">
        <ele>436</ele>
        <time>2013-01-26T07:25:41Z</time>
      </trkpt>
      <trkpt lat="47.30101" lon="4.98641">
        <ele>431</ele>
        <time>2013-01-26T07:25:42Z</time>
      </trkpt>
      <trkpt lat="47.30099" lon="4.98648">
        <ele>438</ele>
        <time>2013-01-26T07:25:46Z</time>
      </trkpt>
      <trkpt lat="47.30094" lon="4.98652">
        <ele>436</ele>
        <time>2013-01-26T07:25:51Z</time>
      </trkpt>
      <trkpt lat="47.30091" lon="4.9866">
        <ele>436</ele>
        <time>2013-01-26T07:25:54Z</time>
      </trkpt>
      <trkpt lat="47.30089" lon="4.98667">
        <ele>435</ele>
        <time>2013-01-26T07:25:56Z</time>
      </trkpt>
      <trkpt lat="47.30087" lon="4.98673">
        <ele>435</ele>
        <time>2013-01-26T07:25:58Z</time>
      </trkpt>
      <trkpt lat="47.30084" lon="4.98678">
        <ele>435</ele>
        <time>2013-01-26T07:26:00Z</time>
      </trkpt>
      <trkpt lat="47.30077" lon="4.98687">
        <ele>435</ele>
        <time>2013-01-26T07:26:02Z</time>
      </trkpt>
      <trkpt lat="47.30076" lon="4.98694">
        <ele>435</ele>
        <time>2013-01-26T07:26:04Z</time>
      </trkpt>
      <trkpt lat="47.30074" lon="4.98703">
        <ele>435</ele>
        <time>2013-01-26T07:26:07Z</time>
      </trkpt>
      <trkpt lat="47.3007" lon="4.98708">
        <ele>435</ele>
        <time>2013-01-26T07:26:10Z</time>
      </trkpt>
      <trkpt lat="47.30066" lon="4.98713">
        <ele>435</ele>
        <time>2013-01-26T07:26:13Z</time>
      </trkpt>
      <trkpt lat="47.3006" lon="4.98715">
        <ele>435</ele>
        <time>2013-01-26T07:26:16Z</time>
      </trkpt>
      <trkpt lat="47.30057" lon="4.98721">
        <ele>435</ele>
        <time>2013-01-26T07:26:21Z</time>
      </trkpt>
      <trkpt lat="47.30056" lon="4.9871">
        <ele>435</ele>
        <time>2013-01-26T07:26:26Z</time>
      </trkpt>
      <trkpt lat="47.30053" lon="4.98718">
        <ele>435</ele>
        <time>2013-01-26T07:26:27Z</time>
      </trkpt>
      <trkpt lat="47.3005" lon="4.98724">
        <ele>437</ele>
        <time>2013-01-26T07:26:34Z</time>
      </trkpt>
      <trkpt lat="47.30049" lon="4.9873">
        <ele>438</ele>
        <time>2013-01-26T07:26:39Z</time>
      </trkpt>
      <trkpt lat="47.30047" lon="4.98738">
        <ele>437</ele>
        <time>2013-01-26T07:26:43Z</time>
      </trkpt>
      <trkpt lat="47.30044" lon="4.98744">
        <ele>435</ele>
        <time>2013-01-26T07:26:47Z</time>
      </trkpt>
      <trkpt lat="47.30043" lon="4.98751">
        <ele>435</ele>
        <time>2013-01-26T07:26:50Z</time>
      </trkpt>
      <trkpt lat="47.3005" lon="4.98759">
        <ele>433</ele>
        <time>2013-01-26T07:26:54Z</time>
      </trkpt>
      <trkpt lat="47.30049" lon="4.98767">
        <ele>432</ele>
        <time>2013-01-26T07:26:57Z</time>
      </trkpt>
      <trkpt lat="47.3005" lon="4.98774">
        <ele>431</ele>
        <time>2013-01-26T07:27:01Z</time>
      </trkpt>
      <trkpt lat="47.30051" lon="4.98785">
        <ele>431</ele>
        <time>2013-01-26T07:27:05Z</time>
      </trkpt>
      <trkpt lat="47.30051" lon="4.98794">
        <ele>431</ele>
        <time>2013-01-26T07:27:08Z</time>
      </trkpt>
      <trkpt lat="47.30055" lon="4.98801">
        <ele>430</ele>
        <time>2013-01-26T07:27:10Z</time>
      </trkpt>
      <trkpt lat="47.30058" lon="4.98806">
        <ele>429</ele>
        <time>2013-01-26T07:27:12Z</time>
      </trkpt>
      <trkpt lat="47.30061" lon="4.98814">
        <ele>429</ele>
        <time>2013-01-26T07:27:15Z</time>
      </trkpt>
      <trkpt lat="47.30061" lon="4.98822">
        <ele>427</ele>
        <time>2013-01-26T07:27:19Z</time>
      </trkpt>
      <trkpt lat="47.30063" lon="4.98829">
        <ele>426</ele>
        <time>2013-01-26T07:27:23Z</time>
      </trkpt>
      <trkpt lat="47.30063" lon="4.98837">
        <ele>426</ele>
        <time>2013-01-26T07:27:26Z</time>
      </trkpt>
      <trkpt lat="47.30064" lon="4.98844">
        <ele>425</ele>
        <time>2013-01-26T07:27:28Z</time>
      </trkpt>
      <trkpt lat="47.30063" lon="4.98852">
        <ele>424</ele>
        <time>2013-01-26T07:27:31Z</time>
      </trkpt>
      <trkpt lat="47.30063" lon="4.9886">
        <ele>424</ele>
        <time>2013-01-26T07:27:34Z</time>
      </trkpt>
      <trkpt lat="47.30063" lon="4.98867">
        <ele>424</ele>
        <time>2013-01-26T07:27:36Z</time>
      </trkpt>
      <trkpt lat="47.30064" lon="4.98876">
        <ele>423</ele>
        <time>2013-01-26T07:27:40Z</time>
      </trkpt>
      <trkpt lat="47.30064" lon="4.98883">
        <ele>422</ele>
        <time>2013-01-26T07:27:43Z</time>
      </trkpt>
      <trkpt lat="47.30064" lon="4.9889">
        <ele>423</ele>
        <time>2013-01-26T07:27:45Z</time>
      </trkpt>
      <trkpt lat="47.30064" lon="4.98897">
        <ele>423</ele>
        <time>2013-01-26T07:27:47Z</time>
      </trkpt>
      <trkpt lat="47.30063" lon="4.98905">
        <ele>423</ele>
        <time>2013-01-26T07:27:49Z</time>
      </trkpt>
      <trkpt lat="47.30063" lon="4.98914">
        <ele>422</ele>
        <time>2013-01-26T07:27:53Z</time>
      </trkpt>
      <trkpt lat="47.30061" lon="4.98924">
        <ele>421</ele>
        <time>2013-01-26T07:27:55Z</time>
      </trkpt>
      <trkpt lat="47.30066" lon="4.98924">
        <ele>423</ele>
        <time>2013-01-26T07:27:59Z</time>
      </trkpt>
      <trkpt lat="47.30067" lon="4.98934">
        <ele>423</ele>
        <time>2013-01-26T07:28:02Z</time>
      </trkpt>
      <trkpt lat="47.30067" lon="4.98941">
        <ele>423</ele>
        <time>2013-01-26T07:28:05Z</time>
      </trkpt>
      <trkpt lat="47.30066" lon="4.9895">
        <ele>422</ele>
        <time>2013-01-26T07:28:07Z</time>
      </trkpt>
      <trkpt lat="47.30069" lon="4.98956">
        <ele>422</ele>
        <time>2013-01-26T07:28:10Z</time>
      </trkpt>
      <trkpt lat="47.30068" lon="4.98965">
        <ele>421</ele>
        <time>2013-01-26T07:28:13Z</time>
      </trkpt>
      <trkpt lat="47.30072" lon="4.98963">
        <ele>423</ele>
        <time>2013-01-26T07:28:16Z</time>
      </trkpt>
      <trkpt lat="47.30072" lon="4.98971">
        <ele>423</ele>
        <time>2013-01-26T07:28:19Z</time>
      </trkpt>
      <trkpt lat="47.30074" lon="4.98978">
        <ele>424</ele>
        <time>2013-01-26T07:28:23Z</time>
      </trkpt>
      <trkpt lat="47.30077" lon="4.98985">
        <ele>425</ele>
        <time>2013-01-26T07:28:27Z</time>
      </trkpt>
      <trkpt lat="47.30077" lon="4.98993">
        <ele>425</ele>
        <time>2013-01-26T07:28:30Z</time>
      </trkpt>
      <trkpt lat="47.30077" lon="4.99001">
        <ele>425</ele>
        <time>2013-01-26T07:28:32Z</time>
      </trkpt>
      <trkpt lat="47.30079" lon="4.99008">
        <ele>425</ele>
        <time>2013-01-26T07:28:35Z</time>
      </trkpt>
      <trkpt lat="47.30084" lon="4.99006">
        <ele>434</ele>
        <time>2013-01-26T07:28:39Z</time>
      </trkpt>
      <trkpt lat="47.30077" lon="4.99007">
        <ele>422</ele>
        <time>2013-01-26T07:28:41Z</time>
      </trkpt>
      <trkpt lat="47.30073" lon="4.99014">
        <ele>443</ele>
        <time>2013-01-26T07:28:45Z</time>
      </trkpt>
      <trkpt lat="47.3006" lon="4.99021">
        <ele>437</ele>
        <time>2013-01-26T07:29:01Z</time>
      </trkpt>
      <trkpt lat="47.30055" lon="4.99021">
        <ele>438</ele>
        <time>2013-01-26T07:29:02Z</time>
      </trkpt>
      <trkpt lat="47.30064" lon="4.9902">
        <ele>439</ele>
        <time>2013-01-26T07:29:03Z</time>
      </trkpt>
      <trkpt lat="47.30054" lon="4.99018">
        <ele>439</ele>
        <time>2013-01-26T07:29:05Z</time>
      </trkpt>
      <trkpt lat="47.30047" lon="4.99014">
        <ele>432</ele>
        <time>2013-01-26T07:29:07Z</time>
      </trkpt>
      <trkpt lat="47.30052" lon="4.99015">
        <ele>428</ele>
        <time>2013-01-26T07:29:09Z</time>
      </trkpt>
      <trkpt lat="47.30038" lon="4.99007">
        <ele>428</ele>
        <time>2013-01-26T07:29:11Z</time>
      </trkpt>
      <trkpt lat="47.3003" lon="4.99004">
        <ele>428</ele>
        <time>2013-01-26T07:29:17Z</time>
      </trkpt>
      <trkpt lat="47.30022" lon="4.99007">
        <ele>435</ele>
        <time>2013-01-26T07:29:19Z</time>
      </trkpt>
      <trkpt lat="47.30029" lon="4.99008">
        <ele>440</ele>
        <time>2013-01-26T07:29:20Z</time>
      </trkpt>
      <trkpt lat="47.30022" lon="4.99008">
        <ele>436</ele>
        <time>2013-01-26T07:29:21Z</time>
      </trkpt>
      <trkpt lat="47.30014" lon="4.99008">
        <ele>441</ele>
        <time>2013-01-26T07:29:22Z</time>
      </trkpt>
      <trkpt lat="47.30019" lon="4.99009">
        <ele>436</ele>
        <time>2013-01-26T07:29:24Z</time>
      </trkpt>
      <trkpt lat="47.30013" lon="4.99003">
        <ele>436</ele>
        <time>2013-01-26T07:29:26Z</time>
      </trkpt>
      <trkpt lat="47.30008" lon="4.98998">
        <ele>434</ele>
        <time>2013-01-26T07:29:27Z</time>
      </trkpt>
      <trkpt lat="47.29997" lon="4.98995">
        <ele>416</ele>
        <time>2013-01-26T07:29:30Z</time>
      </trkpt>
      <trkpt lat="47.30007" lon="4.98998">
        <ele>419</ele>
        <time>2013-01-26T07:29:31Z</time>
      </trkpt>
      <trkpt lat="47.29999" lon="4.98998">
        <ele>433</ele>
        <time>2013-01-26T07:29:32Z</time>
      </trkpt>
      <trkpt lat="47.29993" lon="4.99002">
        <ele>432</ele>
        <time>2013-01-26T07:29:38Z</time>
      </trkpt>
      <trkpt lat="47.29988" lon="4.98998">
        <ele>431</ele>
        <time>2013-01-26T07:29:43Z</time>
      </trkpt>
      <trkpt lat="47.29981" lon="4.98994">
        <ele>440</ele>
        <time>2013-01-26T07:29:45Z</time>
      </trkpt>
      <trkpt lat="47.29975" lon="4.98994">
        <ele>433</ele>
        <time>2013-01-26T07:29:47Z</time>
      </trkpt>
      <trkpt lat="47.29981" lon="4.98996">
        <ele>440</ele>
        <time>2013-01-26T07:29:48Z</time>
      </trkpt>
      <trkpt lat="47.29973" lon="4.98991">
        <ele>440</ele>
        <time>2013-01-26T07:29:49Z</time>
      </trkpt>
      <trkpt lat="47.29967" lon="4.9899">
        <ele>433</ele>
        <time>2013-01-26T07:29:50Z</time>
      </trkpt>
      <trkpt lat="47.29973" lon="4.98991">
        <ele>440</ele>
        <time>2013-01-26T07:29:51Z</time>
      </trkpt>
      <trkpt lat="47.29968" lon="4.98991">
        <ele>435</ele>
        <time>2013-01-26T07:29:52Z</time>
      </trkpt>
      <trkpt lat="47.29962" lon="4.98987">
        <ele>433</ele>
        <time>2013-01-26T07:29:56Z</time>
      </trkpt>
      <trkpt lat="47.29958" lon="4.98984">
        <ele>432</ele>
        <time>2013-01-26T07:29:58Z</time>
      </trkpt>
      <trkpt lat="47.29952" lon="4.9898">
        <ele>433</ele>
        <time>2013-01-26T07:29:59Z</time>
      </trkpt>
      <trkpt lat="47.29958" lon="4.98984">
        <ele>432</ele>
        <time>2013-01-26T07:30:00Z</time>
      </trkpt>
      <trkpt lat="47.29952" lon="4.98977">
        <ele>434</ele>
        <time>2013-01-26T07:30:01Z</time>
      </trkpt>
      <trkpt lat="47.29947" lon="4.98974">
        <ele>427</ele>
        <time>2013-01-26T07:30:03Z</time>
      </trkpt>
      <trkpt lat="47.29942" lon="4.98971">
        <ele>432</ele>
        <time>2013-01-26T07:30:10Z</time>
      </trkpt>
      <trkpt lat="47.29936" lon="4.98968">
        <ele>429</ele>
        <time>2013-01-26T07:30:12Z</time>
      </trkpt>
      <trkpt lat="47.29931" lon="4.98966">
        <ele>429</ele>
        <time>2013-01-26T07:30:16Z</time>
      </trkpt>
      <trkpt lat="47.29927" lon="4.98962">
        <ele>431</ele>
        <time>2013-01-26T07:30:17Z</time>
      </trkpt>
      <trkpt lat="47.29919" lon="4.98958">
        <ele>431</ele>
        <time>2013-01-26T07:30:20Z</time>
      </trkpt>
      <trkpt lat="47.29914" lon="4.98955">
        <ele>431</ele>
        <time>2013-01-26T07:30:25Z</time>
      </trkpt>
      <trkpt lat="47.29913" lon="4.98948">
        <ele>436</ele>
        <time>2013-01-26T07:30:30Z</time>
      </trkpt>
      <trkpt lat="47.29912" lon="4.98936">
        <ele>435</ele>
        <time>2013-01-26T07:30:33Z</time>
      </trkpt>
      <trkpt lat="47.29914" lon="4.98927">
        <ele>435</ele>
        <time>2013-01-26T07:30:36Z</time>
      </trkpt>
      <trkpt lat="47.29918" lon="4.98924">
        <ele>433</ele>
        <time>2013-01-26T07:30:37Z</time>
      </trkpt>
      <trkpt lat="47.29914" lon="4.98923">
        <ele>434</ele>
        <time>2013-01-26T07:30:38Z</time>
      </trkpt>
      <trkpt lat="47.29909" lon="4.9891">
        <ele>428</ele>
        <time>2013-01-26T07:30:46Z</time>
      </trkpt>
      <trkpt lat="47.29906" lon="4.98906">
        <ele>431</ele>
        <time>2013-01-26T07:30:48Z</time>
      </trkpt>
      <trkpt lat="47.29901" lon="4.98905">
        <ele>437</ele>
        <time>2013-01-26T07:30:50Z</time>
      </trkpt>
      <trkpt lat="47.29896" lon="4.98903">
        <ele>432</ele>
        <time>2013-01-26T07:30:53Z</time>
      </trkpt>
      <trkpt lat="47.29892" lon="4.98897">
        <ele>441</ele>
        <time>2013-01-26T07:30:58Z</time>
      </trkpt>
      <trkpt lat="47.29897" lon="4.98892">
        <ele>438</ele>
        <time>2013-01-26T07:30:59Z</time>
      </trkpt>
      <trkpt lat="47.29888" lon="4.9889">
        <ele>442</ele>
        <time>2013-01-26T07:31:03Z</time>
      </trkpt>
      <trkpt lat="47.29892" lon="4.98896">
        <ele>440</ele>
        <time>2013-01-26T07:31:04Z</time>
      </trkpt>
      <trkpt lat="47.29886" lon="4.98884">
        <ele>438</ele>
        <time>2013-01-26T07:31:05Z</time>
      </trkpt>
      <trkpt lat="47.29881" lon="4.98876">
        <ele>434</ele>
        <time>2013-01-26T07:31:09Z</time>
      </trkpt>
      <trkpt lat="47.29878" lon="4.98873">
        <ele>430</ele>
        <time>2013-01-26T07:31:11Z</time>
      </trkpt>
      <trkpt lat="47.29884" lon="4.98877">
        <ele>437</ele>
        <time>2013-01-26T07:31:12Z</time>
      </trkpt>
      <trkpt lat="47.2987" lon="4.98868">
        <ele>429</ele>
        <time>2013-01-26T07:31:13Z</time>
      </trkpt>
      <trkpt lat="47.29876" lon="4.9887">
        <ele>428</ele>
        <time>2013-01-26T07:31:14Z</time>
      </trkpt>
      <trkpt lat="47.2987" lon="4.98866">
        <ele>433</ele>
        <time>2013-01-26T07:31:19Z</time>
      </trkpt>
      <trkpt lat="47.29863" lon="4.98861">
        <ele>426</ele>
        <time>2013-01-26T07:31:21Z</time>
      </trkpt>
      <trkpt lat="47.29858" lon="4.98855">
        <ele>435</ele>
        <time>2013-01-26T07:31:27Z</time>
      </trkpt>
      <trkpt lat="47.29863" lon="4.98858">
        <ele>438</ele>
        <time>2013-01-26T07:31:29Z</time>
      </trkpt>
      <trkpt lat="47.29858" lon="4.98853">
        <ele>428</ele>
        <time>2013-01-26T07:31:30Z</time>
      </trkpt>
      <trkpt lat="47.29848" lon="4.9885">
        <ele>434</ele>
        <time>2013-01-26T07:31:31Z</time>
      </trkpt>
      <trkpt lat="47.29855" lon="4.98853">
        <ele>439</ele>
        <time>2013-01-26T07:31:32Z</time>
      </trkpt>
      <trkpt lat="47.29862" lon="4.98857">
        <ele>441</ele>
        <time>2013-01-26T07:31:33Z</time>
      </trkpt>
      <trkpt lat="47.29849" lon="4.9885">
        <ele>435</ele>
        <time>2013-01-26T07:31:34Z</time>
      </trkpt>
      <trkpt lat="47.29858" lon="4.98853">
        <ele>436</ele>
        <time>2013-01-26T07:31:35Z</time>
      </trkpt>
      <trkpt lat="47.29848" lon="4.98848">
        <ele>433</ele>
        <time>2013-01-26T07:31:37Z</time>
      </trkpt>
      <trkpt lat="47.29841" lon="4.98843">
        <ele>436</ele>
        <time>2013-01-26T07:31:41Z</time>
      </trkpt>
      <trkpt lat="47.29838" lon="4.98834">
        <ele>433</ele>
        <time>2013-01-26T07:31:45Z</time>
      </trkpt>
      <trkpt lat="47.29828" lon="4.98826">
        <ele>426</ele>
        <time>2013-01-26T07:31:49Z</time>
      </trkpt>
      <trkpt lat="47.29832" lon="4.98829">
        <ele>431</ele>
        <time>2013-01-26T07:31:50Z</time>
      </trkpt>
      <trkpt lat="47.29827" lon="4.98826">
        <ele>430</ele>
        <time>2013-01-26T07:31:51Z</time>
      </trkpt>
      <trkpt lat="47.29832" lon="4.9883">
        <ele>435</ele>
        <time>2013-01-26T07:31:53Z</time>
      </trkpt>
      <trkpt lat="47.29825" lon="4.9882">
        <ele>432</ele>
        <time>2013-01-26T07:31:55Z</time>
      </trkpt>
      <trkpt lat="47.2982" lon="4.98817">
        <ele>426</ele>
        <time>2013-01-26T07:31:56Z</time>
      </trkpt>
      <trkpt lat="47.29826" lon="4.98821">
        <ele>440</ele>
        <time>2013-01-26T07:31:58Z</time>
      </trkpt>
      <trkpt lat="47.2982" lon="4.98819">
        <ele>442</ele>
        <time>2013-01-26T07:31:59Z</time>
      </trkpt>
      <trkpt lat="47.2983" lon="4.98823">
        <ele>448</ele>
        <time>2013-01-26T07:32:01Z</time>
      </trkpt>
      <trkpt lat="47.29816" lon="4.98814">
        <ele>440</ele>
        <time>2013-01-26T07:32:02Z</time>
      </trkpt>
      <trkpt lat="47.29822" lon="4.98816">
        <ele>444</ele>
        <time>2013-01-26T07:32:04Z</time>
      </trkpt>
      <trkpt lat="47.2981" lon="4.9881">
        <ele>440</ele>
        <time>2013-01-26T07:32:05Z</time>
      </trkpt>
      <trkpt lat="47.29785" lon="4.98793">
        <ele>416</ele>
        <time>2013-01-26T07:32:10Z</time>
      </trkpt>
      <trkpt lat="47.29806" lon="4.98805">
        <ele>440</ele>
        <time>2013-01-26T07:32:11Z</time>
      </trkpt>
      <trkpt lat="47.29796" lon="4.98798">
        <ele>432</ele>
        <time>2013-01-26T07:32:12Z</time>
      </trkpt>
      <trkpt lat="47.29806" lon="4.98802">
        <ele>440</ele>
        <time>2013-01-26T07:32:13Z</time>
      </trkpt>
      <trkpt lat="47.298" lon="4.98799">
        <ele>437</ele>
        <time>2013-01-26T07:32:14Z</time>
      </trkpt>
      <trkpt lat="47.29785" lon="4.98794">
        <ele>429</ele>
        <time>2013-01-26T07:32:18Z</time>
      </trkpt>
      <trkpt lat="47.29782" lon="4.98788">
        <ele>428</ele>
        <time>2013-01-26T07:32:23Z</time>
      </trkpt>
      <trkpt lat="47.29778" lon="4.98786">
        <ele>441</ele>
        <time>2013-01-26T07:32:28Z</time>
      </trkpt>
      <trkpt lat="47.29783" lon="4.98786">
        <ele>437</ele>
        <time>2013-01-26T07:32:29Z</time>
      </trkpt>
      <trkpt lat="47.29776" lon="4.98781">
        <ele>439</ele>
        <time>2013-01-26T07:32:31Z</time>
      </trkpt>
      <trkpt lat="47.29783" lon="4.98785">
        <ele>440</ele>
        <time>2013-01-26T07:32:32Z</time>
      </trkpt>
      <trkpt lat="47.29773" lon="4.98777">
        <ele>443</ele>
        <time>2013-01-26T07:32:34Z</time>
      </trkpt>
      <trkpt lat="47.29778" lon="4.98778">
        <ele>437</ele>
        <time>2013-01-26T07:32:35Z</time>
      </trkpt>
      <trkpt lat="47.29766" lon="4.98773">
        <ele>438</ele>
        <time>2013-01-26T07:32:38Z</time>
      </trkpt>
      <trkpt lat="47.29762" lon="4.9877">
        <ele>439</ele>
        <time>2013-01-26T07:32:41Z</time>
      </trkpt>
      <trkpt lat="47.29766" lon="4.98774">
        <ele>438</ele>
        <time>2013-01-26T07:32:42Z</time>
      </trkpt>
      <trkpt lat="47.29759" lon="4.98768">
        <ele>436</ele>
        <time>2013-01-26T07:32:45Z</time>
      </trkpt>
      <trkpt lat="47.29748" lon="4.9876">
        <ele>436</ele>
        <time>2013-01-26T07:32:48Z</time>
      </trkpt>
      <trkpt lat="47.29752" lon="4.98766">
        <ele>439</ele>
        <time>2013-01-26T07:32:49Z</time>
      </trkpt>
      <trkpt lat="47.29745" lon="4.98759">
        <ele>436</ele>
        <time>2013-01-26T07:32:52Z</time>
      </trkpt>
      <trkpt lat="47.29749" lon="4.98761">
        <ele>436</ele>
        <time>2013-01-26T07:32:54Z</time>
      </trkpt>
      <trkpt lat="47.29736" lon="4.98753">
        <ele>433</ele>
        <time>2013-01-26T07:32:56Z</time>
      </trkpt>
      <trkpt lat="47.29731" lon="4.98741">
        <ele>431</ele>
        <time>2013-01-26T07:33:02Z</time>
      </trkpt>
      <trkpt lat="47.29739" lon="4.9875">
        <ele>438</ele>
        <time>2013-01-26T07:33:03Z</time>
      </trkpt>
      <trkpt lat="47.2973" lon="4.98743">
        <ele>441</ele>
        <time>2013-01-26T07:33:04Z</time>
      </trkpt>
      <trkpt lat="47.29723" lon="4.98733">
        <ele>437</ele>
        <time>2013-01-26T07:33:08Z</time>
      </trkpt>
      <trkpt lat="47.29726" lon="4.9874">
        <ele>443</ele>
        <time>2013-01-26T07:33:09Z</time>
      </trkpt>
      <trkpt lat="47.29719" lon="4.9873">
        <ele>430</ele>
        <time>2013-01-26T07:33:10Z</time>
      </trkpt>
      <trkpt lat="47.29711" lon="4.98726">
        <ele>433</ele>
        <time>2013-01-26T07:33:15Z</time>
      </trkpt>
      <trkpt lat="47.2972" lon="4.9873">
        <ele>439</ele>
        <time>2013-01-26T07:33:16Z</time>
      </trkpt>
      <trkpt lat="47.29715" lon="4.98727">
        <ele>437</ele>
        <time>2013-01-26T07:33:17Z</time>
      </trkpt>
      <trkpt lat="47.29709" lon="4.98718">
        <ele>440</ele>
        <time>2013-01-26T07:33:22Z</time>
      </trkpt>
      <trkpt lat="47.29703" lon="4.98709">
        <ele>438</ele>
        <time>2013-01-26T07:33:24Z</time>
      </trkpt>
      <trkpt lat="47.29708" lon="4.98708">
        <ele>436</ele>
        <time>2013-01-26T07:33:26Z</time>
      </trkpt>
      <trkpt lat="47.29703" lon="4.98707">
        <ele>438</ele>
        <time>2013-01-26T07:33:27Z</time>
      </trkpt>
      <trkpt lat="47.29701" lon="4.98697">
        <ele>436</ele>
        <time>2013-01-26T07:33:30Z</time>
      </trkpt>
      <trkpt lat="47.29695" lon="4.9869">
        <ele>435</ele>
        <time>2013-01-26T07:33:35Z</time>
      </trkpt>
      <trkpt lat="47.29692" lon="4.98685">
        <ele>435</ele>
        <time>2013-01-26T07:33:39Z</time>
      </trkpt>
      <trkpt lat="47.29691" lon="4.98678">
        <ele>435</ele>
        <time>2013-01-26T07:33:40Z</time>
      </trkpt>
      <trkpt lat="47.29689" lon="4.98672">
        <ele>435</ele>
        <time>2013-01-26T07:33:43Z</time>
      </trkpt>
      <trkpt lat="47.29691" lon="4.98665">
        <ele>439</ele>
        <time>2013-01-26T07:33:46Z</time>
      </trkpt>
      <trkpt lat="47.29687" lon="4.9866">
        <ele>437</ele>
        <time>2013-01-26T07:33:49Z</time>
      </trkpt>
      <trkpt lat="47.29688" lon="4.98652">
        <ele>439</ele>
        <time>2013-01-26T07:33:52Z</time>
      </trkpt>
      <trkpt lat="47.29683" lon="4.98651">
        <ele>437</ele>
        <time>2013-01-26T07:33:54Z</time>
      </trkpt>
      <trkpt lat="47.29677" lon="4.98646">
        <ele>442</ele>
        <time>2013-01-26T07:33:57Z</time>
      </trkpt>
      <trkpt lat="47.2968" lon="4.98638">
        <ele>438</ele>
        <time>2013-01-26T07:33:59Z</time>
      </trkpt>
      <trkpt lat="47.29678" lon="4.98631">
        <ele>439</ele>
        <time>2013-01-26T07:34:02Z</time>
      </trkpt>
      <trkpt lat="47.29672" lon="4.98628">
        <ele>443</ele>
        <time>2013-01-26T07:34:05Z</time>
      </trkpt>
      <trkpt lat="47.29678" lon="4.98611">
        <ele>436</ele>
        <time>2013-01-26T07:34:09Z</time>
      </trkpt>
      <trkpt lat="47.29668" lon="4.98614">
        <ele>439</ele>
        <time>2013-01-26T07:34:10Z</time>
      </trkpt>
      <trkpt lat="47.29674" lon="4.9861">
        <ele>439</ele>
        <time>2013-01-26T07:34:11Z</time>
      </trkpt>
      <trkpt lat="47.29669" lon="4.98607">
        <ele>436</ele>
        <time>2013-01-26T07:34:13Z</time>
      </trkpt>
      <trkpt lat="47.29662" lon="4.98605">
        <ele>439</ele>
        <time>2013-01-26T07:34:16Z</time>
      </trkpt>
      <trkpt lat="47.29662" lon="4.98597">
        <ele>438</ele>
        <time>2013-01-26T07:34:18Z</time>
      </trkpt>
      <trkpt lat="47.29655" lon="4.98594">
        <ele>439</ele>
        <time>2013-01-26T07:34:20Z</time>
      </trkpt>
      <trkpt lat="47.29665" lon="4.98591">
        <ele>440</ele>
        <time>2013-01-26T07:34:21Z</time>
      </trkpt>
      <trkpt lat="47.29661" lon="4.98595">
        <ele>441</ele>
        <time>2013-01-26T07:34:22Z</time>
      </trkpt>
      <trkpt lat="47.29664" lon="4.98586">
        <ele>442</ele>
        <time>2013-01-26T07:34:23Z</time>
      </trkpt>
      <trkpt lat="47.29657" lon="4.98584">
        <ele>443</ele>
        <time>2013-01-26T07:34:25Z</time>
      </trkpt>
      <trkpt lat="47.29653" lon="4.98578">
        <ele>442</ele>
        <time>2013-01-26T07:34:27Z</time>
      </trkpt>
      <trkpt lat="47.29658" lon="4.98574">
        <ele>441</ele>
        <time>2013-01-26T07:34:29Z</time>
      </trkpt>
      <trkpt lat="47.29653" lon="4.98579">
        <ele>443</ele>
        <time>2013-01-26T07:34:30Z</time>
      </trkpt>
      <trkpt lat="47.29658" lon="4.98574">
        <ele>439</ele>
        <time>2013-01-26T07:34:31Z</time>
      </trkpt>
      <trkpt lat="47.29652" lon="4.98565">
        <ele>441</ele>
        <time>2013-01-26T07:34:33Z</time>
      </trkpt>
      <trkpt lat="47.29658" lon="4.98568">
        <ele>438</ele>
        <time>2013-01-26T07:34:34Z</time>
      </trkpt>
      <trkpt lat="47.29648" lon="4.98565">
        <ele>439</ele>
        <time>2013-01-26T07:34:35Z</time>
      </trkpt>
      <trkpt lat="47.29655" lon="4.98555">
        <ele>435</ele>
        <time>2013-01-26T07:34:37Z</time>
      </trkpt>
      <trkpt lat="47.29646" lon="4.98554">
        <ele>435</ele>
        <time>2013-01-26T07:34:40Z</time>
      </trkpt>
      <trkpt lat="47.29642" lon="4.98552">
        <ele>439</ele>
        <time>2013-01-26T07:34:41Z</time>
      </trkpt>
      <trkpt lat="47.29644" lon="4.98542">
        <ele>439</ele>
        <time>2013-01-26T07:34:45Z</time>
      </trkpt>
      <trkpt lat="47.29639" lon="4.9854">
        <ele>439</ele>
        <time>2013-01-26T07:34:46Z</time>
      </trkpt>
      <trkpt lat="47.29646" lon="4.98542">
        <ele>440</ele>
        <time>2013-01-26T07:34:47Z</time>
      </trkpt>
      <trkpt lat="47.29637" lon="4.9854">
        <ele>442</ele>
        <time>2013-01-26T07:34:49Z</time>
      </trkpt>
      <trkpt lat="47.29634" lon="4.98535">
        <ele>440</ele>
        <time>2013-01-26T07:34:50Z</time>
      </trkpt>
      <trkpt lat="47.29629" lon="4.98529">
        <ele>442</ele>
        <time>2013-01-26T07:34:53Z</time>
      </trkpt>
      <trkpt lat="47.29622" lon="4.98523">
        <ele>444</ele>
        <time>2013-01-26T07:34:56Z</time>
      </trkpt>
      <trkpt lat="47.29626" lon="4.98519">
        <ele>446</ele>
        <time>2013-01-26T07:34:59Z</time>
      </trkpt>
      <trkpt lat="47.29622" lon="4.98507">
        <ele>437</ele>
        <time>2013-01-26T07:35:03Z</time>
      </trkpt>
      <trkpt lat="47.29626" lon="4.98514">
        <ele>442</ele>
        <time>2013-01-26T07:35:04Z</time>
      </trkpt>
      <trkpt lat="47.29621" lon="4.98501">
        <ele>440</ele>
        <time>2013-01-26T07:35:05Z</time>
      </trkpt>
      <trkpt lat="47.2962" lon="4.98493">
        <ele>438</ele>
        <time>2013-01-26T07:35:09Z</time>
      </trkpt>
      <trkpt lat="47.29622" lon="4.98483">
        <ele>437</ele>
        <time>2013-01-26T07:35:11Z</time>
      </trkpt>
      <trkpt lat="47.29617" lon="4.98482">
        <ele>436</ele>
        <time>2013-01-26T07:35:12Z</time>
      </trkpt>
      <trkpt lat="47.29608" lon="4.9848">
        <ele>442</ele>
        <time>2013-01-26T07:35:15Z</time>
      </trkpt>
      <trkpt lat="47.29606" lon="4.98474">
        <ele>442</ele>
        <time>2013-01-26T07:35:18Z</time>
      </trkpt>
      <trkpt lat="47.29607" lon="4.98466">
        <ele>441</ele>
        <time>2013-01-26T07:35:20Z</time>
      </trkpt>
      <trkpt lat="47.29611" lon="4.98458">
        <ele>440</ele>
        <time>2013-01-26T07:35:22Z</time>
      </trkpt>
      <trkpt lat="47.29614" lon="4.98453">
        <ele>440</ele>
        <time>2013-01-26T07:35:23Z</time>
      </trkpt>
      <trkpt lat="47.29619" lon="4.98446">
        <ele>439</ele>
        <time>2013-01-26T07:35:25Z</time>
      </trkpt>
      <trkpt lat="47.29612" lon="4.9845">
        <ele>441</ele>
        <time>2013-01-26T07:35:29Z</time>
      </trkpt>
      <trkpt lat="47.29612" lon="4.98457">
        <ele>440</ele>
        <time>2013-01-26T07:35:32Z</time>
      </trkpt>
      <trkpt lat="47.29607" lon="4.98452">
        <ele>440</ele>
        <time>2013-01-26T07:35:35Z</time>
      </trkpt>
      <trkpt lat="47.29604" lon="4.98447">
        <ele>440</ele>
        <time>2013-01-26T07:35:37Z</time>
      </trkpt>
      <trkpt lat="47.29599" lon="4.98448">
        <ele>440</ele>
        <time>2013-01-26T07:35:41Z</time>
      </trkpt>
      <trkpt lat="47.29594" lon="4.98444">
        <ele>440</ele>
        <time>2013-01-26T07:35:43Z</time>
      </trkpt>
      <trkpt lat="47.2959" lon="4.9844">
        <ele>440</ele>
        <time>2013-01-26T07:35:45Z</time>
      </trkpt>
      <trkpt lat="47.29584" lon="4.98439">
        <ele>440</ele>
        <time>2013-01-26T07:35:48Z</time>
      </trkpt>
      <trkpt lat="47.2958" lon="4.98436">
        <ele>440</ele>
        <time>2013-01-26T07:35:50Z</time>
      </trkpt>
      <trkpt lat="47.29576" lon="4.98433">
        <ele>440</ele>
        <time>2013-01-26T07:35:52Z</time>
      </trkpt>
      <trkpt lat="47.29571" lon="4.98431">
        <ele>440</ele>
        <time>2013-01-26T07:35:54Z</time>
      </trkpt>
      <trkpt lat="47.29588" lon="4.9843">
        <ele>450</ele>
        <time>2013-01-26T07:35:56Z</time>
      </trkpt>
      <trkpt lat="47.29574" lon="4.98421">
        <ele>437</ele>
        <time>2013-01-26T07:35:58Z</time>
      </trkpt>
      <trkpt lat="47.29565" lon="4.98416">
        <ele>439</ele>
        <time>2013-01-26T07:36:06Z</time>
      </trkpt>
      <trkpt lat="47.29573" lon="4.98419">
        <ele>445</ele>
        <time>2013-01-26T07:36:07Z</time>
      </trkpt>
      <trkpt lat="47.29564" lon="4.98417">
        <ele>443</ele>
        <time>2013-01-26T07:36:08Z</time>
      </trkpt>
      <trkpt lat="47.29564" lon="4.98417">
        <ele>443</ele>
        <time>2013-01-26T07:36:08Z</time>
      </trkpt>
      <trkpt lat="47.29564" lon="4.98417">
        <ele>442</ele>
        <time>2013-01-26T07:36:10Z</time>
      </trkpt>
      <trkpt lat="47.29551" lon="4.98409">
        <ele>428</ele>
        <time>2013-01-26T07:36:11Z</time>
      </trkpt>
      <trkpt lat="47.29555" lon="4.98414">
        <ele>439</ele>
        <time>2013-01-26T07:36:12Z</time>
      </trkpt>
      <trkpt lat="47.29551" lon="4.98409">
        <ele>429</ele>
        <time>2013-01-26T07:36:13Z</time>
      </trkpt>
      <trkpt lat="47.29549" lon="4.98402">
        <ele>431</ele>
        <time>2013-01-26T07:36:16Z</time>
      </trkpt>
      <trkpt lat="47.29549" lon="4.98395">
        <ele>434</ele>
        <time>2013-01-26T07:36:20Z</time>
      </trkpt>
      <trkpt lat="47.29546" lon="4.98383">
        <ele>433</ele>
        <time>2013-01-26T07:36:23Z</time>
      </trkpt>
      <trkpt lat="47.29546" lon="4.98383">
        <ele>433</ele>
        <time>2013-01-26T07:36:23Z</time>
      </trkpt>
      <trkpt lat="47.29546" lon="4.98383">
        <ele>436</ele>
        <time>2013-01-26T07:36:27Z</time>
      </trkpt>
      <trkpt lat="47.29543" lon="4.98376">
        <ele>434</ele>
        <time>2013-01-26T07:36:30Z</time>
      </trkpt>
      <trkpt lat="47.2954" lon="4.98357">
        <ele>435</ele>
        <time>2013-01-26T07:36:37Z</time>
      </trkpt>
      <trkpt lat="47.29543" lon="4.98378">
        <ele>435</ele>
        <time>2013-01-26T07:36:39Z</time>
      </trkpt>
      <trkpt lat="47.29508" lon="4.98345">
        <ele>436</ele>
        <time>2013-01-26T07:36:57Z</time>
      </trkpt>
      <trkpt lat="47.29495" lon="4.98344">
        <ele>436</ele>
        <time>2013-01-26T07:37:00Z</time>
      </trkpt>
      <trkpt lat="47.29496" lon="4.98331">
        <ele>434</ele>
        <time>2013-01-26T07:37:08Z</time>
      </trkpt>
      <trkpt lat="47.29498" lon="4.98345">
        <ele>433</ele>
        <time>2013-01-26T07:37:13Z</time>
      </trkpt>
      <trkpt lat="47.29498" lon="4.98345">
        <ele>433</ele>
        <time>2013-01-26T07:37:13Z</time>
      </trkpt>
      <trkpt lat="47.29498" lon="4.98345">
        <ele>433</ele>
        <time>2013-01-26T07:37:17Z</time>
      </trkpt>
      <trkpt lat="47.29495" lon="4.98323">
        <ele>434</ele>
        <time>2013-01-26T07:37:19Z</time>
      </trkpt>
      <trkpt lat="47.2948" lon="4.98306">
        <ele>433</ele>
        <time>2013-01-26T07:37:30Z</time>
      </trkpt>
      <trkpt lat="47.29444" lon="4.98294">
        <ele>433</ele>
        <time>2013-01-26T07:37:48Z</time>
      </trkpt>
      <trkpt lat="47.29439" lon="4.98285">
        <ele>430</ele>
        <time>2013-01-26T07:37:49Z</time>
      </trkpt>
      <trkpt lat="47.29424" lon="4.98288">
        <ele>426</ele>
        <time>2013-01-26T07:37:52Z</time>
      </trkpt>
      <trkpt lat="47.29437" lon="4.98285">
        <ele>427</ele>
        <time>2013-01-26T07:37:53Z</time>
      </trkpt>
      <trkpt lat="47.29417" lon="4.9829">
        <ele>439</ele>
        <time>2013-01-26T07:37:54Z</time>
      </trkpt>
      <trkpt lat="47.29407" lon="4.98286">
        <ele>433</ele>
        <time>2013-01-26T07:37:56Z</time>
      </trkpt>
      <trkpt lat="47.29422" lon="4.98285">
        <ele>440</ele>
        <time>2013-01-26T07:37:57Z</time>
      </trkpt>
      <trkpt lat="47.29406" lon="4.98285">
        <ele>432</ele>
        <time>2013-01-26T07:37:58Z</time>
      </trkpt>
      <trkpt lat="47.29425" lon="4.9828">
        <ele>433</ele>
        <time>2013-01-26T07:37:59Z</time>
      </trkpt>
      <trkpt lat="47.29419" lon="4.98273">
        <ele>435</ele>
        <time>2013-01-26T07:38:01Z</time>
      </trkpt>
      <trkpt lat="47.29418" lon="4.98266">
        <ele>433</ele>
        <time>2013-01-26T07:38:03Z</time>
      </trkpt>
      <trkpt lat="47.29414" lon="4.98263">
        <ele>433</ele>
        <time>2013-01-26T07:38:06Z</time>
      </trkpt>
      <trkpt lat="47.29415" lon="4.98255">
        <ele>431</ele>
        <time>2013-01-26T07:38:08Z</time>
      </trkpt>
      <trkpt lat="47.29411" lon="4.98247">
        <ele>434</ele>
        <time>2013-01-26T07:38:13Z</time>
      </trkpt>
      <trkpt lat="47.29417" lon="4.98251">
        <ele>433</ele>
        <time>2013-01-26T07:38:14Z</time>
      </trkpt>
      <trkpt lat="47.29409" lon="4.98244">
        <ele>439</ele>
        <time>2013-01-26T07:38:16Z</time>
      </trkpt>
      <trkpt lat="47.29405" lon="4.98249">
        <ele>437</ele>
        <time>2013-01-26T07:38:17Z</time>
      </trkpt>
      <trkpt lat="47.29408" lon="4.9824">
        <ele>434</ele>
        <time>2013-01-26T07:38:19Z</time>
      </trkpt>
      <trkpt lat="47.29395" lon="4.98226">
        <ele>429</ele>
        <time>2013-01-26T07:38:23Z</time>
      </trkpt>
      <trkpt lat="47.29401" lon="4.98231">
        <ele>426</ele>
        <time>2013-01-26T07:38:24Z</time>
      </trkpt>
      <trkpt lat="47.29396" lon="4.98228">
        <ele>438</ele>
        <time>2013-01-26T07:38:27Z</time>
      </trkpt>
      <trkpt lat="47.29401" lon="4.98229">
        <ele>441</ele>
        <time>2013-01-26T07:38:28Z</time>
      </trkpt>
      <trkpt lat="47.29388" lon="4.98221">
        <ele>437</ele>
        <time>2013-01-26T07:38:29Z</time>
      </trkpt>
      <trkpt lat="47.29392" lon="4.98224">
        <ele>439</ele>
        <time>2013-01-26T07:38:30Z</time>
      </trkpt>
      <trkpt lat="47.29389" lon="4.98216">
        <ele>436</ele>
        <time>2013-01-26T07:38:33Z</time>
      </trkpt>
      <trkpt lat="47.29385" lon="4.98212">
        <ele>431</ele>
        <time>2013-01-26T07:38:34Z</time>
      </trkpt>
      <trkpt lat="47.29378" lon="4.98208">
        <ele>433</ele>
        <time>2013-01-26T07:38:37Z</time>
      </trkpt>
      <trkpt lat="47.29372" lon="4.982">
        <ele>428</ele>
        <time>2013-01-26T07:38:39Z</time>
      </trkpt>
      <trkpt lat="47.29378" lon="4.98199">
        <ele>431</ele>
        <time>2013-01-26T07:38:41Z</time>
      </trkpt>
      <trkpt lat="47.29373" lon="4.98192">
        <ele>431</ele>
        <time>2013-01-26T07:38:43Z</time>
      </trkpt>
      <trkpt lat="47.2937" lon="4.98183">
        <ele>431</ele>
        <time>2013-01-26T07:38:46Z</time>
      </trkpt>
      <trkpt lat="47.29364" lon="4.98183">
        <ele>432</ele>
        <time>2013-01-26T07:38:48Z</time>
      </trkpt>
      <trkpt lat="47.29364" lon="4.98174">
        <ele>433</ele>
        <time>2013-01-26T07:38:51Z</time>
      </trkpt>
      <trkpt lat="47.29367" lon="4.98169">
        <ele>434</ele>
        <time>2013-01-26T07:38:54Z</time>
      </trkpt>
      <trkpt lat="47.29362" lon="4.98167">
        <ele>436</ele>
        <time>2013-01-26T07:38:56Z</time>
      </trkpt>
      <trkpt lat="47.29367" lon="4.98166">
        <ele>433</ele>
        <time>2013-01-26T07:38:58Z</time>
      </trkpt>
      <trkpt lat="47.29362" lon="4.98163">
        <ele>438</ele>
        <time>2013-01-26T07:38:59Z</time>
      </trkpt>
      <trkpt lat="47.29358" lon="4.98159">
        <ele>429</ele>
        <time>2013-01-26T07:39:00Z</time>
      </trkpt>
      <trkpt lat="47.29358" lon="4.98159">
        <ele>429</ele>
        <time>2013-01-26T07:39:00Z</time>
      </trkpt>
      <trkpt lat="47.29358" lon="4.98159">
        <ele>436</ele>
        <time>2013-01-26T07:39:02Z</time>
      </trkpt>
      <trkpt lat="47.29355" lon="4.98164">
        <ele>432</ele>
        <time>2013-01-26T07:39:06Z</time>
      </trkpt>
      <trkpt lat="47.2935" lon="4.98165">
        <ele>432</ele>
        <time>2013-01-26T07:39:07Z</time>
      </trkpt>
      <trkpt lat="47.29346" lon="4.98159">
        <ele>432</ele>
        <time>2013-01-26T07:39:09Z</time>
      </trkpt>
      <trkpt lat="47.29346" lon="4.98159">
        <ele>432</ele>
        <time>2013-01-26T07:39:09Z</time>
      </trkpt>
      <trkpt lat="47.29346" lon="4.98159">
        <ele>432</ele>
        <time>2013-01-26T07:39:11Z</time>
      </trkpt>
      <trkpt lat="47.29343" lon="4.98167">
        <ele>429</ele>
        <time>2013-01-26T07:39:12Z</time>
      </trkpt>
      <trkpt lat="47.29346" lon="4.98163">
        <ele>436</ele>
        <time>2013-01-26T07:39:13Z</time>
      </trkpt>
      <trkpt lat="47.29346" lon="4.98163">
        <ele>436</ele>
        <time>2013-01-26T07:39:13Z</time>
      </trkpt>
      <trkpt lat="47.29346" lon="4.98163">
        <ele>436</ele>
        <time>2013-01-26T07:39:14Z</time>
      </trkpt>
      <trkpt lat="47.29343" lon="4.98169">
        <ele>436</ele>
        <time>2013-01-26T07:39:15Z</time>
      </trkpt>
      <trkpt lat="47.29348" lon="4.9817">
        <ele>439</ele>
        <time>2013-01-26T07:39:16Z</time>
      </trkpt>
      <trkpt lat="47.29346" lon="4.98185">
        <ele>421</ele>
        <time>2013-01-26T07:39:20Z</time>
      </trkpt>
      <trkpt lat="47.30305" lon="4.98081">
        <ele>402</ele>
        <time>2013-01-26T08:39:57Z</time>
      </trkpt>
      <trkpt lat="47.30309" lon="4.98087">
        <ele>403</ele>
        <time>2013-01-26T08:39:58Z</time>
      </trkpt>
      <trkpt lat="47.3028" lon="4.98052">
        <ele>414</ele>
        <time>2013-01-26T08:39:59Z</time>
      </trkpt>
      <trkpt lat="47.30286" lon="4.98059">
        <ele>415</ele>
        <time>2013-01-26T08:40:00Z</time>
      </trkpt>
      <trkpt lat="47.30292" lon="4.98056">
        <ele>412</ele>
        <time>2013-01-26T08:40:18Z</time>
      </trkpt>
      <trkpt lat="47.30292" lon="4.98063">
        <ele>412</ele>
        <time>2013-01-26T08:41:12Z</time>
      </trkpt>
      <trkpt lat="47.30287" lon="4.98068">
        <ele>414</ele>
        <time>2013-01-26T08:41:16Z</time>
      </trkpt>
      <trkpt lat="47.30284" lon="4.98076">
        <ele>415</ele>
        <time>2013-01-26T08:41:27Z</time>
      </trkpt>
      <trkpt lat="47.30288" lon="4.9808">
        <ele>419</ele>
        <time>2013-01-26T08:41:49Z</time>
      </trkpt>
      <trkpt lat="47.30291" lon="4.98085">
        <ele>419</ele>
        <time>2013-01-26T08:44:08Z</time>
      </trkpt>
      <trkpt lat="47.3029" lon="4.98092">
        <ele>424</ele>
        <time>2013-01-26T08:47:18Z</time>
      </trkpt>
      <trkpt lat="47.3029" lon="4.98092">
        <ele>424</ele>
        <time>2013-01-26T08:47:18Z</time>
      </trkpt>
      <trkpt lat="47.3029" lon="4.98092">
        <ele>424</ele>
        <time>2013-01-26T08:47:19Z</time>
      </trkpt>
      <trkpt lat="47.30286" lon="4.98096">
        <ele>427</ele>
        <time>2013-01-26T08:48:49Z</time>
      </trkpt>
      <trkpt lat="47.30293" lon="4.9809">
        <ele>428</ele>
        <time>2013-01-26T08:49:05Z</time>
      </trkpt>
      <trkpt lat="47.30293" lon="4.98078">
        <ele>426</ele>
        <time>2013-01-26T08:49:10Z</time>
      </trkpt>
      <trkpt lat="47.30293" lon="4.98078">
        <ele>426</ele>
        <time>2013-01-26T08:49:10Z</time>
      </trkpt>
      <trkpt lat="47.30293" lon="4.98078">
        <ele>426</ele>
        <time>2013-01-26T08:49:12Z</time>
      </trkpt>
      <trkpt lat="47.30289" lon="4.98082">
        <ele>427</ele>
        <time>2013-01-26T08:49:17Z</time>
      </trkpt>
      <trkpt lat="47.30284" lon="4.98087">
        <ele>428</ele>
        <time>2013-01-26T08:49:21Z</time>
      </trkpt>
      <trkpt lat="47.30278" lon="4.98088">
        <ele>428</ele>
        <time>2013-01-26T08:49:24Z</time>
      </trkpt>
      <trkpt lat="47.30283" lon="4.9809">
        <ele>430</ele>
        <time>2013-01-26T08:49:28Z</time>
      </trkpt>
      <trkpt lat="47.30279" lon="4.98096">
        <ele>430</ele>
        <time>2013-01-26T08:49:31Z</time>
      </trkpt>
      <trkpt lat="47.30275" lon="4.98098">
        <ele>429</ele>
        <time>2013-01-26T08:51:28Z</time>
      </trkpt>
      <trkpt lat="47.30275" lon="4.98098">
        <ele>429</ele>
        <time>2013-01-26T08:51:28Z</time>
      </trkpt>
      <trkpt lat="47.30275" lon="4.98098">
        <ele>428</ele>
        <time>2013-01-26T08:51:29Z</time>
      </trkpt>
      <trkpt lat="47.30271" lon="4.98106">
        <ele>427</ele>
        <time>2013-01-26T08:51:37Z</time>
      </trkpt>
      <trkpt lat="47.30271" lon="4.98112">
        <ele>426</ele>
        <time>2013-01-26T08:51:42Z</time>
      </trkpt>
      <trkpt lat="47.30273" lon="4.98119">
        <ele>426</ele>
        <time>2013-01-26T08:51:46Z</time>
      </trkpt>
      <trkpt lat="47.30272" lon="4.98125">
        <ele>426</ele>
        <time>2013-01-26T08:51:49Z</time>
      </trkpt>
      <trkpt lat="47.30273" lon="4.98132">
        <ele>426</ele>
        <time>2013-01-26T08:51:53Z</time>
      </trkpt>
      <trkpt lat="47.30278" lon="4.9814">
        <ele>427</ele>
        <time>2013-01-26T08:51:56Z</time>
      </trkpt>
      <trkpt lat="47.30276" lon="4.98148">
        <ele>425</ele>
        <time>2013-01-26T08:51:58Z</time>
      </trkpt>
      <trkpt lat="47.30271" lon="4.9815">
        <ele>426</ele>
        <time>2013-01-26T08:51:59Z</time>
      </trkpt>
      <trkpt lat="47.30267" lon="4.98153">
        <ele>428</ele>
        <time>2013-01-26T08:52:01Z</time>
      </trkpt>
      <trkpt lat="47.30263" lon="4.98157">
        <ele>428</ele>
        <time>2013-01-26T08:52:03Z</time>
      </trkpt>
      <trkpt lat="47.30257" lon="4.98161">
        <ele>428</ele>
        <time>2013-01-26T08:52:05Z</time>
      </trkpt>
      <trkpt lat="47.30253" lon="4.98166">
        <ele>427</ele>
        <time>2013-01-26T08:52:07Z</time>
      </trkpt>
      <trkpt lat="47.30248" lon="4.98171">
        <ele>426</ele>
        <time>2013-01-26T08:52:10Z</time>
      </trkpt>
      <trkpt lat="47.30243" lon="4.98178">
        <ele>426</ele>
        <time>2013-01-26T08:52:13Z</time>
      </trkpt>
      <trkpt lat="47.30238" lon="4.98184">
        <ele>427</ele>
        <time>2013-01-26T08:52:17Z</time>
      </trkpt>
      <trkpt lat="47.30234" lon="4.98188">
        <ele>429</ele>
        <time>2013-01-26T08:52:21Z</time>
      </trkpt>
      <trkpt lat="47.30229" lon="4.98189">
        <ele>428</ele>
        <time>2013-01-26T08:52:24Z</time>
      </trkpt>
      <trkpt lat="47.30224" lon="4.98191">
        <ele>427</ele>
        <time>2013-01-26T08:52:26Z</time>
      </trkpt>
      <trkpt lat="47.30225" lon="4.98184">
        <ele>427</ele>
        <time>2013-01-26T08:52:27Z</time>
      </trkpt>
      <trkpt lat="47.3022" lon="4.98182">
        <ele>428</ele>
        <time>2013-01-26T08:52:31Z</time>
      </trkpt>
      <trkpt lat="47.30215" lon="4.9818">
        <ele>434</ele>
        <time>2013-01-26T08:52:35Z</time>
      </trkpt>
      <trkpt lat="47.3021" lon="4.98182">
        <ele>435</ele>
        <time>2013-01-26T08:52:38Z</time>
      </trkpt>
      <trkpt lat="47.30205" lon="4.9818">
        <ele>435</ele>
        <time>2013-01-26T08:52:42Z</time>
      </trkpt>
      <trkpt lat="47.302" lon="4.98177">
        <ele>434</ele>
        <time>2013-01-26T08:52:46Z</time>
      </trkpt>
      <trkpt lat="47.30196" lon="4.98174">
        <ele>436</ele>
        <time>2013-01-26T08:52:51Z</time>
      </trkpt>
      <trkpt lat="47.3019" lon="4.98175">
        <ele>434</ele>
        <time>2013-01-26T08:52:55Z</time>
      </trkpt>
      <trkpt lat="47.30184" lon="4.98177">
        <ele>435</ele>
        <time>2013-01-26T08:52:57Z</time>
      </trkpt>
      <trkpt lat="47.3018" lon="4.98178">
        <ele>435</ele>
        <time>2013-01-26T08:52:59Z</time>
      </trkpt>
      <trkpt lat="47.30174" lon="4.98205">
        <ele>437</ele>
        <time>2013-01-26T08:53:14Z</time>
      </trkpt>
      <trkpt lat="47.30179" lon="4.98208">
        <ele>438</ele>
        <time>2013-01-26T08:53:17Z</time>
      </trkpt>
      <trkpt lat="47.3018" lon="4.98218">
        <ele>436</ele>
        <time>2013-01-26T08:53:22Z</time>
      </trkpt>
      <trkpt lat="47.30178" lon="4.98227">
        <ele>437</ele>
        <time>2013-01-26T08:53:25Z</time>
      </trkpt>
      <trkpt lat="47.3018" lon="4.98234">
        <ele>436</ele>
        <time>2013-01-26T08:53:28Z</time>
      </trkpt>
      <trkpt lat="47.30178" lon="4.98242">
        <ele>438</ele>
        <time>2013-01-26T08:53:32Z</time>
      </trkpt>
      <trkpt lat="47.30176" lon="4.98249">
        <ele>437</ele>
        <time>2013-01-26T08:53:36Z</time>
      </trkpt>
      <trkpt lat="47.30174" lon="4.98258">
        <ele>437</ele>
        <time>2013-01-26T08:53:39Z</time>
      </trkpt>
      <trkpt lat="47.30172" lon="4.98264">
        <ele>436</ele>
        <time>2013-01-26T08:53:42Z</time>
      </trkpt>
      <trkpt lat="47.30169" lon="4.9827">
        <ele>435</ele>
        <time>2013-01-26T08:53:45Z</time>
      </trkpt>
      <trkpt lat="47.30169" lon="4.98277">
        <ele>436</ele>
        <time>2013-01-26T08:53:48Z</time>
      </trkpt>
      <trkpt lat="47.30168" lon="4.98286">
        <ele>436</ele>
        <time>2013-01-26T08:53:51Z</time>
      </trkpt>
      <trkpt lat="47.30168" lon="4.98295">
        <ele>438</ele>
        <time>2013-01-26T08:53:54Z</time>
      </trkpt>
      <trkpt lat="47.30167" lon="4.98301">
        <ele>438</ele>
        <time>2013-01-26T08:53:57Z</time>
      </trkpt>
      <trkpt lat="47.30163" lon="4.9831">
        <ele>438</ele>
        <time>2013-01-26T08:54:01Z</time>
      </trkpt>
      <trkpt lat="47.30161" lon="4.98317">
        <ele>439</ele>
        <time>2013-01-26T08:54:03Z</time>
      </trkpt>
      <trkpt lat="47.30161" lon="4.98325">
        <ele>439</ele>
        <time>2013-01-26T08:54:06Z</time>
      </trkpt>
      <trkpt lat="47.30158" lon="4.98331">
        <ele>439</ele>
        <time>2013-01-26T08:54:08Z</time>
      </trkpt>
      <trkpt lat="47.3016" lon="4.98338">
        <ele>439</ele>
        <time>2013-01-26T08:54:11Z</time>
      </trkpt>
      <trkpt lat="47.30158" lon="4.98346">
        <ele>441</ele>
        <time>2013-01-26T08:54:14Z</time>
      </trkpt>
      <trkpt lat="47.30158" lon="4.98354">
        <ele>441</ele>
        <time>2013-01-26T08:54:18Z</time>
      </trkpt>
      <trkpt lat="47.30153" lon="4.98359">
        <ele>441</ele>
        <time>2013-01-26T08:54:20Z</time>
      </trkpt>
      <trkpt lat="47.3015" lon="4.98364">
        <ele>440</ele>
        <time>2013-01-26T08:54:22Z</time>
      </trkpt>
      <trkpt lat="47.30148" lon="4.98373">
        <ele>439</ele>
        <time>2013-01-26T08:54:26Z</time>
      </trkpt>
      <trkpt lat="47.30145" lon="4.98379">
        <ele>439</ele>
        <time>2013-01-26T08:54:29Z</time>
      </trkpt>
      <trkpt lat="47.30143" lon="4.98386">
        <ele>438</ele>
        <time>2013-01-26T08:54:34Z</time>
      </trkpt>
      <trkpt lat="47.30142" lon="4.98392">
        <ele>439</ele>
        <time>2013-01-26T08:54:41Z</time>
      </trkpt>
      <trkpt lat="47.30142" lon="4.98399">
        <ele>439</ele>
        <time>2013-01-26T08:54:44Z</time>
      </trkpt>
      <trkpt lat="47.30143" lon="4.98408">
        <ele>439</ele>
        <time>2013-01-26T08:54:48Z</time>
      </trkpt>
      <trkpt lat="47.30144" lon="4.98417">
        <ele>441</ele>
        <time>2013-01-26T08:54:51Z</time>
      </trkpt>
      <trkpt lat="47.30139" lon="4.9842">
        <ele>439</ele>
        <time>2013-01-26T08:54:55Z</time>
      </trkpt>
      <trkpt lat="47.30152" lon="4.98447">
        <ele>436</ele>
        <time>2013-01-26T08:54:59Z</time>
      </trkpt>
      <trkpt lat="47.30154" lon="4.98454">
        <ele>436</ele>
        <time>2013-01-26T08:55:01Z</time>
      </trkpt>
      <trkpt lat="47.30158" lon="4.98458">
        <ele>437</ele>
        <time>2013-01-26T08:55:02Z</time>
      </trkpt>
      <trkpt lat="47.30156" lon="4.98466">
        <ele>437</ele>
        <time>2013-01-26T08:55:05Z</time>
      </trkpt>
      <trkpt lat="47.30154" lon="4.98473">
        <ele>438</ele>
        <time>2013-01-26T08:55:08Z</time>
      </trkpt>
      <trkpt lat="47.30155" lon="4.98482">
        <ele>437</ele>
        <time>2013-01-26T08:55:11Z</time>
      </trkpt>
      <trkpt lat="47.30157" lon="4.98489">
        <ele>438</ele>
        <time>2013-01-26T08:55:14Z</time>
      </trkpt>
      <trkpt lat="47.30158" lon="4.98498">
        <ele>439</ele>
        <time>2013-01-26T08:55:17Z</time>
      </trkpt>
      <trkpt lat="47.30151" lon="4.98501">
        <ele>437</ele>
        <time>2013-01-26T08:55:19Z</time>
      </trkpt>
      <trkpt lat="47.30148" lon="4.98508">
        <ele>438</ele>
        <time>2013-01-26T08:55:22Z</time>
      </trkpt>
      <trkpt lat="47.30146" lon="4.98517">
        <ele>438</ele>
        <time>2013-01-26T08:55:25Z</time>
      </trkpt>
      <trkpt lat="47.30145" lon="4.98524">
        <ele>438</ele>
        <time>2013-01-26T08:55:28Z</time>
      </trkpt>
      <trkpt lat="47.3014" lon="4.98531">
        <ele>436</ele>
        <time>2013-01-26T08:55:30Z</time>
      </trkpt>
      <trkpt lat="47.30137" lon="4.98538">
        <ele>435</ele>
        <time>2013-01-26T08:55:33Z</time>
      </trkpt>
      <trkpt lat="47.30134" lon="4.98545">
        <ele>434</ele>
        <time>2013-01-26T08:55:36Z</time>
      </trkpt>
      <trkpt lat="47.30136" lon="4.98551">
        <ele>434</ele>
        <time>2013-01-26T08:55:38Z</time>
      </trkpt>
      <trkpt lat="47.30136" lon="4.98559">
        <ele>433</ele>
        <time>2013-01-26T08:55:41Z</time>
      </trkpt>
      <trkpt lat="47.30135" lon="4.98567">
        <ele>433</ele>
        <time>2013-01-26T08:55:44Z</time>
      </trkpt>
      <trkpt lat="47.30135" lon="4.98575">
        <ele>434</ele>
        <time>2013-01-26T08:55:47Z</time>
      </trkpt>
      <trkpt lat="47.30132" lon="4.98581">
        <ele>435</ele>
        <time>2013-01-26T08:55:50Z</time>
      </trkpt>
      <trkpt lat="47.30128" lon="4.98586">
        <ele>435</ele>
        <time>2013-01-26T08:55:52Z</time>
      </trkpt>
      <trkpt lat="47.30122" lon="4.98591">
        <ele>436</ele>
        <time>2013-01-26T08:55:54Z</time>
      </trkpt>
      <trkpt lat="47.30117" lon="4.98596">
        <ele>435</ele>
        <time>2013-01-26T08:55:56Z</time>
      </trkpt>
      <trkpt lat="47.30112" lon="4.98601">
        <ele>435</ele>
        <time>2013-01-26T08:55:58Z</time>
      </trkpt>
      <trkpt lat="47.30103" lon="4.98605">
        <ele>434</ele>
        <time>2013-01-26T08:56:00Z</time>
      </trkpt>
      <trkpt lat="47.30097" lon="4.98611">
        <ele>433</ele>
        <time>2013-01-26T08:56:03Z</time>
      </trkpt>
      <trkpt lat="47.30092" lon="4.98617">
        <ele>433</ele>
        <time>2013-01-26T08:56:06Z</time>
      </trkpt>
      <trkpt lat="47.30098" lon="4.98622">
        <ele>436</ele>
        <time>2013-01-26T08:56:08Z</time>
      </trkpt>
      <trkpt lat="47.30092" lon="4.98628">
        <ele>436</ele>
        <time>2013-01-26T08:56:12Z</time>
      </trkpt>
      <trkpt lat="47.30087" lon="4.98631">
        <ele>435</ele>
        <time>2013-01-26T08:56:14Z</time>
      </trkpt>
      <trkpt lat="47.30083" lon="4.98637">
        <ele>435</ele>
        <time>2013-01-26T08:56:17Z</time>
      </trkpt>
      <trkpt lat="47.30079" lon="4.98642">
        <ele>434</ele>
        <time>2013-01-26T08:56:20Z</time>
      </trkpt>
      <trkpt lat="47.30075" lon="4.98648">
        <ele>433</ele>
        <time>2013-01-26T08:56:23Z</time>
      </trkpt>
      <trkpt lat="47.30072" lon="4.98653">
        <ele>433</ele>
        <time>2013-01-26T08:56:25Z</time>
      </trkpt>
      <trkpt lat="47.30074" lon="4.98659">
        <ele>435</ele>
        <time>2013-01-26T08:56:28Z</time>
      </trkpt>
      <trkpt lat="47.3008" lon="4.98662">
        <ele>438</ele>
        <time>2013-01-26T08:56:29Z</time>
      </trkpt>
      <trkpt lat="47.3008" lon="4.98669">
        <ele>440</ele>
        <time>2013-01-26T08:56:32Z</time>
      </trkpt>
      <trkpt lat="47.30077" lon="4.98675">
        <ele>440</ele>
        <time>2013-01-26T08:56:35Z</time>
      </trkpt>
      <trkpt lat="47.30074" lon="4.98681">
        <ele>440</ele>
        <time>2013-01-26T08:56:40Z</time>
      </trkpt>
      <trkpt lat="47.3007" lon="4.98686">
        <ele>441</ele>
        <time>2013-01-26T08:56:42Z</time>
      </trkpt>
      <trkpt lat="47.30067" lon="4.98692">
        <ele>441</ele>
        <time>2013-01-26T08:56:45Z</time>
      </trkpt>
      <trkpt lat="47.30063" lon="4.98695">
        <ele>441</ele>
        <time>2013-01-26T08:56:47Z</time>
      </trkpt>
      <trkpt lat="47.3006" lon="4.987">
        <ele>443</ele>
        <time>2013-01-26T08:56:50Z</time>
      </trkpt>
      <trkpt lat="47.30056" lon="4.98705">
        <ele>444</ele>
        <time>2013-01-26T08:56:52Z</time>
      </trkpt>
      <trkpt lat="47.30053" lon="4.98711">
        <ele>444</ele>
        <time>2013-01-26T08:56:55Z</time>
      </trkpt>
      <trkpt lat="47.30051" lon="4.98719">
        <ele>444</ele>
        <time>2013-01-26T08:56:59Z</time>
      </trkpt>
      <trkpt lat="47.30048" lon="4.98724">
        <ele>444</ele>
        <time>2013-01-26T08:57:03Z</time>
      </trkpt>
      <trkpt lat="47.30047" lon="4.98731">
        <ele>442</ele>
        <time>2013-01-26T08:57:08Z</time>
      </trkpt>
      <trkpt lat="47.30046" lon="4.98738">
        <ele>443</ele>
        <time>2013-01-26T08:57:12Z</time>
      </trkpt>
      <trkpt lat="47.30045" lon="4.98745">
        <ele>444</ele>
        <time>2013-01-26T08:57:17Z</time>
      </trkpt>
      <trkpt lat="47.30045" lon="4.98756">
        <ele>442</ele>
        <time>2013-01-26T08:57:23Z</time>
      </trkpt>
      <trkpt lat="47.30048" lon="4.98762">
        <ele>442</ele>
        <time>2013-01-26T08:57:25Z</time>
      </trkpt>
      <trkpt lat="47.30048" lon="4.98768">
        <ele>443</ele>
        <time>2013-01-26T08:57:29Z</time>
      </trkpt>
      <trkpt lat="47.30049" lon="4.98777">
        <ele>441</ele>
        <time>2013-01-26T08:57:31Z</time>
      </trkpt>
      <trkpt lat="47.30053" lon="4.98787">
        <ele>442</ele>
        <time>2013-01-26T08:57:33Z</time>
      </trkpt>
      <trkpt lat="47.30055" lon="4.98793">
        <ele>442</ele>
        <time>2013-01-26T08:57:35Z</time>
      </trkpt>
      <trkpt lat="47.30058" lon="4.98803">
        <ele>442</ele>
        <time>2013-01-26T08:57:37Z</time>
      </trkpt>
      <trkpt lat="47.30059" lon="4.9881">
        <ele>442</ele>
        <time>2013-01-26T08:57:40Z</time>
      </trkpt>
      <trkpt lat="47.3006" lon="4.98818">
        <ele>442</ele>
        <time>2013-01-26T08:57:43Z</time>
      </trkpt>
      <trkpt lat="47.3006" lon="4.98829">
        <ele>442</ele>
        <time>2013-01-26T08:57:46Z</time>
      </trkpt>
      <trkpt lat="47.30062" lon="4.98839">
        <ele>441</ele>
        <time>2013-01-26T08:57:49Z</time>
      </trkpt>
      <trkpt lat="47.30062" lon="4.98846">
        <ele>441</ele>
        <time>2013-01-26T08:57:52Z</time>
      </trkpt>
      <trkpt lat="47.30064" lon="4.98855">
        <ele>441</ele>
        <time>2013-01-26T08:57:55Z</time>
      </trkpt>
      <trkpt lat="47.30064" lon="4.98864">
        <ele>441</ele>
        <time>2013-01-26T08:57:59Z</time>
      </trkpt>
      <trkpt lat="47.30065" lon="4.98872">
        <ele>440</ele>
        <time>2013-01-26T08:58:02Z</time>
      </trkpt>
      <trkpt lat="47.30068" lon="4.98881">
        <ele>440</ele>
        <time>2013-01-26T08:58:06Z</time>
      </trkpt>
      <trkpt lat="47.30069" lon="4.98889">
        <ele>442</ele>
        <time>2013-01-26T08:58:09Z</time>
      </trkpt>
      <trkpt lat="47.30068" lon="4.98897">
        <ele>442</ele>
        <time>2013-01-26T08:58:13Z</time>
      </trkpt>
      <trkpt lat="47.30068" lon="4.98905">
        <ele>441</ele>
        <time>2013-01-26T08:58:16Z</time>
      </trkpt>
      <trkpt lat="47.3007" lon="4.98914">
        <ele>442</ele>
        <time>2013-01-26T08:58:19Z</time>
      </trkpt>
      <trkpt lat="47.3007" lon="4.98922">
        <ele>441</ele>
        <time>2013-01-26T08:58:21Z</time>
      </trkpt>
      <trkpt lat="47.30069" lon="4.98929">
        <ele>441</ele>
        <time>2013-01-26T08:58:25Z</time>
      </trkpt>
      <trkpt lat="47.30072" lon="4.98936">
        <ele>441</ele>
        <time>2013-01-26T08:58:27Z</time>
      </trkpt>
      <trkpt lat="47.30072" lon="4.98943">
        <ele>441</ele>
        <time>2013-01-26T08:58:30Z</time>
      </trkpt>
      <trkpt lat="47.30072" lon="4.98951">
        <ele>440</ele>
        <time>2013-01-26T08:58:34Z</time>
      </trkpt>
      <trkpt lat="47.30075" lon="4.98964">
        <ele>440</ele>
        <time>2013-01-26T08:58:38Z</time>
      </trkpt>
      <trkpt lat="47.30076" lon="4.98972">
        <ele>438</ele>
        <time>2013-01-26T08:58:42Z</time>
      </trkpt>
      <trkpt lat="47.30077" lon="4.98979">
        <ele>438</ele>
        <time>2013-01-26T08:58:44Z</time>
      </trkpt>
      <trkpt lat="47.30085" lon="4.99">
        <ele>436</ele>
        <time>2013-01-26T08:58:48Z</time>
      </trkpt>
      <trkpt lat="47.30082" lon="4.99008">
        <ele>437</ele>
        <time>2013-01-26T08:58:51Z</time>
      </trkpt>
      <trkpt lat="47.30077" lon="4.9901">
        <ele>437</ele>
        <time>2013-01-26T08:58:53Z</time>
      </trkpt>
      <trkpt lat="47.30071" lon="4.99012">
        <ele>438</ele>
        <time>2013-01-26T08:58:55Z</time>
      </trkpt>
      <trkpt lat="47.30065" lon="4.99014">
        <ele>438</ele>
        <time>2013-01-26T08:58:57Z</time>
      </trkpt>
      <trkpt lat="47.30061" lon="4.9901">
        <ele>438</ele>
        <time>2013-01-26T08:59:00Z</time>
      </trkpt>
      <trkpt lat="47.30056" lon="4.9901">
        <ele>439</ele>
        <time>2013-01-26T08:59:03Z</time>
      </trkpt>
      <trkpt lat="47.3005" lon="4.9901">
        <ele>440</ele>
        <time>2013-01-26T08:59:06Z</time>
      </trkpt>
      <trkpt lat="47.30046" lon="4.99006">
        <ele>442</ele>
        <time>2013-01-26T08:59:09Z</time>
      </trkpt>
      <trkpt lat="47.30041" lon="4.99005">
        <ele>442</ele>
        <time>2013-01-26T08:59:11Z</time>
      </trkpt>
      <trkpt lat="47.30035" lon="4.99006">
        <ele>443</ele>
        <time>2013-01-26T08:59:14Z</time>
      </trkpt>
      <trkpt lat="47.30033" lon="4.98999">
        <ele>445</ele>
        <time>2013-01-26T08:59:17Z</time>
      </trkpt>
      <trkpt lat="47.30027" lon="4.98999">
        <ele>446</ele>
        <time>2013-01-26T08:59:20Z</time>
      </trkpt>
      <trkpt lat="47.30021" lon="4.98999">
        <ele>447</ele>
        <time>2013-01-26T08:59:23Z</time>
      </trkpt>
      <trkpt lat="47.30016" lon="4.98996">
        <ele>449</ele>
        <time>2013-01-26T08:59:27Z</time>
      </trkpt>
      <trkpt lat="47.3001" lon="4.98994">
        <ele>449</ele>
        <time>2013-01-26T08:59:31Z</time>
      </trkpt>
      <trkpt lat="47.30004" lon="4.98992">
        <ele>450</ele>
        <time>2013-01-26T08:59:34Z</time>
      </trkpt>
      <trkpt lat="47.29998" lon="4.98993">
        <ele>450</ele>
        <time>2013-01-26T08:59:37Z</time>
      </trkpt>
      <trkpt lat="47.29993" lon="4.98991">
        <ele>451</ele>
        <time>2013-01-26T08:59:40Z</time>
      </trkpt>
      <trkpt lat="47.29987" lon="4.98992">
        <ele>449</ele>
        <time>2013-01-26T08:59:42Z</time>
      </trkpt>
      <trkpt lat="47.29982" lon="4.98991">
        <ele>449</ele>
        <time>2013-01-26T08:59:45Z</time>
      </trkpt>
      <trkpt lat="47.29977" lon="4.98989">
        <ele>450</ele>
        <time>2013-01-26T08:59:48Z</time>
      </trkpt>
      <trkpt lat="47.29971" lon="4.9899">
        <ele>450</ele>
        <time>2013-01-26T08:59:52Z</time>
      </trkpt>
      <trkpt lat="47.29966" lon="4.98991">
        <ele>449</ele>
        <time>2013-01-26T08:59:54Z</time>
      </trkpt>
      <trkpt lat="47.2996" lon="4.98991">
        <ele>448</ele>
        <time>2013-01-26T08:59:56Z</time>
      </trkpt>
      <trkpt lat="47.29955" lon="4.98993">
        <ele>448</ele>
        <time>2013-01-26T08:59:58Z</time>
      </trkpt>
      <trkpt lat="47.29948" lon="4.98995">
        <ele>447</ele>
        <time>2013-01-26T09:00:01Z</time>
      </trkpt>
      <trkpt lat="47.29943" lon="4.98996">
        <ele>447</ele>
        <time>2013-01-26T09:00:04Z</time>
      </trkpt>
      <trkpt lat="47.29944" lon="4.98988">
        <ele>448</ele>
        <time>2013-01-26T09:00:05Z</time>
      </trkpt>
      <trkpt lat="47.29938" lon="4.98984">
        <ele>447</ele>
        <time>2013-01-26T09:00:08Z</time>
      </trkpt>
      <trkpt lat="47.29933" lon="4.98982">
        <ele>447</ele>
        <time>2013-01-26T09:00:11Z</time>
      </trkpt>
      <trkpt lat="47.29931" lon="4.98973">
        <ele>449</ele>
        <time>2013-01-26T09:00:14Z</time>
      </trkpt>
      <trkpt lat="47.29924" lon="4.98974">
        <ele>451</ele>
        <time>2013-01-26T09:00:18Z</time>
      </trkpt>
      <trkpt lat="47.29918" lon="4.98973">
        <ele>451</ele>
        <time>2013-01-26T09:00:21Z</time>
      </trkpt>
      <trkpt lat="47.2991" lon="4.98974">
        <ele>448</ele>
        <time>2013-01-26T09:00:24Z</time>
      </trkpt>
      <trkpt lat="47.29907" lon="4.98964">
        <ele>448</ele>
        <time>2013-01-26T09:00:27Z</time>
      </trkpt>
      <trkpt lat="47.29902" lon="4.98962">
        <ele>449</ele>
        <time>2013-01-26T09:00:31Z</time>
      </trkpt>
      <trkpt lat="47.29897" lon="4.98963">
        <ele>449</ele>
        <time>2013-01-26T09:00:34Z</time>
      </trkpt>
      <trkpt lat="47.29891" lon="4.98966">
        <ele>449</ele>
        <time>2013-01-26T09:00:37Z</time>
      </trkpt>
      <trkpt lat="47.29886" lon="4.98968">
        <ele>448</ele>
        <time>2013-01-26T09:00:39Z</time>
      </trkpt>
      <trkpt lat="47.29887" lon="4.98957">
        <ele>449</ele>
        <time>2013-01-26T09:00:40Z</time>
      </trkpt>
      <trkpt lat="47.29882" lon="4.98954">
        <ele>449</ele>
        <time>2013-01-26T09:00:43Z</time>
      </trkpt>
      <trkpt lat="47.29877" lon="4.98949">
        <ele>449</ele>
        <time>2013-01-26T09:00:46Z</time>
      </trkpt>
      <trkpt lat="47.29872" lon="4.98947">
        <ele>449</ele>
        <time>2013-01-26T09:00:49Z</time>
      </trkpt>
      <trkpt lat="47.29865" lon="4.98947">
        <ele>449</ele>
        <time>2013-01-26T09:00:53Z</time>
      </trkpt>
      <trkpt lat="47.29858" lon="4.98948">
        <ele>450</ele>
        <time>2013-01-26T09:00:56Z</time>
      </trkpt>
      <trkpt lat="47.29857" lon="4.98942">
        <ele>451</ele>
        <time>2013-01-26T09:00:58Z</time>
      </trkpt>
      <trkpt lat="47.29851" lon="4.98941">
        <ele>452</ele>
        <time>2013-01-26T09:01:01Z</time>
      </trkpt>
      <trkpt lat="47.29845" lon="4.98941">
        <ele>451</ele>
        <time>2013-01-26T09:01:04Z</time>
      </trkpt>
      <trkpt lat="47.29839" lon="4.98946">
        <ele>450</ele>
        <time>2013-01-26T09:01:07Z</time>
      </trkpt>
      <trkpt lat="47.29832" lon="4.9895">
        <ele>449</ele>
        <time>2013-01-26T09:01:10Z</time>
      </trkpt>
      <trkpt lat="47.29827" lon="4.98951">
        <ele>449</ele>
        <time>2013-01-26T09:01:12Z</time>
      </trkpt>
      <trkpt lat="47.29826" lon="4.98942">
        <ele>449</ele>
        <time>2013-01-26T09:01:14Z</time>
      </trkpt>
      <trkpt lat="47.29821" lon="4.98941">
        <ele>450</ele>
        <time>2013-01-26T09:01:17Z</time>
      </trkpt>
      <trkpt lat="47.29815" lon="4.98943">
        <ele>449</ele>
        <time>2013-01-26T09:01:20Z</time>
      </trkpt>
      <trkpt lat="47.29818" lon="4.9893">
        <ele>450</ele>
        <time>2013-01-26T09:01:21Z</time>
      </trkpt>
      <trkpt lat="47.29812" lon="4.9893">
        <ele>450</ele>
        <time>2013-01-26T09:01:24Z</time>
      </trkpt>
      <trkpt lat="47.2981" lon="4.98922">
        <ele>451</ele>
        <time>2013-01-26T09:01:26Z</time>
      </trkpt>
      <trkpt lat="47.29805" lon="4.98924">
        <ele>452</ele>
        <time>2013-01-26T09:01:29Z</time>
      </trkpt>
      <trkpt lat="47.29798" lon="4.98924">
        <ele>453</ele>
        <time>2013-01-26T09:01:32Z</time>
      </trkpt>
      <trkpt lat="47.29791" lon="4.98925">
        <ele>453</ele>
        <time>2013-01-26T09:01:35Z</time>
      </trkpt>
      <trkpt lat="47.29785" lon="4.98925">
        <ele>452</ele>
        <time>2013-01-26T09:01:37Z</time>
      </trkpt>
      <trkpt lat="47.29782" lon="4.98916">
        <ele>452</ele>
        <time>2013-01-26T09:01:39Z</time>
      </trkpt>
      <trkpt lat="47.29778" lon="4.98913">
        <ele>453</ele>
        <time>2013-01-26T09:01:41Z</time>
      </trkpt>
      <trkpt lat="47.29773" lon="4.9891">
        <ele>453</ele>
        <time>2013-01-26T09:01:46Z</time>
      </trkpt>
      <trkpt lat="47.29769" lon="4.98904">
        <ele>452</ele>
        <time>2013-01-26T09:01:50Z</time>
      </trkpt>
      <trkpt lat="47.29763" lon="4.98903">
        <ele>452</ele>
        <time>2013-01-26T09:01:54Z</time>
      </trkpt>
      <trkpt lat="47.29758" lon="4.98904">
        <ele>452</ele>
        <time>2013-01-26T09:01:57Z</time>
      </trkpt>
      <trkpt lat="47.29753" lon="4.98904">
        <ele>453</ele>
        <time>2013-01-26T09:02:00Z</time>
      </trkpt>
      <trkpt lat="47.29749" lon="4.98899">
        <ele>454</ele>
        <time>2013-01-26T09:02:03Z</time>
      </trkpt>
      <trkpt lat="47.29743" lon="4.98899">
        <ele>455</ele>
        <time>2013-01-26T09:02:07Z</time>
      </trkpt>
      <trkpt lat="47.29738" lon="4.98895">
        <ele>455</ele>
        <time>2013-01-26T09:02:10Z</time>
      </trkpt>
      <trkpt lat="47.29732" lon="4.98895">
        <ele>456</ele>
        <time>2013-01-26T09:02:13Z</time>
      </trkpt>
      <trkpt lat="47.29727" lon="4.98894">
        <ele>455</ele>
        <time>2013-01-26T09:02:15Z</time>
      </trkpt>
      <trkpt lat="47.29722" lon="4.98892">
        <ele>454</ele>
        <time>2013-01-26T09:02:19Z</time>
      </trkpt>
      <trkpt lat="47.29717" lon="4.98886">
        <ele>456</ele>
        <time>2013-01-26T09:02:23Z</time>
      </trkpt>
      <trkpt lat="47.29713" lon="4.98882">
        <ele>457</ele>
        <time>2013-01-26T09:02:26Z</time>
      </trkpt>
      <trkpt lat="47.29708" lon="4.98881">
        <ele>456</ele>
        <time>2013-01-26T09:02:29Z</time>
      </trkpt>
      <trkpt lat="47.29702" lon="4.98875">
        <ele>457</ele>
        <time>2013-01-26T09:02:32Z</time>
      </trkpt>
      <trkpt lat="47.29697" lon="4.98877">
        <ele>457</ele>
        <time>2013-01-26T09:02:34Z</time>
      </trkpt>
      <trkpt lat="47.29692" lon="4.98876">
        <ele>457</ele>
        <time>2013-01-26T09:02:37Z</time>
      </trkpt>
      <trkpt lat="47.29688" lon="4.98869">
        <ele>458</ele>
        <time>2013-01-26T09:02:41Z</time>
      </trkpt>
      <trkpt lat="47.29682" lon="4.98867">
        <ele>458</ele>
        <time>2013-01-26T09:02:44Z</time>
      </trkpt>
      <trkpt lat="47.29678" lon="4.98866">
        <ele>458</ele>
        <time>2013-01-26T09:02:46Z</time>
      </trkpt>
      <trkpt lat="47.29673" lon="4.98864">
        <ele>459</ele>
        <time>2013-01-26T09:02:49Z</time>
      </trkpt>
      <trkpt lat="47.29668" lon="4.98863">
        <ele>459</ele>
        <time>2013-01-26T09:02:52Z</time>
      </trkpt>
      <trkpt lat="47.29663" lon="4.98862">
        <ele>459</ele>
        <time>2013-01-26T09:02:55Z</time>
      </trkpt>
      <trkpt lat="47.29657" lon="4.98862">
        <ele>459</ele>
        <time>2013-01-26T09:02:58Z</time>
      </trkpt>
      <trkpt lat="47.2965" lon="4.98863">
        <ele>459</ele>
        <time>2013-01-26T09:03:01Z</time>
      </trkpt>
      <trkpt lat="47.29643" lon="4.98866">
        <ele>459</ele>
        <time>2013-01-26T09:03:04Z</time>
      </trkpt>
      <trkpt lat="47.29637" lon="4.98863">
        <ele>459</ele>
        <time>2013-01-26T09:03:07Z</time>
      </trkpt>
      <trkpt lat="47.29632" lon="4.98864">
        <ele>459</ele>
        <time>2013-01-26T09:03:09Z</time>
      </trkpt>
      <trkpt lat="47.29626" lon="4.98863">
        <ele>457</ele>
        <time>2013-01-26T09:03:11Z</time>
      </trkpt>
      <trkpt lat="47.2962" lon="4.98864">
        <ele>456</ele>
        <time>2013-01-26T09:03:13Z</time>
      </trkpt>
      <trkpt lat="47.29616" lon="4.98856">
        <ele>457</ele>
        <time>2013-01-26T09:03:16Z</time>
      </trkpt>
      <trkpt lat="47.29612" lon="4.98853">
        <ele>457</ele>
        <time>2013-01-26T09:03:19Z</time>
      </trkpt>
      <trkpt lat="47.29606" lon="4.98848">
        <ele>457</ele>
        <time>2013-01-26T09:03:22Z</time>
      </trkpt>
      <trkpt lat="47.29602" lon="4.98844">
        <ele>457</ele>
        <time>2013-01-26T09:03:25Z</time>
      </trkpt>
      <trkpt lat="47.29597" lon="4.98842">
        <ele>458</ele>
        <time>2013-01-26T09:03:28Z</time>
      </trkpt>
      <trkpt lat="47.29592" lon="4.98838">
        <ele>458</ele>
        <time>2013-01-26T09:03:32Z</time>
      </trkpt>
      <trkpt lat="47.29586" lon="4.98836">
        <ele>460</ele>
        <time>2013-01-26T09:03:35Z</time>
      </trkpt>
      <trkpt lat="47.29579" lon="4.98833">
        <ele>456</ele>
        <time>2013-01-26T09:03:37Z</time>
      </trkpt>
      <trkpt lat="47.29576" lon="4.98826">
        <ele>456</ele>
        <time>2013-01-26T09:03:40Z</time>
      </trkpt>
      <trkpt lat="47.29569" lon="4.98826">
        <ele>456</ele>
        <time>2013-01-26T09:03:43Z</time>
      </trkpt>
      <trkpt lat="47.29565" lon="4.98821">
        <ele>456</ele>
        <time>2013-01-26T09:03:46Z</time>
      </trkpt>
      <trkpt lat="47.2956" lon="4.98818">
        <ele>456</ele>
        <time>2013-01-26T09:03:49Z</time>
      </trkpt>
      <trkpt lat="47.29555" lon="4.98815">
        <ele>455</ele>
        <time>2013-01-26T09:03:53Z</time>
      </trkpt>
      <trkpt lat="47.2955" lon="4.98812">
        <ele>456</ele>
        <time>2013-01-26T09:03:56Z</time>
      </trkpt>
      <trkpt lat="47.29545" lon="4.98809">
        <ele>457</ele>
        <time>2013-01-26T09:03:59Z</time>
      </trkpt>
      <trkpt lat="47.2954" lon="4.98804">
        <ele>457</ele>
        <time>2013-01-26T09:04:02Z</time>
      </trkpt>
      <trkpt lat="47.29535" lon="4.98803">
        <ele>457</ele>
        <time>2013-01-26T09:04:04Z</time>
      </trkpt>
      <trkpt lat="47.2953" lon="4.988">
        <ele>457</ele>
        <time>2013-01-26T09:04:08Z</time>
      </trkpt>
      <trkpt lat="47.29526" lon="4.98795">
        <ele>458</ele>
        <time>2013-01-26T09:04:11Z</time>
      </trkpt>
      <trkpt lat="47.2952" lon="4.98791">
        <ele>456</ele>
        <time>2013-01-26T09:04:14Z</time>
      </trkpt>
      <trkpt lat="47.29514" lon="4.98788">
        <ele>456</ele>
        <time>2013-01-26T09:04:16Z</time>
      </trkpt>
      <trkpt lat="47.2951" lon="4.98786">
        <ele>457</ele>
        <time>2013-01-26T09:04:19Z</time>
      </trkpt>
      <trkpt lat="47.29505" lon="4.98788">
        <ele>458</ele>
        <time>2013-01-26T09:04:22Z</time>
      </trkpt>
      <trkpt lat="47.29499" lon="4.98784">
        <ele>458</ele>
        <time>2013-01-26T09:04:25Z</time>
      </trkpt>
      <trkpt lat="47.29493" lon="4.9878">
        <ele>457</ele>
        <time>2013-01-26T09:04:28Z</time>
      </trkpt>
      <trkpt lat="47.29487" lon="4.98778">
        <ele>457</ele>
        <time>2013-01-26T09:04:31Z</time>
      </trkpt>
      <trkpt lat="47.29482" lon="4.98773">
        <ele>457</ele>
        <time>2013-01-26T09:04:34Z</time>
      </trkpt>
      <trkpt lat="47.29477" lon="4.9877">
        <ele>457</ele>
        <time>2013-01-26T09:04:37Z</time>
      </trkpt>
      <trkpt lat="47.29471" lon="4.98772">
        <ele>456</ele>
        <time>2013-01-26T09:04:39Z</time>
      </trkpt>
      <trkpt lat="47.29466" lon="4.98771">
        <ele>456</ele>
        <time>2013-01-26T09:04:41Z</time>
      </trkpt>
      <trkpt lat="47.29461" lon="4.98768">
        <ele>456</ele>
        <time>2013-01-26T09:04:43Z</time>
      </trkpt>
      <trkpt lat="47.29455" lon="4.98767">
        <ele>457</ele>
        <time>2013-01-26T09:04:46Z</time>
      </trkpt>
      <trkpt lat="47.29448" lon="4.98767">
        <ele>457</ele>
        <time>2013-01-26T09:04:49Z</time>
      </trkpt>
      <trkpt lat="47.29442" lon="4.98766">
        <ele>456</ele>
        <time>2013-01-26T09:04:52Z</time>
      </trkpt>
      <trkpt lat="47.29435" lon="4.98766">
        <ele>457</ele>
        <time>2013-01-26T09:04:55Z</time>
      </trkpt>
      <trkpt lat="47.2943" lon="4.98762">
        <ele>456</ele>
        <time>2013-01-26T09:04:58Z</time>
      </trkpt>
      <trkpt lat="47.29425" lon="4.9876">
        <ele>455</ele>
        <time>2013-01-26T09:05:00Z</time>
      </trkpt>
      <trkpt lat="47.2942" lon="4.98756">
        <ele>454</ele>
        <time>2013-01-26T09:05:03Z</time>
      </trkpt>
      <trkpt lat="47.29421" lon="4.98746">
        <ele>454</ele>
        <time>2013-01-26T09:05:04Z</time>
      </trkpt>
      <trkpt lat="47.29417" lon="4.98742">
        <ele>454</ele>
        <time>2013-01-26T09:05:06Z</time>
      </trkpt>
      <trkpt lat="47.29411" lon="4.98746">
        <ele>455</ele>
        <time>2013-01-26T09:05:08Z</time>
      </trkpt>
      <trkpt lat="47.29407" lon="4.98745">
        <ele>455</ele>
        <time>2013-01-26T09:05:10Z</time>
      </trkpt>
      <trkpt lat="47.29401" lon="4.98742">
        <ele>454</ele>
        <time>2013-01-26T09:05:13Z</time>
      </trkpt>
      <trkpt lat="47.29398" lon="4.98736">
        <ele>453</ele>
        <time>2013-01-26T09:05:15Z</time>
      </trkpt>
      <trkpt lat="47.29391" lon="4.98736">
        <ele>452</ele>
        <time>2013-01-26T09:05:18Z</time>
      </trkpt>
      <trkpt lat="47.29386" lon="4.98735">
        <ele>452</ele>
        <time>2013-01-26T09:05:21Z</time>
      </trkpt>
      <trkpt lat="47.2938" lon="4.9873">
        <ele>452</ele>
        <time>2013-01-26T09:05:24Z</time>
      </trkpt>
      <trkpt lat="47.29375" lon="4.98729">
        <ele>453</ele>
        <time>2013-01-26T09:05:26Z</time>
      </trkpt>
      <trkpt lat="47.2937" lon="4.98728">
        <ele>453</ele>
        <time>2013-01-26T09:05:28Z</time>
      </trkpt>
      <trkpt lat="47.29363" lon="4.98725">
        <ele>453</ele>
        <time>2013-01-26T09:05:31Z</time>
      </trkpt>
      <trkpt lat="47.29358" lon="4.98724">
        <ele>453</ele>
        <time>2013-01-26T09:05:33Z</time>
      </trkpt>
      <trkpt lat="47.29353" lon="4.98726">
        <ele>453</ele>
        <time>2013-01-26T09:05:35Z</time>
      </trkpt>
      <trkpt lat="47.29349" lon="4.98721">
        <ele>453</ele>
        <time>2013-01-26T09:05:37Z</time>
      </trkpt>
      <trkpt lat="47.29344" lon="4.98718">
        <ele>453</ele>
        <time>2013-01-26T09:05:40Z</time>
      </trkpt>
      <trkpt lat="47.29337" lon="4.98719">
        <ele>453</ele>
        <time>2013-01-26T09:05:43Z</time>
      </trkpt>
      <trkpt lat="47.29332" lon="4.98718">
        <ele>453</ele>
        <time>2013-01-26T09:05:45Z</time>
      </trkpt>
      <trkpt lat="47.29327" lon="4.98713">
        <ele>453</ele>
        <time>2013-01-26T09:05:48Z</time>
      </trkpt>
      <trkpt lat="47.29322" lon="4.9871">
        <ele>452</ele>
        <time>2013-01-26T09:05:50Z</time>
      </trkpt>
      <trkpt lat="47.29315" lon="4.98709">
        <ele>453</ele>
        <time>2013-01-26T09:05:53Z</time>
      </trkpt>
      <trkpt lat="47.29312" lon="4.98704">
        <ele>452</ele>
        <time>2013-01-26T09:05:55Z</time>
      </trkpt>
      <trkpt lat="47.29307" lon="4.98699">
        <ele>451</ele>
        <time>2013-01-26T09:05:58Z</time>
      </trkpt>
      <trkpt lat="47.29302" lon="4.98693">
        <ele>451</ele>
        <time>2013-01-26T09:06:01Z</time>
      </trkpt>
      <trkpt lat="47.29298" lon="4.98693">
        <ele>451</ele>
        <time>2013-01-26T09:06:03Z</time>
      </trkpt>
      <trkpt lat="47.29291" lon="4.98693">
        <ele>451</ele>
        <time>2013-01-26T09:06:06Z</time>
      </trkpt>
      <trkpt lat="47.29286" lon="4.98689">
        <ele>449</ele>
        <time>2013-01-26T09:06:09Z</time>
      </trkpt>
      <trkpt lat="47.29281" lon="4.98688">
        <ele>449</ele>
        <time>2013-01-26T09:06:11Z</time>
      </trkpt>
      <trkpt lat="47.29276" lon="4.98689">
        <ele>448</ele>
        <time>2013-01-26T09:06:13Z</time>
      </trkpt>
      <trkpt lat="47.2927" lon="4.98689">
        <ele>448</ele>
        <time>2013-01-26T09:06:15Z</time>
      </trkpt>
      <trkpt lat="47.29266" lon="4.98689">
        <ele>448</ele>
        <time>2013-01-26T09:06:17Z</time>
      </trkpt>
      <trkpt lat="47.2926" lon="4.98683">
        <ele>449</ele>
        <time>2013-01-26T09:06:20Z</time>
      </trkpt>
      <trkpt lat="47.29254" lon="4.9868">
        <ele>449</ele>
        <time>2013-01-26T09:06:23Z</time>
      </trkpt>
      <trkpt lat="47.29249" lon="4.98675">
        <ele>449</ele>
        <time>2013-01-26T09:06:26Z</time>
      </trkpt>
      <trkpt lat="47.29244" lon="4.98675">
        <ele>449</ele>
        <time>2013-01-26T09:06:28Z</time>
      </trkpt>
      <trkpt lat="47.29238" lon="4.98673">
        <ele>450</ele>
        <time>2013-01-26T09:06:31Z</time>
      </trkpt>
      <trkpt lat="47.29233" lon="4.98667">
        <ele>449</ele>
        <time>2013-01-26T09:06:35Z</time>
      </trkpt>
      <trkpt lat="47.29228" lon="4.98664">
        <ele>448</ele>
        <time>2013-01-26T09:06:37Z</time>
      </trkpt>
      <trkpt lat="47.29223" lon="4.98663">
        <ele>448</ele>
        <time>2013-01-26T09:06:40Z</time>
      </trkpt>
      <trkpt lat="47.29217" lon="4.98661">
        <ele>449</ele>
        <time>2013-01-26T09:06:44Z</time>
      </trkpt>
      <trkpt lat="47.29211" lon="4.98662">
        <ele>449</ele>
        <time>2013-01-26T09:06:47Z</time>
      </trkpt>
      <trkpt lat="47.29205" lon="4.98661">
        <ele>450</ele>
        <time>2013-01-26T09:06:49Z</time>
      </trkpt>
      <trkpt lat="47.29199" lon="4.9866">
        <ele>451</ele>
        <time>2013-01-26T09:06:52Z</time>
      </trkpt>
      <trkpt lat="47.29193" lon="4.98656">
        <ele>451</ele>
        <time>2013-01-26T09:06:55Z</time>
      </trkpt>
      <trkpt lat="47.29186" lon="4.98653">
        <ele>451</ele>
        <time>2013-01-26T09:06:58Z</time>
      </trkpt>
      <trkpt lat="47.2918" lon="4.9865">
        <ele>451</ele>
        <time>2013-01-26T09:07:01Z</time>
      </trkpt>
      <trkpt lat="47.29174" lon="4.98648">
        <ele>451</ele>
        <time>2013-01-26T09:07:04Z</time>
      </trkpt>
      <trkpt lat="47.29168" lon="4.98647">
        <ele>451</ele>
        <time>2013-01-26T09:07:07Z</time>
      </trkpt>
      <trkpt lat="47.29164" lon="4.98646">
        <ele>450</ele>
        <time>2013-01-26T09:07:09Z</time>
      </trkpt>
      <trkpt lat="47.29159" lon="4.98642">
        <ele>450</ele>
        <time>2013-01-26T09:07:12Z</time>
      </trkpt>
      <trkpt lat="47.29153" lon="4.9864">
        <ele>451</ele>
        <time>2013-01-26T09:07:15Z</time>
      </trkpt>
      <trkpt lat="47.29148" lon="4.98638">
        <ele>451</ele>
        <time>2013-01-26T09:07:18Z</time>
      </trkpt>
      <trkpt lat="47.29143" lon="4.98632">
        <ele>450</ele>
        <time>2013-01-26T09:07:21Z</time>
      </trkpt>
      <trkpt lat="47.29136" lon="4.98633">
        <ele>449</ele>
        <time>2013-01-26T09:07:24Z</time>
      </trkpt>
      <trkpt lat="47.29132" lon="4.9863">
        <ele>448</ele>
        <time>2013-01-26T09:07:27Z</time>
      </trkpt>
      <trkpt lat="47.29126" lon="4.98628">
        <ele>448</ele>
        <time>2013-01-26T09:07:30Z</time>
      </trkpt>
      <trkpt lat="47.2912" lon="4.98625">
        <ele>448</ele>
        <time>2013-01-26T09:07:33Z</time>
      </trkpt>
      <trkpt lat="47.29114" lon="4.98628">
        <ele>447</ele>
        <time>2013-01-26T09:07:35Z</time>
      </trkpt>
      <trkpt lat="47.29109" lon="4.98626">
        <ele>448</ele>
        <time>2013-01-26T09:07:37Z</time>
      </trkpt>
      <trkpt lat="47.29104" lon="4.98624">
        <ele>446</ele>
        <time>2013-01-26T09:07:40Z</time>
      </trkpt>
      <trkpt lat="47.29098" lon="4.98622">
        <ele>447</ele>
        <time>2013-01-26T09:07:43Z</time>
      </trkpt>
      <trkpt lat="47.29092" lon="4.98618">
        <ele>448</ele>
        <time>2013-01-26T09:07:47Z</time>
      </trkpt>
      <trkpt lat="47.29087" lon="4.98618">
        <ele>447</ele>
        <time>2013-01-26T09:07:49Z</time>
      </trkpt>
      <trkpt lat="47.29081" lon="4.98616">
        <ele>448</ele>
        <time>2013-01-26T09:07:52Z</time>
      </trkpt>
      <trkpt lat="47.29076" lon="4.98612">
        <ele>448</ele>
        <time>2013-01-26T09:07:55Z</time>
      </trkpt>
      <trkpt lat="47.2907" lon="4.98612">
        <ele>447</ele>
        <time>2013-01-26T09:07:58Z</time>
      </trkpt>
      <trkpt lat="47.29065" lon="4.9861">
        <ele>448</ele>
        <time>2013-01-26T09:08:00Z</time>
      </trkpt>
      <trkpt lat="47.29059" lon="4.98607">
        <ele>448</ele>
        <time>2013-01-26T09:08:03Z</time>
      </trkpt>
      <trkpt lat="47.29055" lon="4.9861">
        <ele>448</ele>
        <time>2013-01-26T09:08:05Z</time>
      </trkpt>
      <trkpt lat="47.2905" lon="4.98612">
        <ele>448</ele>
        <time>2013-01-26T09:08:08Z</time>
      </trkpt>
      <trkpt lat="47.29046" lon="4.98615">
        <ele>447</ele>
        <time>2013-01-26T09:08:11Z</time>
      </trkpt>
      <trkpt lat="47.2904" lon="4.98614">
        <ele>447</ele>
        <time>2013-01-26T09:08:14Z</time>
      </trkpt>
      <trkpt lat="47.29035" lon="4.98617">
        <ele>446</ele>
        <time>2013-01-26T09:08:17Z</time>
      </trkpt>
      <trkpt lat="47.29031" lon="4.98619">
        <ele>446</ele>
        <time>2013-01-26T09:08:20Z</time>
      </trkpt>
      <trkpt lat="47.29026" lon="4.98622">
        <ele>446</ele>
        <time>2013-01-26T09:08:24Z</time>
      </trkpt>
      <trkpt lat="47.2902" lon="4.98623">
        <ele>445</ele>
        <time>2013-01-26T09:08:25Z</time>
      </trkpt>
      <trkpt lat="47.29014" lon="4.98624">
        <ele>446</ele>
        <time>2013-01-26T09:08:27Z</time>
      </trkpt>
      <trkpt lat="47.29009" lon="4.98626">
        <ele>446</ele>
        <time>2013-01-26T09:08:30Z</time>
      </trkpt>
      <trkpt lat="47.29004" lon="4.98626">
        <ele>447</ele>
        <time>2013-01-26T09:08:32Z</time>
      </trkpt>
      <trkpt lat="47.28995" lon="4.98628">
        <ele>444</ele>
        <time>2013-01-26T09:08:34Z</time>
      </trkpt>
      <trkpt lat="47.28988" lon="4.98631">
        <ele>446</ele>
        <time>2013-01-26T09:08:37Z</time>
      </trkpt>
      <trkpt lat="47.28982" lon="4.98631">
        <ele>446</ele>
        <time>2013-01-26T09:08:39Z</time>
      </trkpt>
      <trkpt lat="47.28975" lon="4.9863">
        <ele>445</ele>
        <time>2013-01-26T09:08:41Z</time>
      </trkpt>
      <trkpt lat="47.28969" lon="4.98628">
        <ele>443</ele>
        <time>2013-01-26T09:08:44Z</time>
      </trkpt>
      <trkpt lat="47.28964" lon="4.98622">
        <ele>443</ele>
        <time>2013-01-26T09:08:47Z</time>
      </trkpt>
      <trkpt lat="47.28959" lon="4.98619">
        <ele>444</ele>
        <time>2013-01-26T09:08:50Z</time>
      </trkpt>
      <trkpt lat="47.28954" lon="4.9862">
        <ele>443</ele>
        <time>2013-01-26T09:08:52Z</time>
      </trkpt>
      <trkpt lat="47.28947" lon="4.9862">
        <ele>441</ele>
        <time>2013-01-26T09:08:54Z</time>
      </trkpt>
      <trkpt lat="47.28941" lon="4.98624">
        <ele>439</ele>
        <time>2013-01-26T09:08:56Z</time>
      </trkpt>
      <trkpt lat="47.28942" lon="4.98613">
        <ele>437</ele>
        <time>2013-01-26T09:08:57Z</time>
      </trkpt>
      <trkpt lat="47.28938" lon="4.98606">
        <ele>436</ele>
        <time>2013-01-26T09:09:00Z</time>
      </trkpt>
      <trkpt lat="47.28934" lon="4.98598">
        <ele>435</ele>
        <time>2013-01-26T09:09:03Z</time>
      </trkpt>
      <trkpt lat="47.28932" lon="4.98593">
        <ele>435</ele>
        <time>2013-01-26T09:09:06Z</time>
      </trkpt>
      <trkpt lat="47.28931" lon="4.98584">
        <ele>435</ele>
        <time>2013-01-26T09:09:08Z</time>
      </trkpt>
      <trkpt lat="47.28928" lon="4.98579">
        <ele>434</ele>
        <time>2013-01-26T09:09:10Z</time>
      </trkpt>
      <trkpt lat="47.28925" lon="4.98571">
        <ele>433</ele>
        <time>2013-01-26T09:09:13Z</time>
      </trkpt>
      <trkpt lat="47.28925" lon="4.98564">
        <ele>432</ele>
        <time>2013-01-26T09:09:15Z</time>
      </trkpt>
      <trkpt lat="47.28924" lon="4.98556">
        <ele>431</ele>
        <time>2013-01-26T09:09:17Z</time>
      </trkpt>
      <trkpt lat="47.28923" lon="4.98547">
        <ele>432</ele>
        <time>2013-01-26T09:09:20Z</time>
      </trkpt>
      <trkpt lat="47.28924" lon="4.98533">
        <ele>429</ele>
        <time>2013-01-26T09:09:22Z</time>
      </trkpt>
      <trkpt lat="47.28924" lon="4.98523">
        <ele>429</ele>
        <time>2013-01-26T09:09:24Z</time>
      </trkpt>
      <trkpt lat="47.28923" lon="4.98513">
        <ele>427</ele>
        <time>2013-01-26T09:09:27Z</time>
      </trkpt>
      <trkpt lat="47.28922" lon="4.98506">
        <ele>427</ele>
        <time>2013-01-26T09:09:29Z</time>
      </trkpt>
      <trkpt lat="47.28922" lon="4.98498">
        <ele>427</ele>
        <time>2013-01-26T09:09:31Z</time>
      </trkpt>
      <trkpt lat="47.2892" lon="4.98488">
        <ele>426</ele>
        <time>2013-01-26T09:09:33Z</time>
      </trkpt>
      <trkpt lat="47.28918" lon="4.98482">
        <ele>426</ele>
        <time>2013-01-26T09:09:35Z</time>
      </trkpt>
      <trkpt lat="47.28916" lon="4.98472">
        <ele>426</ele>
        <time>2013-01-26T09:09:37Z</time>
      </trkpt>
      <trkpt lat="47.28914" lon="4.98463">
        <ele>426</ele>
        <time>2013-01-26T09:09:39Z</time>
      </trkpt>
      <trkpt lat="47.28911" lon="4.98456">
        <ele>426</ele>
        <time>2013-01-26T09:09:41Z</time>
      </trkpt>
      <trkpt lat="47.28907" lon="4.98446">
        <ele>427</ele>
        <time>2013-01-26T09:09:43Z</time>
      </trkpt>
      <trkpt lat="47.28905" lon="4.98437">
        <ele>428</ele>
        <time>2013-01-26T09:09:45Z</time>
      </trkpt>
      <trkpt lat="47.28904" lon="4.98428">
        <ele>427</ele>
        <time>2013-01-26T09:09:47Z</time>
      </trkpt>
      <trkpt lat="47.28902" lon="4.9842">
        <ele>427</ele>
        <time>2013-01-26T09:09:49Z</time>
      </trkpt>
      <trkpt lat="47.28916" lon="4.98428">
        <ele>425</ele>
        <time>2013-01-26T09:09:52Z</time>
      </trkpt>
      <trkpt lat="47.28914" lon="4.9842">
        <ele>425</ele>
        <time>2013-01-26T09:09:55Z</time>
      </trkpt>
      <trkpt lat="47.28911" lon="4.9841">
        <ele>426</ele>
        <time>2013-01-26T09:09:58Z</time>
      </trkpt>
      <trkpt lat="47.28908" lon="4.98397">
        <ele>428</ele>
        <time>2013-01-26T09:10:01Z</time>
      </trkpt>
      <trkpt lat="47.28906" lon="4.9839">
        <ele>428</ele>
        <time>2013-01-26T09:10:05Z</time>
      </trkpt>
      <trkpt lat="47.28915" lon="4.98394">
        <ele>426</ele>
        <time>2013-01-26T09:10:07Z</time>
      </trkpt>
      <trkpt lat="47.28917" lon="4.98388">
        <ele>424</ele>
        <time>2013-01-26T09:10:10Z</time>
      </trkpt>
      <trkpt lat="47.28916" lon="4.98379">
        <ele>424</ele>
        <time>2013-01-26T09:10:13Z</time>
      </trkpt>
      <trkpt lat="47.28914" lon="4.9837">
        <ele>425</ele>
        <time>2013-01-26T09:10:16Z</time>
      </trkpt>
      <trkpt lat="47.28912" lon="4.98361">
        <ele>423</ele>
        <time>2013-01-26T09:10:19Z</time>
      </trkpt>
      <trkpt lat="47.28909" lon="4.98352">
        <ele>423</ele>
        <time>2013-01-26T09:10:22Z</time>
      </trkpt>
      <trkpt lat="47.28907" lon="4.98344">
        <ele>423</ele>
        <time>2013-01-26T09:10:25Z</time>
      </trkpt>
      <trkpt lat="47.28904" lon="4.98337">
        <ele>423</ele>
        <time>2013-01-26T09:10:28Z</time>
      </trkpt>
      <trkpt lat="47.28902" lon="4.9833">
        <ele>423</ele>
        <time>2013-01-26T09:10:31Z</time>
      </trkpt>
      <trkpt lat="47.28896" lon="4.98324">
        <ele>423</ele>
        <time>2013-01-26T09:10:35Z</time>
      </trkpt>
      <trkpt lat="47.28896" lon="4.98311">
        <ele>421</ele>
        <time>2013-01-26T09:10:37Z</time>
      </trkpt>
      <trkpt lat="47.28894" lon="4.98304">
        <ele>422</ele>
        <time>2013-01-26T09:10:39Z</time>
      </trkpt>
      <trkpt lat="47.2889" lon="4.983">
        <ele>422</ele>
        <time>2013-01-26T09:10:42Z</time>
      </trkpt>
      <trkpt lat="47.2889" lon="4.9829">
        <ele>422</ele>
        <time>2013-01-26T09:10:44Z</time>
      </trkpt>
      <trkpt lat="47.2889" lon="4.98281">
        <ele>422</ele>
        <time>2013-01-26T09:10:46Z</time>
      </trkpt>
      <trkpt lat="47.28889" lon="4.98269">
        <ele>421</ele>
        <time>2013-01-26T09:10:49Z</time>
      </trkpt>
      <trkpt lat="47.2889" lon="4.98258">
        <ele>422</ele>
        <time>2013-01-26T09:10:52Z</time>
      </trkpt>
      <trkpt lat="47.28891" lon="4.98251">
        <ele>422</ele>
        <time>2013-01-26T09:10:54Z</time>
      </trkpt>
      <trkpt lat="47.28898" lon="4.9825">
        <ele>421</ele>
        <time>2013-01-26T09:10:57Z</time>
      </trkpt>
      <trkpt lat="47.289" lon="4.98241">
        <ele>421</ele>
        <time>2013-01-26T09:11:00Z</time>
      </trkpt>
      <trkpt lat="47.28901" lon="4.98234">
        <ele>420</ele>
        <time>2013-01-26T09:11:02Z</time>
      </trkpt>
      <trkpt lat="47.289" lon="4.98226">
        <ele>420</ele>
        <time>2013-01-26T09:11:05Z</time>
      </trkpt>
      <trkpt lat="47.28902" lon="4.98218">
        <ele>420</ele>
        <time>2013-01-26T09:11:09Z</time>
      </trkpt>
      <trkpt lat="47.28906" lon="4.98215">
        <ele>421</ele>
        <time>2013-01-26T09:11:12Z</time>
      </trkpt>
      <trkpt lat="47.28905" lon="4.98207">
        <ele>420</ele>
        <time>2013-01-26T09:11:14Z</time>
      </trkpt>
      <trkpt lat="47.28908" lon="4.98202">
        <ele>420</ele>
        <time>2013-01-26T09:11:16Z</time>
      </trkpt>
      <trkpt lat="47.28908" lon="4.98194">
        <ele>420</ele>
        <time>2013-01-26T09:11:19Z</time>
      </trkpt>
      <trkpt lat="47.28909" lon="4.98186">
        <ele>420</ele>
        <time>2013-01-26T09:11:21Z</time>
      </trkpt>
      <trkpt lat="47.2891" lon="4.98179">
        <ele>420</ele>
        <time>2013-01-26T09:11:23Z</time>
      </trkpt>
      <trkpt lat="47.28904" lon="4.98168">
        <ele>422</ele>
        <time>2013-01-26T09:11:25Z</time>
      </trkpt>
      <trkpt lat="47.28907" lon="4.98158">
        <ele>422</ele>
        <time>2013-01-26T09:11:28Z</time>
      </trkpt>
      <trkpt lat="47.28908" lon="4.9815">
        <ele>422</ele>
        <time>2013-01-26T09:11:30Z</time>
      </trkpt>
      <trkpt lat="47.28912" lon="4.98145">
        <ele>423</ele>
        <time>2013-01-26T09:11:33Z</time>
      </trkpt>
      <trkpt lat="47.28918" lon="4.98142">
        <ele>424</ele>
        <time>2013-01-26T09:11:36Z</time>
      </trkpt>
      <trkpt lat="47.28923" lon="4.98135">
        <ele>424</ele>
        <time>2013-01-26T09:11:39Z</time>
      </trkpt>
      <trkpt lat="47.28923" lon="4.98128">
        <ele>424</ele>
        <time>2013-01-26T09:11:41Z</time>
      </trkpt>
      <trkpt lat="47.28929" lon="4.98126">
        <ele>424</ele>
        <time>2013-01-26T09:11:43Z</time>
      </trkpt>
      <trkpt lat="47.28926" lon="4.98118">
        <ele>424</ele>
        <time>2013-01-26T09:11:44Z</time>
      </trkpt>
      <trkpt lat="47.28929" lon="4.98111">
        <ele>424</ele>
        <time>2013-01-26T09:11:47Z</time>
      </trkpt>
      <trkpt lat="47.28931" lon="4.98118">
        <ele>431</ele>
        <time>2013-01-26T09:11:49Z</time>
      </trkpt>
      <trkpt lat="47.28934" lon="4.98123">
        <ele>433</ele>
        <time>2013-01-26T09:11:50Z</time>
      </trkpt>
      <trkpt lat="47.2894" lon="4.98124">
        <ele>435</ele>
        <time>2013-01-26T09:11:53Z</time>
      </trkpt>
      <trkpt lat="47.28946" lon="4.98125">
        <ele>437</ele>
        <time>2013-01-26T09:11:56Z</time>
      </trkpt>
      <trkpt lat="47.28951" lon="4.98124">
        <ele>439</ele>
        <time>2013-01-26T09:11:59Z</time>
      </trkpt>
      <trkpt lat="47.28956" lon="4.98124">
        <ele>440</ele>
        <time>2013-01-26T09:12:02Z</time>
      </trkpt>
      <trkpt lat="47.28962" lon="4.98127">
        <ele>441</ele>
        <time>2013-01-26T09:12:05Z</time>
      </trkpt>
      <trkpt lat="47.28967" lon="4.98128">
        <ele>441</ele>
        <time>2013-01-26T09:12:07Z</time>
      </trkpt>
      <trkpt lat="47.28973" lon="4.98125">
        <ele>442</ele>
        <time>2013-01-26T09:12:10Z</time>
      </trkpt>
      <trkpt lat="47.28978" lon="4.98124">
        <ele>441</ele>
        <time>2013-01-26T09:12:13Z</time>
      </trkpt>
      <trkpt lat="47.28983" lon="4.98122">
        <ele>441</ele>
        <time>2013-01-26T09:12:16Z</time>
      </trkpt>
      <trkpt lat="47.28989" lon="4.98121">
        <ele>442</ele>
        <time>2013-01-26T09:12:19Z</time>
      </trkpt>
      <trkpt lat="47.28996" lon="4.98126">
        <ele>443</ele>
        <time>2013-01-26T09:12:22Z</time>
      </trkpt>
      <trkpt lat="47.29003" lon="4.98128">
        <ele>443</ele>
        <time>2013-01-26T09:12:25Z</time>
      </trkpt>
      <trkpt lat="47.29008" lon="4.9813">
        <ele>444</ele>
        <time>2013-01-26T09:12:27Z</time>
      </trkpt>
      <trkpt lat="47.29012" lon="4.98132">
        <ele>444</ele>
        <time>2013-01-26T09:12:29Z</time>
      </trkpt>
      <trkpt lat="47.29017" lon="4.98136">
        <ele>444</ele>
        <time>2013-01-26T09:12:31Z</time>
      </trkpt>
      <trkpt lat="47.2902" lon="4.98145">
        <ele>444</ele>
        <time>2013-01-26T09:12:33Z</time>
      </trkpt>
      <trkpt lat="47.29024" lon="4.98151">
        <ele>444</ele>
        <time>2013-01-26T09:12:36Z</time>
      </trkpt>
      <trkpt lat="47.29028" lon="4.98149">
        <ele>445</ele>
        <time>2013-01-26T09:12:39Z</time>
      </trkpt>
      <trkpt lat="47.29033" lon="4.98155">
        <ele>446</ele>
        <time>2013-01-26T09:12:42Z</time>
      </trkpt>
      <trkpt lat="47.29039" lon="4.98158">
        <ele>445</ele>
        <time>2013-01-26T09:12:44Z</time>
      </trkpt>
      <trkpt lat="47.29044" lon="4.98162">
        <ele>445</ele>
        <time>2013-01-26T09:12:47Z</time>
      </trkpt>
      <trkpt lat="47.29049" lon="4.98164">
        <ele>445</ele>
        <time>2013-01-26T09:12:49Z</time>
      </trkpt>
      <trkpt lat="47.29055" lon="4.98167">
        <ele>445</ele>
        <time>2013-01-26T09:12:53Z</time>
      </trkpt>
      <trkpt lat="47.2906" lon="4.98172">
        <ele>444</ele>
        <time>2013-01-26T09:12:56Z</time>
      </trkpt>
      <trkpt lat="47.29064" lon="4.98174">
        <ele>443</ele>
        <time>2013-01-26T09:12:58Z</time>
      </trkpt>
      <trkpt lat="47.29068" lon="4.98177">
        <ele>444</ele>
        <time>2013-01-26T09:13:00Z</time>
      </trkpt>
      <trkpt lat="47.29074" lon="4.98179">
        <ele>443</ele>
        <time>2013-01-26T09:13:03Z</time>
      </trkpt>
      <trkpt lat="47.29079" lon="4.9818">
        <ele>444</ele>
        <time>2013-01-26T09:13:05Z</time>
      </trkpt>
      <trkpt lat="47.29086" lon="4.98182">
        <ele>444</ele>
        <time>2013-01-26T09:13:09Z</time>
      </trkpt>
      <trkpt lat="47.29091" lon="4.98183">
        <ele>444</ele>
        <time>2013-01-26T09:13:11Z</time>
      </trkpt>
      <trkpt lat="47.29099" lon="4.98184">
        <ele>444</ele>
        <time>2013-01-26T09:13:14Z</time>
      </trkpt>
      <trkpt lat="47.29103" lon="4.98189">
        <ele>444</ele>
        <time>2013-01-26T09:13:17Z</time>
      </trkpt>
      <trkpt lat="47.29109" lon="4.98191">
        <ele>444</ele>
        <time>2013-01-26T09:13:20Z</time>
      </trkpt>
      <trkpt lat="47.29113" lon="4.98194">
        <ele>445</ele>
        <time>2013-01-26T09:13:22Z</time>
      </trkpt>
      <trkpt lat="47.29118" lon="4.98197">
        <ele>445</ele>
        <time>2013-01-26T09:13:24Z</time>
      </trkpt>
      <trkpt lat="47.29123" lon="4.98199">
        <ele>446</ele>
        <time>2013-01-26T09:13:26Z</time>
      </trkpt>
      <trkpt lat="47.2913" lon="4.98201">
        <ele>445</ele>
        <time>2013-01-26T09:13:29Z</time>
      </trkpt>
      <trkpt lat="47.29136" lon="4.982">
        <ele>445</ele>
        <time>2013-01-26T09:13:32Z</time>
      </trkpt>
      <trkpt lat="47.29136" lon="4.982">
        <ele>445</ele>
        <time>2013-01-26T09:13:32Z</time>
      </trkpt>
      <trkpt lat="47.29136" lon="4.982">
        <ele>446</ele>
        <time>2013-01-26T09:13:33Z</time>
      </trkpt>
      <trkpt lat="47.2914" lon="4.98198">
        <ele>446</ele>
        <time>2013-01-26T09:13:36Z</time>
      </trkpt>
      <trkpt lat="47.29146" lon="4.982">
        <ele>446</ele>
        <time>2013-01-26T09:13:39Z</time>
      </trkpt>
      <trkpt lat="47.29152" lon="4.98205">
        <ele>446</ele>
        <time>2013-01-26T09:13:42Z</time>
      </trkpt>
      <trkpt lat="47.29157" lon="4.98205">
        <ele>446</ele>
        <time>2013-01-26T09:13:44Z</time>
      </trkpt>
      <trkpt lat="47.29162" lon="4.98212">
        <ele>447</ele>
        <time>2013-01-26T09:13:46Z</time>
      </trkpt>
      <trkpt lat="47.29167" lon="4.98215">
        <ele>448</ele>
        <time>2013-01-26T09:13:49Z</time>
      </trkpt>
      <trkpt lat="47.29172" lon="4.98218">
        <ele>447</ele>
        <time>2013-01-26T09:13:51Z</time>
      </trkpt>
      <trkpt lat="47.29179" lon="4.98219">
        <ele>448</ele>
        <time>2013-01-26T09:13:56Z</time>
      </trkpt>
      <trkpt lat="47.29184" lon="4.98218">
        <ele>449</ele>
        <time>2013-01-26T09:13:59Z</time>
      </trkpt>
      <trkpt lat="47.29189" lon="4.98221">
        <ele>449</ele>
        <time>2013-01-26T09:14:01Z</time>
      </trkpt>
      <trkpt lat="47.29193" lon="4.98225">
        <ele>449</ele>
        <time>2013-01-26T09:14:03Z</time>
      </trkpt>
      <trkpt lat="47.29198" lon="4.98229">
        <ele>449</ele>
        <time>2013-01-26T09:14:06Z</time>
      </trkpt>
      <trkpt lat="47.29203" lon="4.98235">
        <ele>450</ele>
        <time>2013-01-26T09:14:09Z</time>
      </trkpt>
      <trkpt lat="47.29208" lon="4.98235">
        <ele>451</ele>
        <time>2013-01-26T09:14:11Z</time>
      </trkpt>
      <trkpt lat="47.29215" lon="4.98236">
        <ele>452</ele>
        <time>2013-01-26T09:14:15Z</time>
      </trkpt>
      <trkpt lat="47.29221" lon="4.98239">
        <ele>452</ele>
        <time>2013-01-26T09:14:18Z</time>
      </trkpt>
      <trkpt lat="47.29224" lon="4.98244">
        <ele>453</ele>
        <time>2013-01-26T09:14:22Z</time>
      </trkpt>
      <trkpt lat="47.29228" lon="4.98249">
        <ele>452</ele>
        <time>2013-01-26T09:14:24Z</time>
      </trkpt>
      <trkpt lat="47.29232" lon="4.98254">
        <ele>451</ele>
        <time>2013-01-26T09:14:26Z</time>
      </trkpt>
      <trkpt lat="47.29237" lon="4.98258">
        <ele>452</ele>
        <time>2013-01-26T09:14:28Z</time>
      </trkpt>
      <trkpt lat="47.29242" lon="4.98259">
        <ele>452</ele>
        <time>2013-01-26T09:14:31Z</time>
      </trkpt>
      <trkpt lat="47.29247" lon="4.9826">
        <ele>452</ele>
        <time>2013-01-26T09:14:33Z</time>
      </trkpt>
      <trkpt lat="47.29253" lon="4.98264">
        <ele>452</ele>
        <time>2013-01-26T09:14:37Z</time>
      </trkpt>
      <trkpt lat="47.29256" lon="4.9827">
        <ele>452</ele>
        <time>2013-01-26T09:14:39Z</time>
      </trkpt>
      <trkpt lat="47.29256" lon="4.98279">
        <ele>448</ele>
        <time>2013-01-26T09:14:40Z</time>
      </trkpt>
      <trkpt lat="47.29262" lon="4.98282">
        <ele>448</ele>
        <time>2013-01-26T09:14:44Z</time>
      </trkpt>
      <trkpt lat="47.29266" lon="4.98285">
        <ele>449</ele>
        <time>2013-01-26T09:14:46Z</time>
      </trkpt>
      <trkpt lat="47.29271" lon="4.98287">
        <ele>449</ele>
        <time>2013-01-26T09:14:48Z</time>
      </trkpt>
      <trkpt lat="47.29277" lon="4.98288">
        <ele>449</ele>
        <time>2013-01-26T09:14:51Z</time>
      </trkpt>
      <trkpt lat="47.29283" lon="4.98291">
        <ele>449</ele>
        <time>2013-01-26T09:14:54Z</time>
      </trkpt>
      <trkpt lat="47.29286" lon="4.98296">
        <ele>450</ele>
        <time>2013-01-26T09:14:56Z</time>
      </trkpt>
      <trkpt lat="47.29291" lon="4.98296">
        <ele>450</ele>
        <time>2013-01-26T09:14:58Z</time>
      </trkpt>
      <trkpt lat="47.29297" lon="4.98295">
        <ele>450</ele>
        <time>2013-01-26T09:15:01Z</time>
      </trkpt>
      <trkpt lat="47.29302" lon="4.98298">
        <ele>450</ele>
        <time>2013-01-26T09:15:04Z</time>
      </trkpt>
      <trkpt lat="47.29306" lon="4.98301">
        <ele>450</ele>
        <time>2013-01-26T09:15:06Z</time>
      </trkpt>
      <trkpt lat="47.2931" lon="4.98303">
        <ele>450</ele>
        <time>2013-01-26T09:15:08Z</time>
      </trkpt>
      <trkpt lat="47.29316" lon="4.98306">
        <ele>451</ele>
        <time>2013-01-26T09:15:11Z</time>
      </trkpt>
      <trkpt lat="47.29321" lon="4.98307">
        <ele>452</ele>
        <time>2013-01-26T09:15:14Z</time>
      </trkpt>
      <trkpt lat="47.29327" lon="4.98309">
        <ele>452</ele>
        <time>2013-01-26T09:15:17Z</time>
      </trkpt>
      <trkpt lat="47.29332" lon="4.98309">
        <ele>451</ele>
        <time>2013-01-26T09:15:20Z</time>
      </trkpt>
      <trkpt lat="47.29338" lon="4.9831">
        <ele>452</ele>
        <time>2013-01-26T09:15:23Z</time>
      </trkpt>
      <trkpt lat="47.29345" lon="4.98309">
        <ele>452</ele>
        <time>2013-01-26T09:15:26Z</time>
      </trkpt>
      <trkpt lat="47.29351" lon="4.9831">
        <ele>452</ele>
        <time>2013-01-26T09:15:29Z</time>
      </trkpt>
      <trkpt lat="47.29356" lon="4.98312">
        <ele>452</ele>
        <time>2013-01-26T09:15:31Z</time>
      </trkpt>
      <trkpt lat="47.2936" lon="4.98314">
        <ele>452</ele>
        <time>2013-01-26T09:15:34Z</time>
      </trkpt>
      <trkpt lat="47.29365" lon="4.98314">
        <ele>452</ele>
        <time>2013-01-26T09:15:36Z</time>
      </trkpt>
      <trkpt lat="47.2937" lon="4.98318">
        <ele>452</ele>
        <time>2013-01-26T09:15:38Z</time>
      </trkpt>
      <trkpt lat="47.29376" lon="4.98322">
        <ele>452</ele>
        <time>2013-01-26T09:15:40Z</time>
      </trkpt>
      <trkpt lat="47.2938" lon="4.98323">
        <ele>453</ele>
        <time>2013-01-26T09:15:44Z</time>
      </trkpt>
      <trkpt lat="47.29384" lon="4.98327">
        <ele>453</ele>
        <time>2013-01-26T09:15:46Z</time>
      </trkpt>
      <trkpt lat="47.29389" lon="4.98332">
        <ele>454</ele>
        <time>2013-01-26T09:15:49Z</time>
      </trkpt>
      <trkpt lat="47.29394" lon="4.98334">
        <ele>455</ele>
        <time>2013-01-26T09:15:52Z</time>
      </trkpt>
      <trkpt lat="47.29398" lon="4.98343">
        <ele>456</ele>
        <time>2013-01-26T09:15:55Z</time>
      </trkpt>
      <trkpt lat="47.29402" lon="4.98346">
        <ele>456</ele>
        <time>2013-01-26T09:15:58Z</time>
      </trkpt>
      <trkpt lat="47.29407" lon="4.98351">
        <ele>456</ele>
        <time>2013-01-26T09:16:01Z</time>
      </trkpt>
      <trkpt lat="47.29409" lon="4.98359">
        <ele>457</ele>
        <time>2013-01-26T09:16:04Z</time>
      </trkpt>
      <trkpt lat="47.29415" lon="4.98362">
        <ele>457</ele>
        <time>2013-01-26T09:16:06Z</time>
      </trkpt>
      <trkpt lat="47.29418" lon="4.98367">
        <ele>458</ele>
        <time>2013-01-26T09:16:08Z</time>
      </trkpt>
      <trkpt lat="47.29422" lon="4.98371">
        <ele>459</ele>
        <time>2013-01-26T09:16:10Z</time>
      </trkpt>
      <trkpt lat="47.29427" lon="4.98373">
        <ele>461</ele>
        <time>2013-01-26T09:16:14Z</time>
      </trkpt>
      <trkpt lat="47.29432" lon="4.98373">
        <ele>461</ele>
        <time>2013-01-26T09:16:17Z</time>
      </trkpt>
      <trkpt lat="47.29434" lon="4.98389">
        <ele>450</ele>
        <time>2013-01-26T09:16:18Z</time>
      </trkpt>
      <trkpt lat="47.29439" lon="4.98392">
        <ele>451</ele>
        <time>2013-01-26T09:16:22Z</time>
      </trkpt>
      <trkpt lat="47.29443" lon="4.98399">
        <ele>451</ele>
        <time>2013-01-26T09:16:24Z</time>
      </trkpt>
      <trkpt lat="47.29446" lon="4.98405">
        <ele>452</ele>
        <time>2013-01-26T09:16:26Z</time>
      </trkpt>
      <trkpt lat="47.29453" lon="4.98404">
        <ele>452</ele>
        <time>2013-01-26T09:16:29Z</time>
      </trkpt>
      <trkpt lat="47.29457" lon="4.98409">
        <ele>452</ele>
        <time>2013-01-26T09:16:32Z</time>
      </trkpt>
      <trkpt lat="47.29461" lon="4.98416">
        <ele>453</ele>
        <time>2013-01-26T09:16:35Z</time>
      </trkpt>
      <trkpt lat="47.29464" lon="4.9842">
        <ele>453</ele>
        <time>2013-01-26T09:16:37Z</time>
      </trkpt>
      <trkpt lat="47.2947" lon="4.98424">
        <ele>454</ele>
        <time>2013-01-26T09:16:41Z</time>
      </trkpt>
      <trkpt lat="47.29475" lon="4.98424">
        <ele>454</ele>
        <time>2013-01-26T09:16:44Z</time>
      </trkpt>
      <trkpt lat="47.29479" lon="4.98429">
        <ele>455</ele>
        <time>2013-01-26T09:16:46Z</time>
      </trkpt>
      <trkpt lat="47.29484" lon="4.98432">
        <ele>456</ele>
        <time>2013-01-26T09:16:49Z</time>
      </trkpt>
      <trkpt lat="47.29489" lon="4.98435">
        <ele>454</ele>
        <time>2013-01-26T09:16:52Z</time>
      </trkpt>
      <trkpt lat="47.29495" lon="4.98436">
        <ele>454</ele>
        <time>2013-01-26T09:16:55Z</time>
      </trkpt>
      <trkpt lat="47.29501" lon="4.98436">
        <ele>454</ele>
        <time>2013-01-26T09:16:58Z</time>
      </trkpt>
      <trkpt lat="47.29505" lon="4.9844">
        <ele>454</ele>
        <time>2013-01-26T09:17:01Z</time>
      </trkpt>
      <trkpt lat="47.29508" lon="4.98447">
        <ele>455</ele>
        <time>2013-01-26T09:17:03Z</time>
      </trkpt>
      <trkpt lat="47.29512" lon="4.98454">
        <ele>455</ele>
        <time>2013-01-26T09:17:07Z</time>
      </trkpt>
      <trkpt lat="47.29513" lon="4.98467">
        <ele>450</ele>
        <time>2013-01-26T09:17:09Z</time>
      </trkpt>
      <trkpt lat="47.29515" lon="4.98473">
        <ele>451</ele>
        <time>2013-01-26T09:17:12Z</time>
      </trkpt>
      <trkpt lat="47.2952" lon="4.98478">
        <ele>452</ele>
        <time>2013-01-26T09:17:15Z</time>
      </trkpt>
      <trkpt lat="47.29524" lon="4.98484">
        <ele>453</ele>
        <time>2013-01-26T09:17:18Z</time>
      </trkpt>
      <trkpt lat="47.2953" lon="4.98488">
        <ele>454</ele>
        <time>2013-01-26T09:17:21Z</time>
      </trkpt>
      <trkpt lat="47.29534" lon="4.98494">
        <ele>455</ele>
        <time>2013-01-26T09:17:25Z</time>
      </trkpt>
      <trkpt lat="47.29539" lon="4.98499">
        <ele>455</ele>
        <time>2013-01-26T09:17:28Z</time>
      </trkpt>
      <trkpt lat="47.29543" lon="4.98504">
        <ele>456</ele>
        <time>2013-01-26T09:17:31Z</time>
      </trkpt>
      <trkpt lat="47.29546" lon="4.9851">
        <ele>457</ele>
        <time>2013-01-26T09:17:34Z</time>
      </trkpt>
      <trkpt lat="47.2955" lon="4.98512">
        <ele>457</ele>
        <time>2013-01-26T09:17:37Z</time>
      </trkpt>
      <trkpt lat="47.29555" lon="4.98518">
        <ele>458</ele>
        <time>2013-01-26T09:17:40Z</time>
      </trkpt>
      <trkpt lat="47.29557" lon="4.98524">
        <ele>459</ele>
        <time>2013-01-26T09:17:43Z</time>
      </trkpt>
      <trkpt lat="47.2956" lon="4.9853">
        <ele>459</ele>
        <time>2013-01-26T09:17:45Z</time>
      </trkpt>
      <trkpt lat="47.29564" lon="4.98534">
        <ele>460</ele>
        <time>2013-01-26T09:17:47Z</time>
      </trkpt>
      <trkpt lat="47.29578" lon="4.98574">
        <ele>461</ele>
        <time>2013-01-26T09:18:01Z</time>
      </trkpt>
      <trkpt lat="47.29582" lon="4.98567">
        <ele>462</ele>
        <time>2013-01-26T09:18:03Z</time>
      </trkpt>
      <trkpt lat="47.29586" lon="4.98568">
        <ele>464</ele>
        <time>2013-01-26T09:18:05Z</time>
      </trkpt>
      <trkpt lat="47.29591" lon="4.98576">
        <ele>464</ele>
        <time>2013-01-26T09:18:08Z</time>
      </trkpt>
      <trkpt lat="47.29594" lon="4.98583">
        <ele>464</ele>
        <time>2013-01-26T09:18:11Z</time>
      </trkpt>
      <trkpt lat="47.29598" lon="4.98588">
        <ele>464</ele>
        <time>2013-01-26T09:18:13Z</time>
      </trkpt>
      <trkpt lat="47.29601" lon="4.98592">
        <ele>466</ele>
        <time>2013-01-26T09:18:16Z</time>
      </trkpt>
      <trkpt lat="47.29607" lon="4.98596">
        <ele>466</ele>
        <time>2013-01-26T09:18:19Z</time>
      </trkpt>
      <trkpt lat="47.29607" lon="4.98604">
        <ele>467</ele>
        <time>2013-01-26T09:18:22Z</time>
      </trkpt>
      <trkpt lat="47.29608" lon="4.9861">
        <ele>467</ele>
        <time>2013-01-26T09:18:24Z</time>
      </trkpt>
      <trkpt lat="47.29612" lon="4.98616">
        <ele>468</ele>
        <time>2013-01-26T09:18:26Z</time>
      </trkpt>
      <trkpt lat="47.29617" lon="4.98622">
        <ele>470</ele>
        <time>2013-01-26T09:18:31Z</time>
      </trkpt>
      <trkpt lat="47.29619" lon="4.9863">
        <ele>471</ele>
        <time>2013-01-26T09:18:34Z</time>
      </trkpt>
      <trkpt lat="47.29623" lon="4.98635">
        <ele>471</ele>
        <time>2013-01-26T09:18:36Z</time>
      </trkpt>
      <trkpt lat="47.29626" lon="4.9864">
        <ele>472</ele>
        <time>2013-01-26T09:18:39Z</time>
      </trkpt>
      <trkpt lat="47.29628" lon="4.98647">
        <ele>474</ele>
        <time>2013-01-26T09:18:42Z</time>
      </trkpt>
      <trkpt lat="47.2963" lon="4.98653">
        <ele>474</ele>
        <time>2013-01-26T09:18:45Z</time>
      </trkpt>
      <trkpt lat="47.29634" lon="4.98656">
        <ele>475</ele>
        <time>2013-01-26T09:18:47Z</time>
      </trkpt>
      <trkpt lat="47.29635" lon="4.98666">
        <ele>476</ele>
        <time>2013-01-26T09:18:51Z</time>
      </trkpt>
      <trkpt lat="47.29636" lon="4.98675">
        <ele>477</ele>
        <time>2013-01-26T09:18:54Z</time>
      </trkpt>
      <trkpt lat="47.29636" lon="4.98684">
        <ele>476</ele>
        <time>2013-01-26T09:18:56Z</time>
      </trkpt>
      <trkpt lat="47.29636" lon="4.98692">
        <ele>472</ele>
        <time>2013-01-26T09:18:57Z</time>
      </trkpt>
      <trkpt lat="47.29636" lon="4.987">
        <ele>468</ele>
        <time>2013-01-26T09:18:58Z</time>
      </trkpt>
      <trkpt lat="47.29636" lon="4.98721">
        <ele>457</ele>
        <time>2013-01-26T09:19:00Z</time>
      </trkpt>
      <trkpt lat="47.29636" lon="4.98729">
        <ele>455</ele>
        <time>2013-01-26T09:19:02Z</time>
      </trkpt>
      <trkpt lat="47.29636" lon="4.98739">
        <ele>455</ele>
        <time>2013-01-26T09:19:06Z</time>
      </trkpt>
      <trkpt lat="47.29637" lon="4.98746">
        <ele>455</ele>
        <time>2013-01-26T09:19:09Z</time>
      </trkpt>
      <trkpt lat="47.29639" lon="4.98754">
        <ele>455</ele>
        <time>2013-01-26T09:19:11Z</time>
      </trkpt>
      <trkpt lat="47.29639" lon="4.98763">
        <ele>455</ele>
        <time>2013-01-26T09:19:14Z</time>
      </trkpt>
      <trkpt lat="47.29642" lon="4.9877">
        <ele>455</ele>
        <time>2013-01-26T09:19:17Z</time>
      </trkpt>
      <trkpt lat="47.29646" lon="4.98774">
        <ele>455</ele>
        <time>2013-01-26T09:19:21Z</time>
      </trkpt>
      <trkpt lat="47.29647" lon="4.98781">
        <ele>455</ele>
        <time>2013-01-26T09:19:23Z</time>
      </trkpt>
      <trkpt lat="47.2965" lon="4.98788">
        <ele>455</ele>
        <time>2013-01-26T09:19:25Z</time>
      </trkpt>
      <trkpt lat="47.29654" lon="4.98793">
        <ele>455</ele>
        <time>2013-01-26T09:19:29Z</time>
      </trkpt>
      <trkpt lat="47.29656" lon="4.988">
        <ele>455</ele>
        <time>2013-01-26T09:19:31Z</time>
      </trkpt>
      <trkpt lat="47.29659" lon="4.98805">
        <ele>455</ele>
        <time>2013-01-26T09:19:34Z</time>
      </trkpt>
      <trkpt lat="47.29662" lon="4.98814">
        <ele>455</ele>
        <time>2013-01-26T09:19:36Z</time>
      </trkpt>
      <trkpt lat="47.29663" lon="4.98821">
        <ele>455</ele>
        <time>2013-01-26T09:19:38Z</time>
      </trkpt>
      <trkpt lat="47.29666" lon="4.98827">
        <ele>456</ele>
        <time>2013-01-26T09:19:41Z</time>
      </trkpt>
      <trkpt lat="47.29667" lon="4.98834">
        <ele>456</ele>
        <time>2013-01-26T09:19:44Z</time>
      </trkpt>
      <trkpt lat="47.29669" lon="4.98847">
        <ele>452</ele>
        <time>2013-01-26T09:19:46Z</time>
      </trkpt>
      <trkpt lat="47.29673" lon="4.98853">
        <ele>451</ele>
        <time>2013-01-26T09:19:49Z</time>
      </trkpt>
      <trkpt lat="47.29679" lon="4.98854">
        <ele>450</ele>
        <time>2013-01-26T09:19:52Z</time>
      </trkpt>
      <trkpt lat="47.29684" lon="4.98855">
        <ele>450</ele>
        <time>2013-01-26T09:19:54Z</time>
      </trkpt>
      <trkpt lat="47.2969" lon="4.98856">
        <ele>450</ele>
        <time>2013-01-26T09:19:57Z</time>
      </trkpt>
      <trkpt lat="47.29694" lon="4.98859">
        <ele>449</ele>
        <time>2013-01-26T09:19:59Z</time>
      </trkpt>
      <trkpt lat="47.297" lon="4.98861">
        <ele>450</ele>
        <time>2013-01-26T09:20:03Z</time>
      </trkpt>
      <trkpt lat="47.29705" lon="4.98866">
        <ele>451</ele>
        <time>2013-01-26T09:20:05Z</time>
      </trkpt>
      <trkpt lat="47.2971" lon="4.98869">
        <ele>451</ele>
        <time>2013-01-26T09:20:07Z</time>
      </trkpt>
      <trkpt lat="47.29715" lon="4.98874">
        <ele>451</ele>
        <time>2013-01-26T09:20:10Z</time>
      </trkpt>
      <trkpt lat="47.2972" lon="4.98874">
        <ele>452</ele>
        <time>2013-01-26T09:20:12Z</time>
      </trkpt>
      <trkpt lat="47.29726" lon="4.98876">
        <ele>453</ele>
        <time>2013-01-26T09:20:16Z</time>
      </trkpt>
      <trkpt lat="47.29732" lon="4.98878">
        <ele>454</ele>
        <time>2013-01-26T09:20:19Z</time>
      </trkpt>
      <trkpt lat="47.29736" lon="4.98882">
        <ele>454</ele>
        <time>2013-01-26T09:20:21Z</time>
      </trkpt>
      <trkpt lat="47.29741" lon="4.98882">
        <ele>455</ele>
        <time>2013-01-26T09:20:24Z</time>
      </trkpt>
      <trkpt lat="47.29746" lon="4.9888">
        <ele>455</ele>
        <time>2013-01-26T09:20:26Z</time>
      </trkpt>
      <trkpt lat="47.29752" lon="4.98879">
        <ele>456</ele>
        <time>2013-01-26T09:20:29Z</time>
      </trkpt>
      <trkpt lat="47.29757" lon="4.98877">
        <ele>457</ele>
        <time>2013-01-26T09:20:32Z</time>
      </trkpt>
      <trkpt lat="47.29761" lon="4.9888">
        <ele>457</ele>
        <time>2013-01-26T09:20:34Z</time>
      </trkpt>
      <trkpt lat="47.29768" lon="4.98883">
        <ele>457</ele>
        <time>2013-01-26T09:20:37Z</time>
      </trkpt>
      <trkpt lat="47.29772" lon="4.98884">
        <ele>456</ele>
        <time>2013-01-26T09:20:40Z</time>
      </trkpt>
      <trkpt lat="47.29778" lon="4.98884">
        <ele>457</ele>
        <time>2013-01-26T09:20:43Z</time>
      </trkpt>
      <trkpt lat="47.29784" lon="4.98887">
        <ele>457</ele>
        <time>2013-01-26T09:20:46Z</time>
      </trkpt>
      <trkpt lat="47.29789" lon="4.98886">
        <ele>457</ele>
        <time>2013-01-26T09:20:48Z</time>
      </trkpt>
      <trkpt lat="47.29794" lon="4.98891">
        <ele>458</ele>
        <time>2013-01-26T09:20:51Z</time>
      </trkpt>
      <trkpt lat="47.298" lon="4.98892">
        <ele>458</ele>
        <time>2013-01-26T09:20:53Z</time>
      </trkpt>
      <trkpt lat="47.29807" lon="4.98895">
        <ele>459</ele>
        <time>2013-01-26T09:20:57Z</time>
      </trkpt>
      <trkpt lat="47.29813" lon="4.98896">
        <ele>460</ele>
        <time>2013-01-26T09:21:00Z</time>
      </trkpt>
      <trkpt lat="47.29818" lon="4.98898">
        <ele>459</ele>
        <time>2013-01-26T09:21:02Z</time>
      </trkpt>
      <trkpt lat="47.29823" lon="4.98897">
        <ele>461</ele>
        <time>2013-01-26T09:21:05Z</time>
      </trkpt>
      <trkpt lat="47.29828" lon="4.98898">
        <ele>462</ele>
        <time>2013-01-26T09:21:08Z</time>
      </trkpt>
      <trkpt lat="47.29833" lon="4.989">
        <ele>463</ele>
        <time>2013-01-26T09:21:10Z</time>
      </trkpt>
      <trkpt lat="47.29839" lon="4.98904">
        <ele>463</ele>
        <time>2013-01-26T09:21:13Z</time>
      </trkpt>
      <trkpt lat="47.29844" lon="4.98904">
        <ele>464</ele>
        <time>2013-01-26T09:21:15Z</time>
      </trkpt>
      <trkpt lat="47.29849" lon="4.98905">
        <ele>464</ele>
        <time>2013-01-26T09:21:17Z</time>
      </trkpt>
      <trkpt lat="47.29852" lon="4.98912">
        <ele>459</ele>
        <time>2013-01-26T09:21:20Z</time>
      </trkpt>
      <trkpt lat="47.29858" lon="4.98912">
        <ele>459</ele>
        <time>2013-01-26T09:21:23Z</time>
      </trkpt>
      <trkpt lat="47.29863" lon="4.98913">
        <ele>460</ele>
        <time>2013-01-26T09:21:26Z</time>
      </trkpt>
      <trkpt lat="47.29868" lon="4.98919">
        <ele>457</ele>
        <time>2013-01-26T09:21:28Z</time>
      </trkpt>
      <trkpt lat="47.29874" lon="4.98921">
        <ele>454</ele>
        <time>2013-01-26T09:21:31Z</time>
      </trkpt>
      <trkpt lat="47.29879" lon="4.98922">
        <ele>454</ele>
        <time>2013-01-26T09:21:34Z</time>
      </trkpt>
      <trkpt lat="47.29885" lon="4.98921">
        <ele>454</ele>
        <time>2013-01-26T09:21:37Z</time>
      </trkpt>
      <trkpt lat="47.2989" lon="4.9893">
        <ele>449</ele>
        <time>2013-01-26T09:21:40Z</time>
      </trkpt>
      <trkpt lat="47.29896" lon="4.9893">
        <ele>451</ele>
        <time>2013-01-26T09:21:43Z</time>
      </trkpt>
      <trkpt lat="47.29901" lon="4.9893">
        <ele>451</ele>
        <time>2013-01-26T09:21:46Z</time>
      </trkpt>
      <trkpt lat="47.29906" lon="4.9893">
        <ele>452</ele>
        <time>2013-01-26T09:21:48Z</time>
      </trkpt>
      <trkpt lat="47.29908" lon="4.98936">
        <ele>449</ele>
        <time>2013-01-26T09:21:50Z</time>
      </trkpt>
      <trkpt lat="47.29916" lon="4.98938">
        <ele>449</ele>
        <time>2013-01-26T09:21:53Z</time>
      </trkpt>
      <trkpt lat="47.29922" lon="4.98942">
        <ele>449</ele>
        <time>2013-01-26T09:21:56Z</time>
      </trkpt>
      <trkpt lat="47.29926" lon="4.98944">
        <ele>450</ele>
        <time>2013-01-26T09:21:58Z</time>
      </trkpt>
      <trkpt lat="47.29931" lon="4.98948">
        <ele>450</ele>
        <time>2013-01-26T09:22:01Z</time>
      </trkpt>
      <trkpt lat="47.29937" lon="4.98948">
        <ele>451</ele>
        <time>2013-01-26T09:22:04Z</time>
      </trkpt>
      <trkpt lat="47.29939" lon="4.98954">
        <ele>451</ele>
        <time>2013-01-26T09:22:06Z</time>
      </trkpt>
      <trkpt lat="47.29946" lon="4.98952">
        <ele>452</ele>
        <time>2013-01-26T09:22:10Z</time>
      </trkpt>
      <trkpt lat="47.29952" lon="4.98952">
        <ele>453</ele>
        <time>2013-01-26T09:22:13Z</time>
      </trkpt>
      <trkpt lat="47.29956" lon="4.98954">
        <ele>453</ele>
        <time>2013-01-26T09:22:15Z</time>
      </trkpt>
      <trkpt lat="47.29962" lon="4.98956">
        <ele>454</ele>
        <time>2013-01-26T09:22:18Z</time>
      </trkpt>
      <trkpt lat="47.29967" lon="4.98959">
        <ele>455</ele>
        <time>2013-01-26T09:22:21Z</time>
      </trkpt>
      <trkpt lat="47.29972" lon="4.98958">
        <ele>455</ele>
        <time>2013-01-26T09:22:23Z</time>
      </trkpt>
      <trkpt lat="47.29977" lon="4.9896">
        <ele>456</ele>
        <time>2013-01-26T09:22:25Z</time>
      </trkpt>
      <trkpt lat="47.2998" lon="4.98966">
        <ele>453</ele>
        <time>2013-01-26T09:22:26Z</time>
      </trkpt>
      <trkpt lat="47.29985" lon="4.98966">
        <ele>454</ele>
        <time>2013-01-26T09:22:30Z</time>
      </trkpt>
      <trkpt lat="47.2999" lon="4.9897">
        <ele>451</ele>
        <time>2013-01-26T09:22:33Z</time>
      </trkpt>
      <trkpt lat="47.29997" lon="4.98971">
        <ele>451</ele>
        <time>2013-01-26T09:22:36Z</time>
      </trkpt>
      <trkpt lat="47.30002" lon="4.98969">
        <ele>451</ele>
        <time>2013-01-26T09:22:39Z</time>
      </trkpt>
      <trkpt lat="47.30007" lon="4.98973">
        <ele>447</ele>
        <time>2013-01-26T09:22:42Z</time>
      </trkpt>
      <trkpt lat="47.30014" lon="4.98973">
        <ele>448</ele>
        <time>2013-01-26T09:22:45Z</time>
      </trkpt>
      <trkpt lat="47.3002" lon="4.98973">
        <ele>449</ele>
        <time>2013-01-26T09:22:48Z</time>
      </trkpt>
      <trkpt lat="47.30027" lon="4.98974">
        <ele>449</ele>
        <time>2013-01-26T09:22:51Z</time>
      </trkpt>
      <trkpt lat="47.30031" lon="4.98977">
        <ele>449</ele>
        <time>2013-01-26T09:22:53Z</time>
      </trkpt>
      <trkpt lat="47.30037" lon="4.98978">
        <ele>449</ele>
        <time>2013-01-26T09:22:56Z</time>
      </trkpt>
      <trkpt lat="47.30042" lon="4.98981">
        <ele>447</ele>
        <time>2013-01-26T09:22:59Z</time>
      </trkpt>
      <trkpt lat="47.30048" lon="4.98982">
        <ele>447</ele>
        <time>2013-01-26T09:23:02Z</time>
      </trkpt>
      <trkpt lat="47.30053" lon="4.98982">
        <ele>447</ele>
        <time>2013-01-26T09:23:04Z</time>
      </trkpt>
      <trkpt lat="47.30058" lon="4.98982">
        <ele>448</ele>
        <time>2013-01-26T09:23:07Z</time>
      </trkpt>
      <trkpt lat="47.30062" lon="4.98984">
        <ele>448</ele>
        <time>2013-01-26T09:23:09Z</time>
      </trkpt>
      <trkpt lat="47.30066" lon="4.9899">
        <ele>445</ele>
        <time>2013-01-26T09:23:11Z</time>
      </trkpt>
      <trkpt lat="47.3007" lon="4.98995">
        <ele>439</ele>
        <time>2013-01-26T09:23:14Z</time>
      </trkpt>
      <trkpt lat="47.30076" lon="4.98993">
        <ele>436</ele>
        <time>2013-01-26T09:23:17Z</time>
      </trkpt>
      <trkpt lat="47.30076" lon="4.98985">
        <ele>434</ele>
        <time>2013-01-26T09:23:21Z</time>
      </trkpt>
      <trkpt lat="47.30074" lon="4.98978">
        <ele>433</ele>
        <time>2013-01-26T09:23:27Z</time>
      </trkpt>
      <trkpt lat="47.30076" lon="4.9897">
        <ele>432</ele>
        <time>2013-01-26T09:23:31Z</time>
      </trkpt>
      <trkpt lat="47.30075" lon="4.9896">
        <ele>431</ele>
        <time>2013-01-26T09:23:35Z</time>
      </trkpt>
      <trkpt lat="47.30073" lon="4.98951">
        <ele>431</ele>
        <time>2013-01-26T09:23:37Z</time>
      </trkpt>
      <trkpt lat="47.30072" lon="4.98941">
        <ele>430</ele>
        <time>2013-01-26T09:23:39Z</time>
      </trkpt>
      <trkpt lat="47.30072" lon="4.98934">
        <ele>430</ele>
        <time>2013-01-26T09:23:41Z</time>
      </trkpt>
      <trkpt lat="47.30071" lon="4.98925">
        <ele>429</ele>
        <time>2013-01-26T09:23:44Z</time>
      </trkpt>
      <trkpt lat="47.3007" lon="4.98917">
        <ele>428</ele>
        <time>2013-01-26T09:23:46Z</time>
      </trkpt>
      <trkpt lat="47.30069" lon="4.98907">
        <ele>428</ele>
        <time>2013-01-26T09:23:49Z</time>
      </trkpt>
      <trkpt lat="47.30069" lon="4.98899">
        <ele>427</ele>
        <time>2013-01-26T09:23:51Z</time>
      </trkpt>
      <trkpt lat="47.30068" lon="4.9889">
        <ele>427</ele>
        <time>2013-01-26T09:23:54Z</time>
      </trkpt>
      <trkpt lat="47.30068" lon="4.98883">
        <ele>428</ele>
        <time>2013-01-26T09:23:56Z</time>
      </trkpt>
      <trkpt lat="47.30066" lon="4.98875">
        <ele>427</ele>
        <time>2013-01-26T09:23:59Z</time>
      </trkpt>
      <trkpt lat="47.30064" lon="4.98867">
        <ele>428</ele>
        <time>2013-01-26T09:24:02Z</time>
      </trkpt>
      <trkpt lat="47.30064" lon="4.9886">
        <ele>427</ele>
        <time>2013-01-26T09:24:04Z</time>
      </trkpt>
      <trkpt lat="47.30063" lon="4.98852">
        <ele>427</ele>
        <time>2013-01-26T09:24:07Z</time>
      </trkpt>
      <trkpt lat="47.30062" lon="4.98845">
        <ele>427</ele>
        <time>2013-01-26T09:24:10Z</time>
      </trkpt>
      <trkpt lat="47.30062" lon="4.98837">
        <ele>427</ele>
        <time>2013-01-26T09:24:13Z</time>
      </trkpt>
      <trkpt lat="47.30062" lon="4.98829">
        <ele>428</ele>
        <time>2013-01-26T09:24:16Z</time>
      </trkpt>
      <trkpt lat="47.30062" lon="4.9882">
        <ele>426</ele>
        <time>2013-01-26T09:24:18Z</time>
      </trkpt>
      <trkpt lat="47.3006" lon="4.98812">
        <ele>426</ele>
        <time>2013-01-26T09:24:21Z</time>
      </trkpt>
      <trkpt lat="47.30059" lon="4.98805">
        <ele>426</ele>
        <time>2013-01-26T09:24:25Z</time>
      </trkpt>
      <trkpt lat="47.30057" lon="4.98797">
        <ele>426</ele>
        <time>2013-01-26T09:24:27Z</time>
      </trkpt>
      <trkpt lat="47.30057" lon="4.98788">
        <ele>426</ele>
        <time>2013-01-26T09:24:30Z</time>
      </trkpt>
      <trkpt lat="47.30057" lon="4.9878">
        <ele>426</ele>
        <time>2013-01-26T09:24:33Z</time>
      </trkpt>
      <trkpt lat="47.30054" lon="4.9877">
        <ele>426</ele>
        <time>2013-01-26T09:24:36Z</time>
      </trkpt>
      <trkpt lat="47.30052" lon="4.98762">
        <ele>426</ele>
        <time>2013-01-26T09:24:39Z</time>
      </trkpt>
      <trkpt lat="47.3005" lon="4.98755">
        <ele>427</ele>
        <time>2013-01-26T09:24:42Z</time>
      </trkpt>
      <trkpt lat="47.30049" lon="4.98748">
        <ele>427</ele>
        <time>2013-01-26T09:24:45Z</time>
      </trkpt>
      <trkpt lat="47.30049" lon="4.98739">
        <ele>427</ele>
        <time>2013-01-26T09:24:47Z</time>
      </trkpt>
      <trkpt lat="47.30047" lon="4.98731">
        <ele>426</ele>
        <time>2013-01-26T09:24:53Z</time>
      </trkpt>
      <trkpt lat="47.30047" lon="4.98724">
        <ele>426</ele>
        <time>2013-01-26T09:24:54Z</time>
      </trkpt>
      <trkpt lat="47.30047" lon="4.98717">
        <ele>426</ele>
        <time>2013-01-26T09:24:56Z</time>
      </trkpt>
      <trkpt lat="47.3005" lon="4.98711">
        <ele>426</ele>
        <time>2013-01-26T09:25:00Z</time>
      </trkpt>
      <trkpt lat="47.30051" lon="4.98704">
        <ele>426</ele>
        <time>2013-01-26T09:25:03Z</time>
      </trkpt>
      <trkpt lat="47.30056" lon="4.98697">
        <ele>426</ele>
        <time>2013-01-26T09:25:06Z</time>
      </trkpt>
      <trkpt lat="47.30058" lon="4.98688">
        <ele>425</ele>
        <time>2013-01-26T09:25:09Z</time>
      </trkpt>
      <trkpt lat="47.3006" lon="4.9868">
        <ele>426</ele>
        <time>2013-01-26T09:25:12Z</time>
      </trkpt>
      <trkpt lat="47.30065" lon="4.98678">
        <ele>426</ele>
        <time>2013-01-26T09:25:14Z</time>
      </trkpt>
      <trkpt lat="47.3007" lon="4.98674">
        <ele>426</ele>
        <time>2013-01-26T09:25:17Z</time>
      </trkpt>
      <trkpt lat="47.30074" lon="4.9867">
        <ele>427</ele>
        <time>2013-01-26T09:25:20Z</time>
      </trkpt>
      <trkpt lat="47.30079" lon="4.98667">
        <ele>426</ele>
        <time>2013-01-26T09:25:22Z</time>
      </trkpt>
      <trkpt lat="47.30082" lon="4.98661">
        <ele>425</ele>
        <time>2013-01-26T09:25:25Z</time>
      </trkpt>
      <trkpt lat="47.30088" lon="4.98654">
        <ele>425</ele>
        <time>2013-01-26T09:25:28Z</time>
      </trkpt>
      <trkpt lat="47.30094" lon="4.98648">
        <ele>422</ele>
        <time>2013-01-26T09:25:31Z</time>
      </trkpt>
      <trkpt lat="47.30097" lon="4.98642">
        <ele>423</ele>
        <time>2013-01-26T09:25:34Z</time>
      </trkpt>
      <trkpt lat="47.30099" lon="4.98633">
        <ele>424</ele>
        <time>2013-01-26T09:25:37Z</time>
      </trkpt>
      <trkpt lat="47.30102" lon="4.98626">
        <ele>425</ele>
        <time>2013-01-26T09:25:40Z</time>
      </trkpt>
      <trkpt lat="47.30105" lon="4.9862">
        <ele>427</ele>
        <time>2013-01-26T09:25:44Z</time>
      </trkpt>
      <trkpt lat="47.30109" lon="4.98616">
        <ele>428</ele>
        <time>2013-01-26T09:25:47Z</time>
      </trkpt>
      <trkpt lat="47.30112" lon="4.98611">
        <ele>427</ele>
        <time>2013-01-26T09:25:49Z</time>
      </trkpt>
      <trkpt lat="47.3011" lon="4.98603">
        <ele>428</ele>
        <time>2013-01-26T09:25:51Z</time>
      </trkpt>
      <trkpt lat="47.30114" lon="4.98597">
        <ele>429</ele>
        <time>2013-01-26T09:25:54Z</time>
      </trkpt>
      <trkpt lat="47.30118" lon="4.9859">
        <ele>429</ele>
        <time>2013-01-26T09:25:57Z</time>
      </trkpt>
      <trkpt lat="47.30124" lon="4.98586">
        <ele>428</ele>
        <time>2013-01-26T09:26:00Z</time>
      </trkpt>
      <trkpt lat="47.30126" lon="4.9858">
        <ele>428</ele>
        <time>2013-01-26T09:26:03Z</time>
      </trkpt>
      <trkpt lat="47.30129" lon="4.98573">
        <ele>429</ele>
        <time>2013-01-26T09:26:06Z</time>
      </trkpt>
      <trkpt lat="47.3013" lon="4.98564">
        <ele>429</ele>
        <time>2013-01-26T09:26:09Z</time>
      </trkpt>
      <trkpt lat="47.30134" lon="4.98557">
        <ele>429</ele>
        <time>2013-01-26T09:26:12Z</time>
      </trkpt>
      <trkpt lat="47.30135" lon="4.98549">
        <ele>427</ele>
        <time>2013-01-26T09:26:15Z</time>
      </trkpt>
      <trkpt lat="47.30136" lon="4.98542">
        <ele>427</ele>
        <time>2013-01-26T09:26:17Z</time>
      </trkpt>
      <trkpt lat="47.3014" lon="4.98536">
        <ele>428</ele>
        <time>2013-01-26T09:26:20Z</time>
      </trkpt>
      <trkpt lat="47.30143" lon="4.98526">
        <ele>428</ele>
        <time>2013-01-26T09:26:23Z</time>
      </trkpt>
      <trkpt lat="47.30143" lon="4.98518">
        <ele>427</ele>
        <time>2013-01-26T09:26:25Z</time>
      </trkpt>
      <trkpt lat="47.30146" lon="4.98511">
        <ele>427</ele>
        <time>2013-01-26T09:26:28Z</time>
      </trkpt>
      <trkpt lat="47.30148" lon="4.98506">
        <ele>427</ele>
        <time>2013-01-26T09:26:30Z</time>
      </trkpt>
      <trkpt lat="47.3015" lon="4.98499">
        <ele>426</ele>
        <time>2013-01-26T09:26:32Z</time>
      </trkpt>
      <trkpt lat="47.30148" lon="4.98492">
        <ele>426</ele>
        <time>2013-01-26T09:26:34Z</time>
      </trkpt>
      <trkpt lat="47.30153" lon="4.98488">
        <ele>424</ele>
        <time>2013-01-26T09:26:36Z</time>
      </trkpt>
      <trkpt lat="47.30153" lon="4.98482">
        <ele>424</ele>
        <time>2013-01-26T09:26:38Z</time>
      </trkpt>
      <trkpt lat="47.30152" lon="4.98471">
        <ele>424</ele>
        <time>2013-01-26T09:26:41Z</time>
      </trkpt>
      <trkpt lat="47.30151" lon="4.98464">
        <ele>423</ele>
        <time>2013-01-26T09:26:43Z</time>
      </trkpt>
      <trkpt lat="47.3015" lon="4.98456">
        <ele>425</ele>
        <time>2013-01-26T09:26:45Z</time>
      </trkpt>
      <trkpt lat="47.30153" lon="4.98448">
        <ele>424</ele>
        <time>2013-01-26T09:26:48Z</time>
      </trkpt>
      <trkpt lat="47.30153" lon="4.98439">
        <ele>424</ele>
        <time>2013-01-26T09:26:51Z</time>
      </trkpt>
      <trkpt lat="47.30154" lon="4.98431">
        <ele>425</ele>
        <time>2013-01-26T09:26:54Z</time>
      </trkpt>
      <trkpt lat="47.30151" lon="4.98422">
        <ele>426</ele>
        <time>2013-01-26T09:26:59Z</time>
      </trkpt>
      <trkpt lat="47.30149" lon="4.98414">
        <ele>426</ele>
        <time>2013-01-26T09:27:00Z</time>
      </trkpt>
      <trkpt lat="47.30146" lon="4.98404">
        <ele>427</ele>
        <time>2013-01-26T09:27:02Z</time>
      </trkpt>
      <trkpt lat="47.30144" lon="4.98398">
        <ele>428</ele>
        <time>2013-01-26T09:27:04Z</time>
      </trkpt>
      <trkpt lat="47.30143" lon="4.98389">
        <ele>429</ele>
        <time>2013-01-26T09:27:08Z</time>
      </trkpt>
      <trkpt lat="47.30139" lon="4.98382">
        <ele>430</ele>
        <time>2013-01-26T09:27:12Z</time>
      </trkpt>
      <trkpt lat="47.30139" lon="4.98375">
        <ele>430</ele>
        <time>2013-01-26T09:27:15Z</time>
      </trkpt>
      <trkpt lat="47.30139" lon="4.98364">
        <ele>429</ele>
        <time>2013-01-26T09:27:18Z</time>
      </trkpt>
      <trkpt lat="47.3014" lon="4.98354">
        <ele>429</ele>
        <time>2013-01-26T09:27:21Z</time>
      </trkpt>
      <trkpt lat="47.30143" lon="4.98347">
        <ele>429</ele>
        <time>2013-01-26T09:27:24Z</time>
      </trkpt>
      <trkpt lat="47.30143" lon="4.98339">
        <ele>429</ele>
        <time>2013-01-26T09:27:27Z</time>
      </trkpt>
      <trkpt lat="47.30144" lon="4.98329">
        <ele>428</ele>
        <time>2013-01-26T09:27:30Z</time>
      </trkpt>
      <trkpt lat="47.30145" lon="4.9832">
        <ele>426</ele>
        <time>2013-01-26T09:27:33Z</time>
      </trkpt>
      <trkpt lat="47.30144" lon="4.98312">
        <ele>426</ele>
        <time>2013-01-26T09:27:35Z</time>
      </trkpt>
      <trkpt lat="47.30148" lon="4.98308">
        <ele>427</ele>
        <time>2013-01-26T09:27:38Z</time>
      </trkpt>
      <trkpt lat="47.30148" lon="4.98297">
        <ele>428</ele>
        <time>2013-01-26T09:27:41Z</time>
      </trkpt>
      <trkpt lat="47.30151" lon="4.98287">
        <ele>426</ele>
        <time>2013-01-26T09:27:44Z</time>
      </trkpt>
      <trkpt lat="47.30154" lon="4.98281">
        <ele>426</ele>
        <time>2013-01-26T09:27:47Z</time>
      </trkpt>
      <trkpt lat="47.30158" lon="4.98275">
        <ele>423</ele>
        <time>2013-01-26T09:27:50Z</time>
      </trkpt>
      <trkpt lat="47.30159" lon="4.98268">
        <ele>423</ele>
        <time>2013-01-26T09:27:52Z</time>
      </trkpt>
      <trkpt lat="47.3016" lon="4.9826">
        <ele>423</ele>
        <time>2013-01-26T09:27:55Z</time>
      </trkpt>
      <trkpt lat="47.30162" lon="4.98255">
        <ele>422</ele>
        <time>2013-01-26T09:27:58Z</time>
      </trkpt>
      <trkpt lat="47.30164" lon="4.98245">
        <ele>423</ele>
        <time>2013-01-26T09:28:01Z</time>
      </trkpt>
      <trkpt lat="47.30165" lon="4.98235">
        <ele>423</ele>
        <time>2013-01-26T09:28:04Z</time>
      </trkpt>
      <trkpt lat="47.30166" lon="4.98228">
        <ele>423</ele>
        <time>2013-01-26T09:28:07Z</time>
      </trkpt>
      <trkpt lat="47.30166" lon="4.9822">
        <ele>427</ele>
        <time>2013-01-26T09:28:16Z</time>
      </trkpt>
      <trkpt lat="47.30164" lon="4.98213">
        <ele>428</ele>
        <time>2013-01-26T09:28:20Z</time>
      </trkpt>
      <trkpt lat="47.30164" lon="4.98206">
        <ele>427</ele>
        <time>2013-01-26T09:28:22Z</time>
      </trkpt>
      <trkpt lat="47.30165" lon="4.98196">
        <ele>426</ele>
        <time>2013-01-26T09:28:24Z</time>
      </trkpt>
      <trkpt lat="47.30166" lon="4.98187">
        <ele>425</ele>
        <time>2013-01-26T09:28:26Z</time>
      </trkpt>
      <trkpt lat="47.30164" lon="4.98177">
        <ele>427</ele>
        <time>2013-01-26T09:28:28Z</time>
      </trkpt>
      <trkpt lat="47.30165" lon="4.98171">
        <ele>427</ele>
        <time>2013-01-26T09:28:30Z</time>
      </trkpt>
      <trkpt lat="47.30168" lon="4.98163">
        <ele>429</ele>
        <time>2013-01-26T09:28:33Z</time>
      </trkpt>
      <trkpt lat="47.30174" lon="4.98159">
        <ele>430</ele>
        <time>2013-01-26T09:28:36Z</time>
      </trkpt>
      <trkpt lat="47.30178" lon="4.98159">
        <ele>431</ele>
        <time>2013-01-26T09:28:38Z</time>
      </trkpt>
      <trkpt lat="47.30185" lon="4.98158">
        <ele>431</ele>
        <time>2013-01-26T09:28:41Z</time>
      </trkpt>
      <trkpt lat="47.30191" lon="4.98157">
        <ele>431</ele>
        <time>2013-01-26T09:28:44Z</time>
      </trkpt>
      <trkpt lat="47.30197" lon="4.98156">
        <ele>432</ele>
        <time>2013-01-26T09:28:47Z</time>
      </trkpt>
      <trkpt lat="47.30202" lon="4.9816">
        <ele>432</ele>
        <time>2013-01-26T09:28:50Z</time>
      </trkpt>
      <trkpt lat="47.30206" lon="4.98161">
        <ele>431</ele>
        <time>2013-01-26T09:28:53Z</time>
      </trkpt>
      <trkpt lat="47.30213" lon="4.98162">
        <ele>430</ele>
        <time>2013-01-26T09:28:56Z</time>
      </trkpt>
      <trkpt lat="47.30218" lon="4.98163">
        <ele>430</ele>
        <time>2013-01-26T09:28:58Z</time>
      </trkpt>
      <trkpt lat="47.30223" lon="4.98167">
        <ele>430</ele>
        <time>2013-01-26T09:29:01Z</time>
      </trkpt>
      <trkpt lat="47.30229" lon="4.98166">
        <ele>432</ele>
        <time>2013-01-26T09:29:04Z</time>
      </trkpt>
      <trkpt lat="47.30234" lon="4.98162">
        <ele>433</ele>
        <time>2013-01-26T09:29:07Z</time>
      </trkpt>
      <trkpt lat="47.30239" lon="4.98159">
        <ele>432</ele>
        <time>2013-01-26T09:29:10Z</time>
      </trkpt>
      <trkpt lat="47.30244" lon="4.98157">
        <ele>432</ele>
        <time>2013-01-26T09:29:13Z</time>
      </trkpt>
      <trkpt lat="47.30247" lon="4.98152">
        <ele>433</ele>
        <time>2013-01-26T09:29:16Z</time>
      </trkpt>
      <trkpt lat="47.30249" lon="4.98146">
        <ele>433</ele>
        <time>2013-01-26T09:29:19Z</time>
      </trkpt>
      <trkpt lat="47.30253" lon="4.98139">
        <ele>433</ele>
        <time>2013-01-26T09:29:22Z</time>
      </trkpt>
      <trkpt lat="47.30258" lon="4.98134">
        <ele>433</ele>
        <time>2013-01-26T09:29:25Z</time>
      </trkpt>
      <trkpt lat="47.30261" lon="4.98127">
        <ele>430</ele>
        <time>2013-01-26T09:29:29Z</time>
      </trkpt>
      <trkpt lat="47.30264" lon="4.98121">
        <ele>427</ele>
        <time>2013-01-26T09:29:34Z</time>
      </trkpt>
      <trkpt lat="47.30268" lon="4.98116">
        <ele>423</ele>
        <time>2013-01-26T09:29:53Z</time>
      </trkpt>
      <trkpt lat="47.30268" lon="4.98109">
        <ele>424</ele>
        <time>2013-01-26T09:30:02Z</time>
      </trkpt>
    </trkseg>
  </trk>
</gpx>